Provisional Data: Loyalsock Creek near Ringdale, PA


Please select a monitoring station.
Please select start date.
Please select start date.

Toggle Unit: C/F Toggle Unit: C/F
Sample Time Temperature (C) Temperature (F) Specific Conductivity (mS/cm) pH   Turbidity (NTU+) DO (mg/L)
6/3/2022 12:00:00 AM 18.44 65.192 0.034 6.56 2.77 8.36
6/3/2022 12:15:00 AM 18.39 65.102 0.033 6.5 3.03 8.36
6/3/2022 12:30:00 AM 18.31 64.958 0.033 6.55 2.87 8.39
6/3/2022 12:45:00 AM 18.26 64.868 0.033 6.56 2.83 8.4
6/3/2022 1:00:00 AM 18.21 64.778 0.032 6.54 3.05 8.47
6/3/2022 1:15:00 AM 18.14 64.652 0.032 6.58 3.12 8.5
6/3/2022 1:30:00 AM 18.08 64.544 0.032 6.55 2.95 8.47
6/3/2022 1:45:00 AM 18.02 64.436 0.034 6.54 2.87 8.41
6/3/2022 2:00:00 AM 17.96 64.328 0.033 6.55 2.71 8.47
6/3/2022 2:15:00 AM 17.91 64.238 0.034 6.53 2.78 8.45
6/3/2022 2:30:00 AM 17.84 64.112 0.033 6.54 2.7 8.48
6/3/2022 2:45:00 AM 17.8 64.04 0.033 6.53 3.04 8.47
6/3/2022 3:00:00 AM 17.74 63.932 0.032 6.51 3.75 8.46
6/3/2022 3:15:00 AM 17.7 63.86 0.032 6.53 2.85 8.55
6/3/2022 3:30:00 AM 17.65 63.77 0.031 6.54 3.75 8.57
6/3/2022 3:45:00 AM 17.59 63.662 0.034 6.54 2.83 8.49
6/3/2022 4:00:00 AM 17.55 63.59 0.032 6.5 2.9 8.54
6/3/2022 4:15:00 AM 17.5 63.5 0.033 6.55 2.84 8.55
6/3/2022 4:30:00 AM 17.43 63.374 0.034 6.53 2.86 8.57
6/3/2022 4:45:00 AM 17.39 63.302 0.033 6.54 3.31 8.6
6/3/2022 5:00:00 AM 17.35 63.23 0.032 6.53 2.9 8.6
6/3/2022 5:15:00 AM 17.28 63.104 0.032 6.53 2.64 8.61
6/3/2022 5:30:00 AM 17.24 63.032 0.032 6.55 2.75 8.67
6/3/2022 5:45:00 AM 17.17 62.906 0.031 6.53 3.54 8.65
6/3/2022 6:00:00 AM 17.13 62.834 0.032 6.5 2.76 8.66
6/3/2022 6:15:00 AM 17.05 62.69 0.032 6.54 2.75 8.68
6/3/2022 6:30:00 AM 17 62.6 0.032 6.56 2.65 8.72
6/3/2022 6:45:00 AM 16.95 62.51 0.033 6.49 2.66 8.7
6/3/2022 7:00:00 AM 16.95 62.51 0.032 6.52 2.95 8.77
6/3/2022 7:15:00 AM 16.9 62.42 0.032 6.53 2.62 8.82
6/3/2022 7:30:00 AM 16.88 62.384 0.032 6.54 3.04 8.92
6/3/2022 7:45:00 AM 16.95 62.51 0.033 6.51 2.84 8.85
6/3/2022 8:00:00 AM 16.98 62.564 0.032 6.56 2.64 8.96
6/3/2022 8:15:00 AM 17.01 62.618 0.032 6.55 2.56 8.99
6/3/2022 8:30:00 AM 17.09 62.762 0.031 6.58 2.8 9.03
6/3/2022 8:45:00 AM 17.16 62.888 0.031 6.59 2.65 9.07
6/3/2022 9:00:00 AM 17.25 63.05 0.031 6.61 2.68 9.1
6/3/2022 9:15:00 AM 17.33 63.194 0.03 6.6 3.42 9.09
6/3/2022 9:30:00 AM 17.43 63.374 0.032 6.61 2.69 9.1
6/3/2022 9:45:00 AM 17.54 63.572 0.03 6.59 3.52 9.09
6/3/2022 10:00:00 AM 17.67 63.806 0.031 6.67 2.74 9.14
6/3/2022 10:15:00 AM 17.78 64.004 0.031 6.66 2.49 9.15
6/3/2022 10:30:00 AM 17.91 64.238 0.03 6.71 2.52 9.16
6/3/2022 10:45:00 AM 18.08 64.544 0.03 6.75 2.46 9.15
6/3/2022 11:00:00 AM 18.22 64.796 0.029 6.69 3.45 9.12
6/3/2022 11:15:00 AM 18.48 65.264 0.03 6.74 2.65 9.1
6/3/2022 11:30:00 AM 18.64 65.552 0.029 6.74 2.54 9.07
6/3/2022 11:45:00 AM 18.89 66.002 0.03 6.75 2.68 9.05
6/3/2022 12:00:00 PM 19.1 66.38 0.03 6.74 2.48 9.02
6/3/2022 12:15:00 PM 19.36 66.848 0.03 6.76 2.6 8.99
6/3/2022 12:30:00 PM 19.65 67.37 0.029 6.75 3.52 8.95
6/3/2022 12:45:00 PM 19.84 67.712 0.029 6.78 2.48 8.92
6/3/2022 1:00:00 PM 20.06 68.108 0.03 6.74 2.41 8.87
6/3/2022 1:15:00 PM 20.28 68.504 0.03 6.76 2.56 8.82
6/3/2022 1:30:00 PM 20.56 69.008 0.029 6.76 3.32 8.79
6/3/2022 1:45:00 PM 20.81 69.458 0.029 6.76 2.53 8.74
6/3/2022 2:00:00 PM 20.96 69.728 0.029 6.79 2.54 8.71
6/3/2022 2:15:00 PM 21.16 70.088 0.029 6.76 2.39 8.68
6/3/2022 2:30:00 PM 21.39 70.502 0.029 6.77 2.55 8.64
6/3/2022 2:45:00 PM 21.59 70.862 0.029 6.8 2.76 8.62
6/3/2022 3:00:00 PM 21.8 71.24 0.029 6.79 2.82 8.57
6/3/2022 3:15:00 PM 21.96 71.528 0.029 6.8 3.35 8.54
6/3/2022 3:30:00 PM 22.09 71.762 0.029 6.75 2.54 8.51
6/3/2022 3:45:00 PM 22.24 72.032 0.029 6.8 2.46 8.5
6/3/2022 4:00:00 PM 22.31 72.158 0.029 6.8 2.43 8.44
6/3/2022 4:15:00 PM 22.48 72.464 0.028 6.78 3.29 8.43
6/3/2022 4:30:00 PM 22.5 72.5 0.029 6.76 2.37 8.41
6/3/2022 4:45:00 PM 22.55 72.59 0.029 6.78 2.99 8.39
6/3/2022 5:00:00 PM 22.56 72.608 0.029 6.79 2.8 8.37
6/3/2022 5:15:00 PM 22.5 72.5 0.029 6.79 2.44 8.33
6/3/2022 5:30:00 PM 22.38 72.284 0.029 6.75 3.29 8.3
6/3/2022 5:45:00 PM 22.3 72.14 0.029 6.75 3.27 8.31
6/3/2022 6:00:00 PM 22.16 71.888 0.03 6.74 2.51 8.32
6/3/2022 6:15:00 PM 22.06 71.708 0.029 6.73 3.22 8.29
6/3/2022 6:30:00 PM 21.94 71.492 0.03 6.77 2.62 8.31
6/3/2022 6:45:00 PM 21.72 71.096 0.03 6.72 2.55 8.3
6/3/2022 7:00:00 PM 21.49 70.682 0.031 6.69 2.44 8.3
6/3/2022 7:15:00 PM 21.21 70.17799 0.03 6.67 3.27 8.31
6/3/2022 7:30:00 PM 20.97 69.746 0.031 6.7 2.59 8.32
6/3/2022 7:45:00 PM 20.69 69.242 0.031 6.69 2.53 8.32
6/3/2022 8:00:00 PM 20.43 68.774 0.031 6.62 3.37 8.27
6/3/2022 8:15:00 PM 20.21 68.378 0.031 6.67 2.41 8.28
6/3/2022 8:30:00 PM 20 68 0.031 6.66 2.58 8.29
6/3/2022 8:45:00 PM 19.78 67.604 0.031 6.64 2.56 8.29
6/3/2022 9:00:00 PM 19.61 67.298 0.031 6.63 2.58 8.3
6/3/2022 9:15:00 PM 19.39 66.902 0.031 6.63 2.53 8.32
6/3/2022 9:30:00 PM 19.22 66.596 0.032 6.59 2.88 8.28
6/3/2022 9:45:00 PM 19.03 66.254 0.032 6.6 2.59 8.32
6/3/2022 10:00:00 PM 18.85 65.93 0.031 6.59 3.32 8.35
6/3/2022 10:15:00 PM 18.67 65.606 0.031 6.59 2.53 8.37
6/3/2022 10:30:00 PM 18.51 65.318 0.031 6.58 3.27 8.41
6/3/2022 10:45:00 PM 18.34 65.012 0.032 6.59 2.7 8.45
6/3/2022 11:00:00 PM 18.19 64.742 0.031 6.6 2.66 8.48
6/3/2022 11:15:00 PM 18.03 64.454 0.032 6.52 2.49 8.48
6/3/2022 11:30:00 PM 17.88 64.184 0.031 6.6 2.47 8.55
6/3/2022 11:45:00 PM 17.72 63.896 0.031 6.58 2.63 8.54
6/4/2022 12:00:00 AM 17.57 63.626 0.031 6.53 2.61 8.6
6/4/2022 12:15:00 AM 17.43 63.374 0.032 6.56 2.47 8.61
6/4/2022 12:30:00 AM 17.28 63.104 0.032 6.56 2.44 8.63
6/4/2022 12:45:00 AM 17.14 62.852 0.032 6.56 2.54 8.67
6/4/2022 1:00:00 AM 16.99 62.582 0.032 6.49 2.63 8.7
6/4/2022 1:15:00 AM 16.85 62.33 0.032 6.55 2.42 8.73
6/4/2022 1:30:00 AM 16.7 62.06 0.031 6.53 3.19 8.77
6/4/2022 1:45:00 AM 16.56 61.808 0.032 6.5 2.63 8.8
6/4/2022 2:00:00 AM 16.41 61.538 0.031 6.54 3.35 8.84
6/4/2022 2:15:00 AM 16.28 61.304 0.031 6.55 2.5 8.86
6/4/2022 2:30:00 AM 16.13 61.034 0.03 6.54 3.28 8.9
6/4/2022 2:45:00 AM 16 60.8 0.032 6.52 2.7 8.93
6/4/2022 3:00:00 AM 15.87 60.566 0.031 6.49 3.3 8.97
6/4/2022 3:15:00 AM 15.74 60.332 0.032 6.5 2.83 8.98
6/4/2022 3:30:00 AM 15.61 60.098 0.032 6.47 2.75 9.01
6/4/2022 3:45:00 AM 15.47 59.846 0.031 6.55 2.75 9.06
6/4/2022 4:00:00 AM 15.33 59.594 0.032 6.51 2.6 9.06
6/4/2022 4:15:00 AM 15.21 59.378 0.032 6.51 2.7 9.11
6/4/2022 4:30:00 AM 15.09 59.162 0.032 6.51 2.92 9.13
6/4/2022 4:45:00 AM 14.96 58.928 0.031 6.51 2.62 9.17
6/4/2022 5:00:00 AM 14.85 58.73 0.032 6.5 2.96 9.19
6/4/2022 5:15:00 AM 14.72 58.496 0.031 6.53 2.64 9.25
6/4/2022 5:30:00 AM 14.6 58.28 0.031 6.52 2.69 9.27
6/4/2022 5:45:00 AM 14.5 58.1 0.031 6.48 2.55 9.29
6/4/2022 6:00:00 AM 14.38 57.884 0.03 6.49 3.36 9.33
6/4/2022 6:15:00 AM 14.29 57.722 0.03 6.48 3.6 9.35
6/4/2022 6:30:00 AM 14.2 57.56 0.031 6.51 2.51 9.41
6/4/2022 6:45:00 AM 14.15 57.47 0.031 6.49 3.3 9.44
6/4/2022 7:00:00 AM 14.1 57.38 0.032 6.49 2.47 9.46
6/4/2022 7:15:00 AM 14.07 57.326 0.032 6.51 2.5 9.54
6/4/2022 7:30:00 AM 14.06 57.308 0.031 6.49 3.21 9.58
6/4/2022 7:45:00 AM 14.08 57.344 0.032 6.52 2.56 9.63
6/4/2022 8:00:00 AM 14.11 57.398 0.033 6.53 2.5 9.64
6/4/2022 8:15:00 AM 14.19 57.542 0.033 6.55 2.46 9.69
6/4/2022 8:30:00 AM 14.5 58.1 0.03 6.58 3.02 9.68
6/4/2022 8:45:00 AM 14.61 58.298 0.03 6.54 3.12 9.65
6/4/2022 9:00:00 AM 14.78 58.604 0.03 6.59 3.11 9.68
6/4/2022 9:15:00 AM 14.95 58.91 0.031 6.65 2.37 9.69
6/4/2022 9:30:00 AM 15.16 59.288 0.031 6.5 2.3 9.7
6/4/2022 9:45:00 AM 15.34 59.612 0.03 6.69 2.39 9.7
6/4/2022 10:00:00 AM 15.54 59.972 0.03 6.71 2.27 9.7
6/4/2022 10:15:00 AM 15.78 60.404 0.029 6.7 3.11 9.68
6/4/2022 10:30:00 AM 16 60.8 0.03 6.56 2.32 9.65
6/4/2022 10:45:00 AM 16.22 61.196 0.029 6.74 3.14 9.63
6/4/2022 11:00:00 AM 16.51 61.718 0.031 6.74 2.15 9.58
6/4/2022 11:15:00 AM 16.75 62.15 0.03 6.75 2.3 9.55
6/4/2022 11:30:00 AM 17 62.6 0.031 6.74 2.28 9.49
6/4/2022 11:45:00 AM 17.28 63.104 0.03 6.75 2.26 9.46
6/4/2022 12:00:00 PM 17.57 63.626 0.031 6.75 2.35 9.39
6/4/2022 12:15:00 PM 17.87 64.166 0.03 6.77 2.17 9.38
6/4/2022 12:30:00 PM 18.17 64.706 0.03 6.73 2.7 9.31
6/4/2022 12:45:00 PM 18.43 65.174 0.03 6.79 2.13 9.27
6/4/2022 1:00:00 PM 18.72 65.696 0.029 6.76 3.15 9.21
6/4/2022 1:15:00 PM 19.03 66.254 0.03 6.78 2.49 9.16
6/4/2022 1:30:00 PM 19.31 66.758 0.03 6.81 2.25 9.12
6/4/2022 1:45:00 PM 19.58 67.244 0.03 6.64 2.19 9.07
6/4/2022 2:00:00 PM 19.91 67.838 0.03 6.82 2.15 9.02
6/4/2022 2:15:00 PM 20.21 68.378 0.03 6.81 2.16 8.96
6/4/2022 2:30:00 PM 20.39 68.702 0.028 6.8 2.99 8.92
6/4/2022 2:45:00 PM 20.64 69.152 0.028 6.8 3.17 8.87
6/4/2022 3:00:00 PM 20.85 69.53 0.03 6.82 2.29 8.84
6/4/2022 3:15:00 PM 21.07 69.926 0.03 6.83 2.2 8.79
6/4/2022 3:30:00 PM 21.24 70.232 0.029 6.81 2.9 8.75
6/4/2022 3:45:00 PM 21.37 70.466 0.03 6.81 2.17 8.72
6/4/2022 4:00:00 PM 21.53 70.754 0.029 6.84 2.16 8.69
6/4/2022 4:15:00 PM 21.61 70.898 0.03 6.69 2.11 8.66
6/4/2022 4:30:00 PM 21.7 71.06 0.029 6.84 2.23 8.63
6/4/2022 4:45:00 PM 21.77 71.186 0.029 6.84 2.26 8.6
6/4/2022 5:00:00 PM 21.82 71.276 0.03 6.71 2.25 8.58
6/4/2022 5:15:00 PM 21.82 71.276 0.029 6.84 2.16 8.56
6/4/2022 5:30:00 PM 21.76 71.168 0.029 6.83 2.15 8.55
6/4/2022 5:45:00 PM 21.76 71.168 0.03 6.84 2.14 8.53
6/4/2022 6:00:00 PM 21.69 71.042 0.03 6.68 2.19 8.52
6/4/2022 6:15:00 PM 21.6 70.88 0.03 6.83 2.22 8.5
6/4/2022 6:30:00 PM 21.45 70.61 0.03 6.66 2.46 8.51
6/4/2022 6:45:00 PM 21.25 70.25 0.03 6.8 2.33 8.49
6/4/2022 7:00:00 PM 21.04 69.872 0.03 6.78 2.27 8.48
6/4/2022 7:15:00 PM 20.78 69.404 0.03 6.75 3.08 8.47
6/4/2022 7:30:00 PM 20.51 68.918 0.029 6.73 3.07 8.47
6/4/2022 7:45:00 PM 20.26 68.468 0.031 6.73 2.26 8.45
6/4/2022 8:00:00 PM 19.95 67.91 0.031 6.71 2.24 8.43
6/4/2022 8:15:00 PM 19.66 67.388 0.031 6.71 2.4 8.44
6/4/2022 8:30:00 PM 19.42 66.956 0.031 6.68 2.49 8.42
6/4/2022 8:45:00 PM 19.16 66.488 0.032 6.64 2.34 8.41
6/4/2022 9:00:00 PM 18.95 66.11 0.032 6.68 2.3 8.43
6/4/2022 9:15:00 PM 18.71 65.67799 0.032 6.65 2.28 8.42
6/4/2022 9:30:00 PM 18.49 65.282 0.032 6.64 2.39 8.44
6/4/2022 9:45:00 PM 18.29 64.922 0.032 6.65 2.34 8.48
6/4/2022 10:00:00 PM 18.08 64.544 0.032 6.65 2.34 8.51
6/4/2022 10:15:00 PM 17.85 64.13 0.032 6.64 2.41 8.55
6/4/2022 10:30:00 PM 17.65 63.77 0.033 6.55 2.39 8.53
6/4/2022 10:45:00 PM 17.46 63.428 0.033 6.62 2.41 8.58
6/4/2022 11:00:00 PM 17.25 63.05 0.033 6.61 2.29 8.62
6/4/2022 11:15:00 PM 17.07 62.726 0.033 6.61 2.28 8.65
6/4/2022 11:30:00 PM 16.88 62.384 0.033 6.63 2.36 8.7
6/4/2022 11:45:00 PM 16.67 62.006 0.033 6.61 2.35 8.75
6/5/2022 12:00:00 AM 16.52 61.736 0.033 6.55 2.39 8.77
6/5/2022 12:15:00 AM 16.31 61.358 0.033 6.61 2.25 8.82
6/5/2022 12:30:00 AM 16.15 61.07 0.032 6.58 3.14 8.84
6/5/2022 12:45:00 AM 15.96 60.728 0.033 6.59 2.4 8.89
6/5/2022 1:00:00 AM 15.8 60.44 0.035 6.57 2.26 8.89
6/5/2022 1:15:00 AM 15.62 60.116 0.034 6.55 2.3 8.97
6/5/2022 1:30:00 AM 15.44 59.792 0.034 6.6 2.54 9.02
6/5/2022 1:45:00 AM 15.29 59.522 0.034 6.58 2.32 9.05
6/5/2022 2:00:00 AM 15.14 59.252 0.034 6.57 2.33 9.07
6/5/2022 2:15:00 AM 14.99 58.982 0.034 6.59 2.28 9.13
6/5/2022 2:30:00 AM 14.83 58.694 0.034 6.57 2.28 9.15
6/5/2022 2:45:00 AM 14.68 58.424 0.034 6.58 2.26 9.19
6/5/2022 3:00:00 AM 14.54 58.172 0.034 6.52 3.18 9.22
6/5/2022 3:15:00 AM 14.4 57.92 0.033 6.52 3.18 9.24
6/5/2022 3:30:00 AM 14.27 57.686 0.034 6.52 2.31 9.29
6/5/2022 3:45:00 AM 14.13 57.434 0.033 6.54 3.18 9.33
6/5/2022 4:00:00 AM 14.01 57.218 0.034 6.54 2.5 9.34
6/5/2022 4:15:00 AM 13.92 57.056 0.033 6.53 3.08 9.37
6/5/2022 4:30:00 AM 13.98 57.164 0.033 6.52 3.18 9.34
6/5/2022 4:45:00 AM 13.85 56.93 0.034 6.47 2.17 9.35
6/5/2022 5:00:00 AM 13.73 56.714 0.033 6.5 3.19 9.37
6/5/2022 5:15:00 AM 13.6 56.48 0.034 6.46 2.3 9.42
6/5/2022 5:30:00 AM 13.51 56.318 0.034 6.53 2.28 9.45
6/5/2022 5:45:00 AM 13.38 56.084 0.034 6.54 2.32 9.49
6/5/2022 6:00:00 AM 13.27 55.886 0.034 6.52 2.61 9.5
6/5/2022 6:15:00 AM 13.17 55.706 0.032 6.49 3.49 9.55
6/5/2022 6:30:00 AM 13.08 55.544 0.032 6.49 3.41 9.61
6/5/2022 6:45:00 AM 13.02 55.436 0.032 6.52 3.31 9.66
6/5/2022 7:00:00 AM 12.94 55.292 0.034 6.48 2.34 9.69
6/5/2022 7:15:00 AM 12.91 55.238 0.033 6.51 3.15 9.76
6/5/2022 7:30:00 AM 12.9 55.22 0.032 6.52 3.05 9.81
6/5/2022 7:45:00 AM 12.91 55.238 0.033 6.57 2.16 9.86
6/5/2022 8:00:00 AM 12.95 55.31 0.034 6.49 2.3 9.86
6/5/2022 8:15:00 AM 12.99 55.382 0.033 6.59 2.14 9.93
6/5/2022 8:30:00 AM 13.08 55.544 0.033 6.56 2.95 9.97
6/5/2022 8:45:00 AM 13.16 55.688 0.033 6.63 2.19 10.02
6/5/2022 9:00:00 AM 13.31 55.958 0.032 6.59 2.18 10.03
6/5/2022 9:15:00 AM 13.45 56.21 0.032 6.67 2.15 10.06
6/5/2022 9:30:00 AM 13.61 56.498 0.031 6.66 2.98 10.08
6/5/2022 9:45:00 AM 13.76 56.768 0.033 6.69 2.02 10.07
6/5/2022 10:00:00 AM 13.88 56.984 0.031 6.68 2.93 10.09
6/5/2022 10:15:00 AM 14.01 57.218 0.03 6.69 2.94 10.09
6/5/2022 10:30:00 AM 14.18 57.524 0.031 6.71 2.9 10.09
6/5/2022 10:45:00 AM 14.33 57.794 0.031 6.72 2.98 10.09
6/5/2022 11:00:00 AM 14.47 58.046 0.031 6.71 2.11 10.08
6/5/2022 11:15:00 AM 14.61 58.298 0.031 6.78 2.16 10.07
6/5/2022 11:30:00 AM 14.82 58.676 0.03 6.76 2.95 10.06
6/5/2022 11:45:00 AM 14.97 58.946 0.031 6.74 2.09 10.04
6/5/2022 12:00:00 PM 15.17 59.306 0.031 6.81 2.14 10.02
6/5/2022 12:15:00 PM 15.41 59.738 0.031 6.81 2.12 9.99
6/5/2022 12:30:00 PM 15.62 60.116 0.031 6.74 2.02 9.94
6/5/2022 12:45:00 PM 15.82 60.476 0.032 6.81 2.09 9.9
6/5/2022 1:00:00 PM 16.06 60.908 0.031 6.78 2.11 9.85
6/5/2022 1:15:00 PM 16.3 61.34 0.031 6.83 2.06 9.81
6/5/2022 1:30:00 PM 16.54 61.772 0.031 6.83 2.02 9.76
6/5/2022 1:45:00 PM 16.83 62.294 0.031 6.79 2.21 9.71
6/5/2022 2:00:00 PM 17.15 62.87 0.03 6.84 2.08 9.66
6/5/2022 2:15:00 PM 17.36 63.248 0.03 6.85 2.01 9.6
6/5/2022 2:30:00 PM 17.66 63.788 0.03 6.85 2.02 9.55
6/5/2022 2:45:00 PM 17.98 64.364 0.03 6.81 2.87 9.48
6/5/2022 3:00:00 PM 18.23 64.814 0.031 6.82 2.04 9.42
6/5/2022 3:15:00 PM 18.54 65.372 0.03 6.83 2.91 9.37
6/5/2022 3:30:00 PM 18.8 65.84 0.029 6.81 2.93 9.31
6/5/2022 3:45:00 PM 19.06 66.308 0.029 6.82 2.85 9.25
6/5/2022 4:00:00 PM 19.33 66.794 0.03 6.85 1.98 9.2
6/5/2022 4:15:00 PM 19.6 67.28 0.03 6.85 2.02 9.17
6/5/2022 4:30:00 PM 19.83 67.694 0.03 6.79 1.99 9.12
6/5/2022 4:45:00 PM 19.93 67.874 0.029 6.83 2.77 9.09
6/5/2022 5:00:00 PM 19.89 67.802 0.03 6.85 2.11 9.03
6/5/2022 5:15:00 PM 19.88 67.784 0.031 6.8 2.02 8.96
6/5/2022 5:30:00 PM 19.97 67.946 0.03 6.82 2 8.94
6/5/2022 5:45:00 PM 20.03 68.054 0.031 6.84 1.95 8.93
6/5/2022 6:00:00 PM 19.99 67.982 0.031 6.82 2.03 8.92
6/5/2022 6:15:00 PM 19.91 67.838 0.03 6.8 2.9 8.91
6/5/2022 6:30:00 PM 19.84 67.712 0.029 6.78 2.82 8.9
6/5/2022 6:45:00 PM 19.72 67.496 0.031 6.83 2.19 8.9
6/5/2022 7:00:00 PM 19.57 67.226 0.031 6.81 2.08 8.88
6/5/2022 7:15:00 PM 19.36 66.848 0.031 6.81 2.13 8.86
6/5/2022 7:30:00 PM 19.16 66.488 0.031 6.79 1.98 8.84
6/5/2022 7:45:00 PM 18.92 66.056 0.032 6.77 2.11 8.79
6/5/2022 8:00:00 PM 18.68 65.624 0.032 6.74 2.05 8.77
6/5/2022 8:15:00 PM 18.46 65.228 0.032 6.75 2.16 8.73
6/5/2022 8:30:00 PM 18.2 64.76 0.032 6.73 2.11 8.72
6/5/2022 8:45:00 PM 17.98 64.364 0.032 6.69 2.94 8.72
6/5/2022 9:00:00 PM 17.75 63.95 0.032 6.7 2.17 8.73
6/5/2022 9:15:00 PM 17.56 63.608 0.033 6.64 2.12 8.74
6/5/2022 9:30:00 PM 17.35 63.23 0.031 6.67 2.98 8.74
6/5/2022 9:45:00 PM 17.14 62.852 0.031 6.64 2.98 8.76
6/5/2022 10:00:00 PM 16.98 62.564 0.033 6.66 2.16 8.76
6/5/2022 10:15:00 PM 16.84 62.312 0.033 6.65 2.37 8.77
6/5/2022 10:30:00 PM 16.67 62.006 0.033 6.66 2.42 8.82
6/5/2022 10:45:00 PM 16.52 61.736 0.033 6.65 2.11 8.83
6/5/2022 11:00:00 PM 16.37 61.466 0.033 6.64 2.41 8.85
6/5/2022 11:15:00 PM 16.22 61.196 0.033 6.64 2.15 8.88
6/5/2022 11:30:00 PM 16.05 60.89 0.032 6.61 2.98 8.9
6/5/2022 11:45:00 PM 15.92 60.656 0.034 6.64 2.34 8.93
6/6/2022 12:00:00 AM 15.79 60.422 0.034 6.63 2.52 8.94
6/6/2022 12:15:00 AM 15.67 60.206 0.034 6.6 2.58 8.95
6/6/2022 12:30:00 AM 15.55 59.99 0.033 6.61 2.47 9.01
6/6/2022 12:45:00 AM 15.42 59.756 0.034 6.63 2.43 9.05
6/6/2022 1:00:00 AM 15.3 59.54 0.032 6.59 3.23 9.06
6/6/2022 1:15:00 AM 15.17 59.306 0.032 6.57 3.35 9.06
6/6/2022 1:30:00 AM 15.04 59.072 0.034 6.61 2.55 9.12
6/6/2022 1:45:00 AM 14.93 58.874 0.033 6.57 3.11 9.13
6/6/2022 2:00:00 AM 14.82 58.676 0.033 6.6 2.24 9.17
6/6/2022 2:15:00 AM 14.72 58.496 0.032 6.57 3.07 9.18
6/6/2022 2:30:00 AM 14.61 58.298 0.033 6.57 3.02 9.22
6/6/2022 2:45:00 AM 14.52 58.136 0.032 6.57 3.02 9.25
6/6/2022 3:00:00 AM 14.41 57.938 0.034 6.53 2.14 9.26
6/6/2022 3:15:00 AM 14.3 57.74 0.034 6.61 2.23 9.31
6/6/2022 3:30:00 AM 14.22 57.596 0.034 6.6 2.12 9.28
6/6/2022 3:45:00 AM 14.1 57.38 0.033 6.56 2.99 9.34
6/6/2022 4:00:00 AM 14.02 57.236 0.033 6.53 2.22 9.36
6/6/2022 4:15:00 AM 13.94 57.092 0.033 6.57 2.97 9.34
6/6/2022 4:30:00 AM 14.02 57.236 0.034 6.57 2.3 9.29
6/6/2022 4:45:00 AM 13.9 57.02 0.034 6.59 2.15 9.35
6/6/2022 5:00:00 AM 13.81 56.858 0.034 6.59 2.21 9.37
6/6/2022 5:15:00 AM 13.73 56.714 0.034 6.59 2.39 9.39
6/6/2022 5:30:00 AM 13.66 56.588 0.036 6.55 2.45 9.32
6/6/2022 5:45:00 AM 13.55 56.39 0.034 6.52 3.05 9.36
6/6/2022 6:00:00 AM 13.46 56.228 0.035 6.49 3.42 9.37
6/6/2022 6:15:00 AM 13.36 56.048 0.034 6.54 2.15 9.5
6/6/2022 6:30:00 AM 13.27 55.886 0.034 6.6 2.29 9.56
6/6/2022 6:45:00 AM 13.24 55.832 0.034 6.58 2.31 9.58
6/6/2022 7:00:00 AM 13.19 55.742 0.034 6.59 2.31 9.62
6/6/2022 7:15:00 AM 13.18 55.724 0.033 6.56 3.08 9.66
6/6/2022 7:30:00 AM 13.18 55.724 0.034 6.61 2.09 9.75
6/6/2022 7:45:00 AM 13.2 55.76 0.033 6.57 3.12 9.77
6/6/2022 8:00:00 AM 13.24 55.832 0.035 6.61 2.19 9.8
6/6/2022 8:15:00 AM 13.31 55.958 0.034 6.63 2.06 9.85
6/6/2022 8:30:00 AM 13.42 56.156 0.033 6.65 2.13 9.89
6/6/2022 8:45:00 AM 13.54 56.372 0.033 6.66 2.04 9.92
6/6/2022 9:00:00 AM 13.71 56.678 0.033 6.67 2.03 9.92
6/6/2022 9:15:00 AM 13.94 57.092 0.034 6.6 2.02 9.94
6/6/2022 9:30:00 AM 14.15 57.47 0.033 6.69 2.22 9.96
6/6/2022 9:45:00 AM 14.39 57.902 0.033 6.72 2.04 9.95
6/6/2022 10:00:00 AM 14.56 58.208 0.033 6.73 2.01 9.95
6/6/2022 10:15:00 AM 14.86 58.748 0.033 6.73 2.11 9.94
6/6/2022 10:30:00 AM 15.16 59.288 0.032 6.75 2.11 9.94
6/6/2022 10:45:00 AM 15.34 59.612 0.032 6.75 1.92 9.9
6/6/2022 11:00:00 AM 15.66 60.188 0.032 6.7 2.89 9.87
6/6/2022 11:15:00 AM 15.85 60.53 0.031 6.73 2.83 9.84
6/6/2022 11:30:00 AM 16.13 61.034 0.032 6.78 2 9.79
6/6/2022 11:45:00 AM 16.45 61.61 0.032 6.79 1.95 9.76
6/6/2022 12:00:00 PM 16.7 62.06 0.031 6.77 2.86 9.71
6/6/2022 12:15:00 PM 17.01 62.618 0.032 6.81 1.93 9.67
6/6/2022 12:30:00 PM 17.36 63.248 0.032 6.81 1.99 9.6
6/6/2022 12:45:00 PM 17.72 63.896 0.032 6.79 2.01 9.52
6/6/2022 1:00:00 PM 18.07 64.526 0.032 6.75 2.07 9.47
6/6/2022 1:15:00 PM 18.44 65.192 0.031 6.8 2.82 9.41
6/6/2022 1:30:00 PM 18.8 65.84 0.03 6.8 3.02 9.35
6/6/2022 1:45:00 PM 19.13 66.434 0.032 6.83 2 9.3
6/6/2022 2:00:00 PM 19.46 67.028 0.032 6.84 2 9.23
6/6/2022 2:15:00 PM 19.79 67.622 0.031 6.82 2.75 9.17
6/6/2022 2:30:00 PM 20.22 68.396 0.032 6.83 1.98 9.09
6/6/2022 2:45:00 PM 20.45 68.81 0.032 6.84 1.91 9.05
6/6/2022 3:00:00 PM 20.71 69.278 0.032 6.84 1.98 9
6/6/2022 3:15:00 PM 20.95 69.71 0.032 6.85 1.96 8.94
6/6/2022 3:30:00 PM 21.22 70.196 0.032 6.85 1.88 8.89
6/6/2022 3:45:00 PM 21.45 70.61 0.032 6.85 1.89 8.86
6/6/2022 4:00:00 PM 21.6 70.88 0.031 6.84 2.72 8.82
6/6/2022 4:15:00 PM 21.73 71.114 0.031 6.84 2.3 8.81
6/6/2022 4:30:00 PM 21.79 71.222 0.03 6.83 2.73 8.77
6/6/2022 4:45:00 PM 21.87 71.366 0.031 6.84 2.81 8.73
6/6/2022 5:00:00 PM 21.93 71.474 0.032 6.82 1.95 8.71
6/6/2022 5:15:00 PM 21.94 71.492 0.032 6.87 1.87 8.69
6/6/2022 5:30:00 PM 21.92 71.456 0.032 6.86 1.96 8.68
6/6/2022 5:45:00 PM 21.87 71.366 0.032 6.87 2.05 8.66
6/6/2022 6:00:00 PM 21.73 71.114 0.032 6.85 2.06 8.65
6/6/2022 6:15:00 PM 21.65 70.97 0.032 6.81 1.98 8.64
6/6/2022 6:30:00 PM 21.55 70.79 0.032 6.86 2.05 8.64
6/6/2022 6:45:00 PM 21.4 70.52 0.032 6.85 2.21 8.63
6/6/2022 7:00:00 PM 21.25 70.25 0.032 6.84 2.06 8.61
6/6/2022 7:15:00 PM 21.07 69.926 0.032 6.8 2.02 8.59
6/6/2022 7:30:00 PM 20.85 69.53 0.032 6.84 2 8.57
6/6/2022 7:45:00 PM 20.65 69.17 0.031 6.79 2.89 8.54
6/6/2022 8:00:00 PM 20.46 68.828 0.032 6.81 2.55 8.52
6/6/2022 8:15:00 PM 20.23 68.414 0.031 6.76 2.83 8.48
6/6/2022 8:30:00 PM 20.04 68.07201 0.033 6.76 2.04 8.45
6/6/2022 8:45:00 PM 19.84 67.712 0.032 6.72 2.87 8.42
6/6/2022 9:00:00 PM 19.66 67.388 0.034 6.73 2.16 8.35
6/6/2022 9:15:00 PM 19.44 66.992 0.033 6.67 2.05 8.34
6/6/2022 9:30:00 PM 19.27 66.686 0.034 6.72 2.08 8.35
6/6/2022 9:45:00 PM 19.1 66.38 0.034 6.69 2.1 8.34
6/6/2022 10:00:00 PM 18.94 66.092 0.034 6.68 2.26 8.36
6/6/2022 10:15:00 PM 18.78 65.804 0.034 6.69 2.15 8.35
6/6/2022 10:30:00 PM 18.63 65.534 0.034 6.64 2.94 8.34
6/6/2022 10:45:00 PM 18.47 65.246 0.034 6.63 3.08 8.34
6/6/2022 11:00:00 PM 18.34 65.012 0.034 6.66 2.23 8.34
6/6/2022 11:15:00 PM 18.19 64.742 0.035 6.66 2.13 8.41
6/6/2022 11:30:00 PM 18.08 64.544 0.035 6.61 2.26 8.41
6/6/2022 11:45:00 PM 17.93 64.274 0.034 6.64 2.99 8.41
6/7/2022 12:00:00 AM 17.8 64.04 0.036 6.63 2.06 8.41
6/7/2022 12:15:00 AM 17.68 63.824 0.035 6.58 2.19 8.47
6/7/2022 12:30:00 AM 17.55 63.59 0.035 6.63 2.13 8.46
6/7/2022 12:45:00 AM 17.44 63.392 0.035 6.63 2.82 8.44
6/7/2022 1:00:00 AM 17.32 63.176 0.036 6.56 3.9 8.39
6/7/2022 1:15:00 AM 17.2 62.96 0.035 6.58 2.59 8.44
6/7/2022 1:30:00 AM 17.13 62.834 0.037 6.56 2.82 8.44
6/7/2022 1:45:00 AM 17.03 62.654 0.039 6.55 2.9 8.35
6/7/2022 2:00:00 AM 16.92 62.456 0.038 6.54 2.54 8.43
6/7/2022 2:15:00 AM 16.84 62.312 0.039 6.46 3.39 8.33
6/7/2022 2:30:00 AM 16.73 62.114 0.036 6.51 2.51 8.44
6/7/2022 2:45:00 AM 16.64 61.952 0.039 6.52 2.98 8.38
6/7/2022 3:00:00 AM 16.56 61.808 0.037 6.48 3.21 8.45
6/7/2022 3:15:00 AM 16.47 61.646 0.036 6.55 3 8.6
6/7/2022 3:30:00 AM 16.38 61.484 0.037 6.55 2.19 8.67
6/7/2022 3:45:00 AM 16.31 61.358 0.038 6.56 2.33 8.59
6/7/2022 4:00:00 AM 16.22 61.196 0.035 6.56 3.11 8.71
6/7/2022 4:15:00 AM 16.12 61.016 0.037 6.57 2.26 8.67
6/7/2022 4:30:00 AM 16.04 60.872 0.039 6.49 3.11 8.62
6/7/2022 4:45:00 AM 15.96 60.728 0.037 6.56 3.02 8.62
6/7/2022 5:00:00 AM 15.87 60.566 0.036 6.58 2.23 8.69
6/7/2022 5:15:00 AM 15.79 60.422 0.036 6.6 2.31 8.83
6/7/2022 5:30:00 AM 15.73 60.314 0.035 6.58 2.18 8.78
6/7/2022 5:45:00 AM 15.62 60.116 0.036 6.61 2.46 8.88
6/7/2022 6:00:00 AM 15.55 59.99 0.036 6.61 2.56 8.95
6/7/2022 6:15:00 AM 15.48 59.864 0.035 6.59 2.53 8.87
6/7/2022 6:30:00 AM 15.42 59.756 0.037 6.58 2.63 8.95
6/7/2022 6:45:00 AM 15.38 59.684 0.038 6.54 2.36 8.96
6/7/2022 7:00:00 AM 15.34 59.612 0.038 6.6 2.28 9.03
6/7/2022 7:15:00 AM 15.32 59.576 0.036 6.62 2.19 9.1
6/7/2022 7:30:00 AM 15.28 59.504 0.036 6.64 2.13 9.16
6/7/2022 7:45:00 AM 15.23 59.414 0.035 6.62 2.87 9.26
6/7/2022 8:00:00 AM 15.26 59.468 0.036 6.66 2.05 9.29
6/7/2022 8:15:00 AM 15.3 59.54 0.035 6.67 2.11 9.32
6/7/2022 8:30:00 AM 15.38 59.684 0.035 6.64 2.92 9.36
6/7/2022 8:45:00 AM 15.44 59.792 0.035 6.63 2.05 9.4
6/7/2022 9:00:00 AM 15.5 59.9 0.035 6.72 2.16 9.48
6/7/2022 9:15:00 AM 15.65 60.17 0.036 6.65 2.22 9.51
6/7/2022 9:30:00 AM 15.84 60.512 0.035 6.72 1.93 9.5
6/7/2022 9:45:00 AM 16 60.8 0.034 6.69 2.87 9.55
6/7/2022 10:00:00 AM 16.2 61.16 0.036 6.67 2.86 9.52
6/7/2022 10:15:00 AM 16.4 61.52 0.036 6.74 2 9.59
6/7/2022 10:30:00 AM 16.49 61.682 0.035 6.77 2.06 9.6
6/7/2022 10:45:00 AM 16.63 61.934 0.033 6.75 2.85 9.6
6/7/2022 11:00:00 AM 16.76 62.168 0.034 6.73 2.09 9.59
6/7/2022 11:15:00 AM 16.91 62.438 0.034 6.82 1.93 9.59
6/7/2022 11:30:00 AM 17.11 62.798 0.032 6.77 2.92 9.57
6/7/2022 11:45:00 AM 17.25 63.05 0.034 6.76 2.07 9.54
6/7/2022 12:00:00 PM 17.36 63.248 0.033 6.81 2.87 9.52
6/7/2022 12:15:00 PM 17.4 63.32 0.034 6.78 1.93 9.5
6/7/2022 12:30:00 PM 17.45 63.41 0.034 6.81 1.93 9.45
6/7/2022 12:45:00 PM 17.52 63.536 0.034 6.84 2.1 9.42
6/7/2022 1:00:00 PM 17.61 63.698 0.033 6.81 2.8 9.39
6/7/2022 1:15:00 PM 17.72 63.896 0.032 6.82 2.92 9.4
6/7/2022 1:30:00 PM 17.74 63.932 0.033 6.81 2.26 9.38
6/7/2022 1:45:00 PM 17.74 63.932 0.033 6.85 2 9.35
6/7/2022 2:00:00 PM 17.71 63.878 0.033 6.85 1.94 9.31
6/7/2022 2:15:00 PM 17.7 63.86 0.033 6.84 2.1 9.27
6/7/2022 2:30:00 PM 17.68 63.824 0.033 6.84 2.18 9.25
6/7/2022 2:45:00 PM 17.66 63.788 0.033 6.83 2 9.23
6/7/2022 3:00:00 PM 17.67 63.806 0.032 6.81 2.87 9.22
6/7/2022 3:15:00 PM 17.66 63.788 0.032 6.8 2.76 9.24
6/7/2022 3:30:00 PM 17.62 63.716 0.033 6.83 2.18 9.21
6/7/2022 3:45:00 PM 17.64 63.752 0.032 6.79 2.85 9.18
6/7/2022 4:00:00 PM 17.63 63.734 0.033 6.81 1.98 9.18
6/7/2022 4:15:00 PM 17.6 63.68 0.032 6.79 2.85 9.15
6/7/2022 4:30:00 PM 17.59 63.662 0.034 6.8 2.26 9.15
6/7/2022 4:45:00 PM 17.56 63.608 0.034 6.75 2.18 9.13
6/7/2022 5:00:00 PM 17.57 63.626 0.034 6.8 2.14 9.13
6/7/2022 5:15:00 PM 17.58 63.644 0.034 6.79 2.19 9.12
6/7/2022 5:30:00 PM 17.56 63.608 0.034 6.8 2.16 9.12
6/7/2022 5:45:00 PM 17.52 63.536 0.034 6.79 2.17 9.1
6/7/2022 6:00:00 PM 17.49 63.482 0.035 6.77 2.09 9.04
6/7/2022 6:15:00 PM 17.47 63.446 0.035 6.77 2.22 9.04
6/7/2022 6:30:00 PM 17.45 63.41 0.034 6.74 3.12 9.03
6/7/2022 6:45:00 PM 17.42 63.356 0.034 6.74 2.93 9.04
6/7/2022 7:00:00 PM 17.38 63.284 0.034 6.75 3.06 9.01
6/7/2022 7:15:00 PM 17.32 63.176 0.035 6.75 3.17 8.99
6/7/2022 7:30:00 PM 17.28 63.104 0.036 6.77 2.36 8.96
6/7/2022 7:45:00 PM 17.21 62.978 0.037 6.73 2.42 8.89
6/7/2022 8:00:00 PM 17.16 62.888 0.036 6.71 3.52 8.87
6/7/2022 8:15:00 PM 17.11 62.798 0.038 6.73 2.56 8.86
6/7/2022 8:30:00 PM 17.06 62.708 0.035 6.69 3.33 8.83
6/7/2022 8:45:00 PM 17 62.6 0.037 6.72 2.51 8.83
6/7/2022 9:00:00 PM 16.94 62.492 0.035 6.68 3.25 8.81
6/7/2022 9:15:00 PM 16.88 62.384 0.035 6.67 3.19 8.79
6/7/2022 9:30:00 PM 16.84 62.312 0.036 6.69 2.42 8.78
6/7/2022 9:45:00 PM 16.79 62.222 0.035 6.64 3.17 8.76
6/7/2022 10:00:00 PM 16.74 62.132 0.036 6.67 2.32 8.75
6/7/2022 10:15:00 PM 16.71 62.078 0.035 6.65 3.21 8.77
6/7/2022 10:30:00 PM 16.66 61.988 0.035 6.64 3.18 8.74
6/7/2022 10:45:00 PM 16.63 61.934 0.036 6.66 2.43 8.74
6/7/2022 11:00:00 PM 16.6 61.88 0.035 6.63 3.21 8.73
6/7/2022 11:15:00 PM 16.57 61.826 0.036 6.61 3.4 8.71
6/7/2022 11:30:00 PM 16.54 61.772 0.035 6.61 3.15 8.73
6/7/2022 11:45:00 PM 16.51 61.718 0.036 6.62 3.19 8.76
6/8/2022 12:00:00 AM 16.5 61.7 0.036 6.66 2.59 8.78
6/8/2022 12:15:00 AM 16.47 61.646 0.035 6.61 3.83 8.78
6/8/2022 12:30:00 AM 16.45 61.61 0.036 6.59 5.19 8.77
6/8/2022 12:45:00 AM 16.44 61.592 0.036 6.56 4.07 8.74
6/8/2022 1:00:00 AM 16.42 61.556 0.036 6.66 2.62 8.81
6/8/2022 1:15:00 AM 16.4 61.52 0.036 6.64 2.7 8.75
6/8/2022 1:30:00 AM 16.38 61.484 0.036 6.62 2.71 8.77
6/8/2022 1:45:00 AM 16.37 61.466 0.035 6.64 2.68 8.83
6/8/2022 2:00:00 AM 16.35 61.43 0.035 6.59 2.44 8.84
6/8/2022 2:15:00 AM 16.34 61.412 0.035 6.64 2.56 8.87
6/8/2022 2:30:00 AM 16.32 61.376 0.035 6.64 2.42 8.86
6/8/2022 2:45:00 AM 16.31 61.358 0.034 6.62 3.29 8.88
6/8/2022 3:00:00 AM 16.29 61.322 0.035 6.64 2.58 8.88
6/8/2022 3:15:00 AM 16.26 61.268 0.033 6.62 3.21 8.88
6/8/2022 3:30:00 AM 16.23 61.214 0.035 6.63 2.41 8.87
6/8/2022 3:45:00 AM 16.21 61.178 0.035 6.57 2.44 8.88
6/8/2022 4:00:00 AM 16.19 61.142 0.034 6.61 3.29 8.88
6/8/2022 4:15:00 AM 16.15 61.07 0.035 6.57 2.57 8.9
6/8/2022 4:30:00 AM 16.12 61.016 0.035 6.63 2.42 8.91
6/8/2022 4:45:00 AM 16.09 60.962 0.034 6.6 3.1 8.91
6/8/2022 5:00:00 AM 16.06 60.908 0.034 6.61 3.07 8.92
6/8/2022 5:15:00 AM 16.01 60.818 0.035 6.61 2.42 8.92
6/8/2022 5:30:00 AM 15.96 60.728 0.035 6.62 2.47 8.95
6/8/2022 5:45:00 AM 15.92 60.656 0.035 6.56 2.38 8.96
6/8/2022 6:00:00 AM 15.87 60.566 0.038 6.63 2.44 8.95
6/8/2022 6:15:00 AM 15.83 60.494 0.035 6.61 3.17 8.99
6/8/2022 6:30:00 AM 15.79 60.422 0.034 6.59 3.17 9
6/8/2022 6:45:00 AM 15.77 60.386 0.036 6.63 2.5 9
6/8/2022 7:00:00 AM 15.75 60.35 0.035 6.6 3.15 9.03
6/8/2022 7:15:00 AM 15.75 60.35 0.034 6.62 3.24 9.12
6/8/2022 7:30:00 AM 15.76 60.368 0.035 6.63 3 9.15
6/8/2022 7:45:00 AM 15.77 60.386 0.035 6.64 3.03 9.21
6/8/2022 8:00:00 AM 15.78 60.404 0.036 6.69 2.31 9.28
6/8/2022 8:15:00 AM 15.82 60.476 0.035 6.72 2.34 9.34
6/8/2022 8:30:00 AM 15.93 60.674 0.035 6.68 2.99 9.35
6/8/2022 8:45:00 AM 16.06 60.908 0.035 6.68 3.03 9.37
6/8/2022 9:00:00 AM 16.1 60.98 0.033 6.71 3.1 9.42
6/8/2022 9:15:00 AM 16.2 61.16 0.035 6.74 2.26 9.44
6/8/2022 9:30:00 AM 16.32 61.376 0.035 6.77 2.29 9.45
6/8/2022 9:45:00 AM 16.49 61.682 0.035 6.77 2.14 9.45
6/8/2022 10:00:00 AM 16.52 61.736 0.034 6.79 2.22 9.48
6/8/2022 10:15:00 AM 16.58 61.844 0.033 6.77 3.05 9.47
6/8/2022 10:30:00 AM 16.68 62.024 0.034 6.8 2.21 9.46
6/8/2022 10:45:00 AM 16.78 62.204 0.034 6.81 2.13 9.47
6/8/2022 11:00:00 AM 16.98 62.564 0.034 6.81 2.21 9.47
6/8/2022 11:15:00 AM 17.14 62.852 0.033 6.78 3.03 9.46
6/8/2022 11:30:00 AM 17.29 63.122 0.034 6.81 2.13 9.44
6/8/2022 11:45:00 AM 17.61 63.698 0.033 6.79 3.1 9.42
6/8/2022 12:00:00 PM 17.87 64.166 0.034 6.78 2.15 9.39
6/8/2022 12:15:00 PM 18.14 64.652 0.033 6.84 2.35 9.36
6/8/2022 12:30:00 PM 18.46 65.228 0.033 6.85 2.1 9.32
6/8/2022 12:45:00 PM 18.85 65.93 0.033 6.85 2.21 9.27
6/8/2022 1:00:00 PM 19.19 66.542 0.033 6.85 2.14 9.22
6/8/2022 1:15:00 PM 19.5 67.1 0.033 6.81 2.09 9.16
6/8/2022 1:30:00 PM 19.79 67.622 0.033 6.87 2.15 9.12
6/8/2022 1:45:00 PM 20.06 68.108 0.033 6.82 2.13 9.07
6/8/2022 2:00:00 PM 20.33 68.594 0.033 6.87 2.13 9.03
6/8/2022 2:15:00 PM 20.54 68.972 0.033 6.82 2.03 8.96
6/8/2022 2:30:00 PM 20.8 69.44 0.033 6.87 2.03 8.92
6/8/2022 2:45:00 PM 21.11 69.998 0.032 6.84 2.98 8.87
6/8/2022 3:00:00 PM 21.35 70.43 0.031 6.85 2.93 8.83
6/8/2022 3:15:00 PM 21.56 70.808 0.033 6.88 2.05 8.79
6/8/2022 3:30:00 PM 21.79 71.222 0.032 6.86 2.88 8.75
6/8/2022 3:45:00 PM 22.01 71.618 0.033 6.88 2.2 8.7
6/8/2022 4:00:00 PM 22.17 71.906 0.033 6.83 2.02 8.65
6/8/2022 4:15:00 PM 22.35 72.23 0.032 6.86 2.43 8.62
6/8/2022 4:30:00 PM 22.49 72.482 0.031 6.84 2.94 8.58
6/8/2022 4:45:00 PM 22.61 72.698 0.031 6.85 2.83 8.55
6/8/2022 5:00:00 PM 22.7 72.86 0.033 6.88 2.05 8.52
6/8/2022 5:15:00 PM 22.79 73.022 0.032 6.86 2.85 8.49
6/8/2022 5:30:00 PM 22.82 73.076 0.033 6.87 2.91 8.47
6/8/2022 5:45:00 PM 22.77 72.986 0.033 6.86 2.87 8.46
6/8/2022 6:00:00 PM 22.69 72.842 0.033 6.87 2.98 8.43
6/8/2022 6:15:00 PM 22.54 72.57201 0.034 6.88 2.23 8.4
6/8/2022 6:30:00 PM 22.41 72.338 0.034 6.87 2.15 8.38
6/8/2022 6:45:00 PM 22.19 71.942 0.032 6.84 2.91 8.37
6/8/2022 7:00:00 PM 21.97 71.546 0.033 6.83 2.99 8.35
6/8/2022 7:15:00 PM 21.74 71.132 0.032 6.81 2.98 8.34
6/8/2022 7:30:00 PM 21.54 70.772 0.034 6.82 2.19 8.3
6/8/2022 7:45:00 PM 21.31 70.358 0.034 6.81 2.09 8.29
6/8/2022 8:00:00 PM 21.07 69.926 0.034 6.73 3.15 8.25
6/8/2022 8:15:00 PM 20.92 69.656 0.035 6.79 2.22 8.28
6/8/2022 8:30:00 PM 20.73 69.314 0.035 6.76 2.19 8.23
6/8/2022 8:45:00 PM 20.54 68.972 0.035 6.72 2.27 8.2
6/8/2022 9:00:00 PM 20.37 68.666 0.035 6.75 2.27 8.2
6/8/2022 9:15:00 PM 20.19 68.342 0.035 6.73 2.3 8.17
6/8/2022 9:30:00 PM 20.01 68.018 0.035 6.72 2.32 8.17
6/8/2022 9:45:00 PM 19.85 67.73 0.035 6.67 3.2 8.17
6/8/2022 10:00:00 PM 19.71 67.478 0.035 6.7 2.27 8.17
6/8/2022 10:15:00 PM 19.55 67.19 0.035 6.69 2.22 8.12
6/8/2022 10:30:00 PM 19.4 66.92 0.035 6.65 3.3 8.15
6/8/2022 10:45:00 PM 19.25 66.65 0.037 6.65 2.54 8.13
6/8/2022 11:00:00 PM 19.11 66.398 0.036 6.71 2.14 8.23
6/8/2022 11:15:00 PM 18.95 66.11 0.036 6.66 2.33 8.22
6/8/2022 11:30:00 PM 18.81 65.858 0.036 6.61 2.26 8.25
6/8/2022 11:45:00 PM 18.67 65.606 0.037 6.66 2.25 8.27
6/9/2022 12:00:00 AM 18.56 65.408 0.036 6.67 2.35 8.32
6/9/2022 12:15:00 AM 18.44 65.192 0.035 6.62 3.09 8.32
6/9/2022 12:30:00 AM 18.34 65.012 0.034 6.62 2.95 8.32
6/9/2022 12:45:00 AM 18.22 64.796 0.036 6.6 2.2 8.38
6/9/2022 1:00:00 AM 18.12 64.616 0.036 6.67 2.26 8.43
6/9/2022 1:15:00 AM 18.02 64.436 0.036 6.67 2.3 8.43
6/9/2022 1:30:00 AM 17.91 64.238 0.037 6.66 2.59 8.44
6/9/2022 1:45:00 AM 17.81 64.058 0.035 6.63 3.25 8.5
6/9/2022 2:00:00 AM 17.7 63.86 0.036 6.67 2.52 8.53
6/9/2022 2:15:00 AM 17.57 63.626 0.038 6.68 3.56 8.56
6/9/2022 2:30:00 AM 17.45 63.41 0.04 6.67 3.64 8.59
6/9/2022 2:45:00 AM 17.31 63.158 0.041 6.72 4.93 8.64
6/9/2022 3:00:00 AM 17.18 62.924 0.045 6.75 9.88 8.67
6/9/2022 3:15:00 AM 17.03 62.654 0.045 6.74 12.25 8.7
6/9/2022 3:30:00 AM 16.93 62.474 0.046 6.78 12.2 8.72
6/9/2022 3:45:00 AM 16.82 62.276 0.044 6.75 9.82 8.7
6/9/2022 4:00:00 AM 16.7 62.06 0.039 6.72 7.76 8.79
6/9/2022 4:15:00 AM 16.61 61.898 0.036 6.71 6.66 8.79
6/9/2022 4:30:00 AM 16.57 61.826 0.036 6.7 5.59 8.79
6/9/2022 4:45:00 AM 16.53 61.754 0.034 6.66 6.53 8.83
6/9/2022 5:00:00 AM 16.48 61.664 0.036 6.67 6.32 8.85
6/9/2022 5:15:00 AM 16.42 61.556 0.036 6.71 7.13 8.88
6/9/2022 5:30:00 AM 16.36 61.448 0.036 6.71 7.88 8.9
6/9/2022 5:45:00 AM 16.31 61.358 0.035 6.71 9.44 8.93
6/9/2022 6:00:00 AM 16.27 61.286 0.033 6.69 9.72 8.95
6/9/2022 6:15:00 AM 16.24 61.232 0.032 6.67 9.17 8.98
6/9/2022 6:30:00 AM 16.22 61.196 0.032 6.62 15.61 9
6/9/2022 6:45:00 AM 16.21 61.178 0.031 6.69 6.96 9.02
6/9/2022 7:00:00 AM 16.21 61.178 0.03 6.69 7.58 9.06
6/9/2022 7:15:00 AM 16.21 61.178 0.03 6.69 7.51 9.08
6/9/2022 7:30:00 AM 16.22 61.196 0.03 6.62 7.95 9.1
6/9/2022 7:45:00 AM 16.24 61.232 0.03 6.7 10.98 9.11
6/9/2022 8:00:00 AM 16.24 61.232 0.03 6.67 9.83 9.12
6/9/2022 8:15:00 AM 16.24 61.232 0.031 6.67 10.92 9.14
6/9/2022 8:30:00 AM 16.28 61.304 0.031 6.71 10.61 9.16
6/9/2022 8:45:00 AM 16.31 61.358 0.03 6.64 11.76 9.17
6/9/2022 9:00:00 AM 16.32 61.376 0.029 6.68 11.99 9.18
6/9/2022 9:15:00 AM 16.33 61.394 0.03 6.7 11.6 9.18
6/9/2022 9:30:00 AM 16.35 61.43 0.029 6.67 10.16 9.19
6/9/2022 9:45:00 AM 16.39 61.502 0.029 6.7 9.43 9.2
6/9/2022 10:00:00 AM 16.45 61.61 0.027 6.67 10.07 9.21
6/9/2022 10:15:00 AM 16.49 61.682 0.028 6.67 8.95 9.21
6/9/2022 10:30:00 AM 16.62 61.916 0.027 6.68 9.2 9.22
6/9/2022 10:45:00 AM 16.8 62.24 0.028 6.68 8.26 9.22
6/9/2022 11:00:00 AM 16.89 62.402 0.027 6.69 8.75 9.21
6/9/2022 11:15:00 AM 16.91 62.438 0.027 6.71 7.96 9.2
6/9/2022 11:30:00 AM 16.9 62.42 0.027 6.71 7.78 9.21
6/9/2022 11:45:00 AM 16.91 62.438 0.027 6.71 7.94 9.23
6/9/2022 12:00:00 PM 16.99 62.582 0.026 6.68 7.93 9.23
6/9/2022 12:15:00 PM 17.14 62.852 0.027 6.7 7.66 9.22
6/9/2022 12:30:00 PM 17.27 63.086 0.027 6.73 6.79 9.21
6/9/2022 12:45:00 PM 17.32 63.176 0.027 6.72 6.27 9.19
6/9/2022 1:00:00 PM 17.36 63.248 0.026 6.72 6.36 9.18
6/9/2022 1:15:00 PM 17.38 63.284 0.026 6.72 6 9.15
6/9/2022 1:30:00 PM 17.45 63.41 0.027 6.71 6.02 9.14
6/9/2022 1:45:00 PM 17.47 63.446 0.025 6.67 6.85 9.11
6/9/2022 2:00:00 PM 17.47 63.446 0.026 6.66 6.96 9.09
6/9/2022 2:15:00 PM 17.56 63.608 0.027 6.64 6.89 9.11
6/9/2022 2:30:00 PM 17.61 63.698 0.027 6.72 6.42 9.08
6/9/2022 2:45:00 PM 17.69 63.842 0.027 6.72 6.42 9.09
6/9/2022 3:00:00 PM 17.75 63.95 0.027 6.72 7.74 9.08
6/9/2022 3:15:00 PM 17.75 63.95 0.027 6.69 7.07 9.07
6/9/2022 3:30:00 PM 17.78 64.004 0.026 6.73 7.4 9.09
6/9/2022 3:45:00 PM 17.8 64.04 0.026 6.73 7.02 9.08
6/9/2022 4:00:00 PM 17.81 64.058 0.026 6.73 6.92 9.08
6/9/2022 4:15:00 PM 17.83 64.094 0.026 6.73 6.63 9.07
6/9/2022 4:30:00 PM 17.84 64.112 0.026 6.72 6.76 9.05
6/9/2022 4:45:00 PM 17.86 64.148 0.025 6.68 7.11 9.05
6/9/2022 5:00:00 PM 17.83 64.094 0.025 6.68 6.95 9.04
6/9/2022 5:15:00 PM 17.81 64.058 0.026 6.63 6.85 9.06
6/9/2022 5:30:00 PM 17.8 64.04 0.026 6.72 6.38 9.05
6/9/2022 5:45:00 PM 17.81 64.058 0.025 6.67 7.61 9.04
6/9/2022 6:00:00 PM 17.73 63.914 0.025 6.65 6.7 9.02
6/9/2022 6:15:00 PM 17.65 63.77 0.025 6.67 6.93 9.02
6/9/2022 6:30:00 PM 17.59 63.662 0.026 6.69 6.28 9.01
6/9/2022 6:45:00 PM 17.54 63.572 0.026 6.68 6.09 9.02
6/9/2022 7:00:00 PM 17.49 63.482 0.025 6.64 6.95 9.01
6/9/2022 7:15:00 PM 17.43 63.374 0.026 6.66 5.83 9
6/9/2022 7:30:00 PM 17.37 63.266 0.026 6.66 6.08 8.99
6/9/2022 7:45:00 PM 17.32 63.176 0.025 6.65 5.73 8.99
6/9/2022 8:00:00 PM 17.24 63.032 0.025 6.56 5.55 9
6/9/2022 8:15:00 PM 17.17 62.906 0.025 6.64 5.69 8.99
6/9/2022 8:30:00 PM 17.11 62.798 0.025 6.63 5.78 8.98
6/9/2022 8:45:00 PM 17.05 62.69 0.025 6.62 5.15 8.98
6/9/2022 9:00:00 PM 17 62.6 0.024 6.57 5.94 8.98
6/9/2022 9:15:00 PM 16.93 62.474 0.025 6.56 5.98 8.97
6/9/2022 9:30:00 PM 16.86 62.348 0.025 6.59 5.04 8.97
6/9/2022 9:45:00 PM 16.79 62.222 0.024 6.54 6.39 8.98
6/9/2022 10:00:00 PM 16.71 62.078 0.025 6.58 5.56 8.99
6/9/2022 10:15:00 PM 16.65 61.97 0.025 6.47 5.33 9
6/9/2022 10:30:00 PM 16.58 61.844 0.024 6.54 5.94 9.01
6/9/2022 10:45:00 PM 16.51 61.718 0.025 6.48 4.95 9.03
6/9/2022 11:00:00 PM 16.44 61.592 0.025 6.56 4.86 9.03
6/9/2022 11:15:00 PM 16.37 61.466 0.025 6.56 5.48 9.05
6/9/2022 11:30:00 PM 16.29 61.322 0.024 6.52 5.76 9.07
6/9/2022 11:45:00 PM 16.22 61.196 0.025 6.55 4.94 9.08
6/10/2022 12:00:00 AM 16.14 61.052 0.024 6.5 5.9 9.1
6/10/2022 12:15:00 AM 16.07 60.926 0.025 6.54 5.09 9.12
6/10/2022 12:30:00 AM 15.99 60.782 0.025 6.54 4.74 9.13
6/10/2022 12:45:00 AM 15.92 60.656 0.025 6.54 4.81 9.15
6/10/2022 1:00:00 AM 15.84 60.512 0.024 6.49 5.59 9.16
6/10/2022 1:15:00 AM 15.76 60.368 0.025 6.54 4.59 9.18
6/10/2022 1:30:00 AM 15.68 60.224 0.024 6.49 5.27 9.2
6/10/2022 1:45:00 AM 15.6 60.08 0.025 6.43 4.08 9.21
6/10/2022 2:00:00 AM 15.52 59.936 0.025 6.53 4.52 9.23
6/10/2022 2:15:00 AM 15.44 59.792 0.025 6.52 4.36 9.25
6/10/2022 2:30:00 AM 15.35 59.63 0.025 6.52 4.43 9.27
6/10/2022 2:45:00 AM 15.27 59.486 0.025 6.52 4.16 9.29
6/10/2022 3:00:00 AM 15.18 59.324 0.024 6.48 4.98 9.3
6/10/2022 3:15:00 AM 15.11 59.198 0.025 6.42 4.18 9.33
6/10/2022 3:30:00 AM 15.02 59.036 0.025 6.52 4.12 9.34
6/10/2022 3:45:00 AM 14.95 58.91 0.024 6.47 5.03 9.36
6/10/2022 4:00:00 AM 14.87 58.766 0.025 6.51 3.91 9.38
6/10/2022 4:15:00 AM 14.79 58.622 0.025 6.51 4.06 9.4
6/10/2022 4:30:00 AM 14.71 58.478 0.025 6.51 4.12 9.41
6/10/2022 4:45:00 AM 14.64 58.352 0.024 6.46 4.77 9.42
6/10/2022 5:00:00 AM 14.56 58.208 0.023 6.47 4.97 9.44
6/10/2022 5:15:00 AM 14.49 58.082 0.025 6.41 4.03 9.46
6/10/2022 5:30:00 AM 14.41 57.938 0.025 6.44 3.93 9.47
6/10/2022 5:45:00 AM 14.34 57.812 0.025 6.51 3.87 9.49
6/10/2022 6:00:00 AM 14.27 57.686 0.024 6.5 3.89 9.52
6/10/2022 6:15:00 AM 14.21 57.578 0.025 6.5 3.94 9.53
6/10/2022 6:30:00 AM 14.16 57.488 0.023 6.46 4.71 9.57
6/10/2022 6:45:00 AM 14.13 57.434 0.023 6.47 4.6 9.6
6/10/2022 7:00:00 AM 14.1 57.38 0.025 6.41 3.88 9.64
6/10/2022 7:15:00 AM 14.1 57.38 0.025 6.52 3.61 9.66
6/10/2022 7:30:00 AM 14.11 57.398 0.025 6.52 3.71 9.69
6/10/2022 7:45:00 AM 14.16 57.488 0.024 6.48 4.92 9.72
6/10/2022 8:00:00 AM 14.23 57.614 0.024 6.48 4.29 9.73
6/10/2022 8:15:00 AM 14.32 57.776 0.024 6.45 3.45 9.76
6/10/2022 8:30:00 AM 14.42 57.956 0.024 6.53 4.31 9.77
6/10/2022 8:45:00 AM 14.52 58.136 0.025 6.46 3.56 9.76
6/10/2022 9:00:00 AM 14.65 58.37 0.024 6.53 4.11 9.76
6/10/2022 9:15:00 AM 14.78 58.604 0.025 6.45 3.56 9.74
6/10/2022 9:30:00 AM 14.94 58.892 0.024 6.54 4.22 9.74
6/10/2022 9:45:00 AM 15.08 59.144 0.025 6.47 3.15 9.72
6/10/2022 10:00:00 AM 15.27 59.486 0.025 6.58 3.33 9.71
6/10/2022 10:15:00 AM 15.44 59.792 0.024 6.53 4.16 9.67
6/10/2022 10:30:00 AM 15.66 60.188 0.025 6.48 3.35 9.65
6/10/2022 10:45:00 AM 15.9 60.62 0.025 6.58 3.39 9.6
6/10/2022 11:00:00 AM 16.17 61.106 0.024 6.55 4.18 9.58
6/10/2022 11:15:00 AM 16.41 61.538 0.024 6.53 4.05 9.53
6/10/2022 11:30:00 AM 16.59 61.862 0.025 6.55 3.89 9.48
6/10/2022 11:45:00 AM 16.87 62.366 0.024 6.62 3.66 9.49
6/10/2022 12:00:00 PM 17.02 62.636 0.024 6.63 3.24 9.45
6/10/2022 12:15:00 PM 17.13 62.834 0.025 6.55 3.98 9.4
6/10/2022 12:30:00 PM 17.31 63.158 0.025 6.59 3.02 9.35
6/10/2022 12:45:00 PM 17.45 63.41 0.025 6.52 3.22 9.33
6/10/2022 1:00:00 PM 17.46 63.428 0.026 6.57 3 9.27
6/10/2022 1:15:00 PM 17.56 63.608 0.025 6.59 3.35 9.27
6/10/2022 1:30:00 PM 17.69 63.842 0.025 6.63 3.24 9.25
6/10/2022 1:45:00 PM 17.83 64.094 0.024 6.64 3.32 9.24
6/10/2022 2:00:00 PM 17.98 64.364 0.025 6.6 3.14 9.21
6/10/2022 2:15:00 PM 18.16 64.688 0.024 6.57 3.92 9.17
6/10/2022 2:30:00 PM 18.37 65.066 0.025 6.62 3.34 9.16
6/10/2022 2:45:00 PM 18.53 65.354 0.025 6.55 3.15 9.1
6/10/2022 3:00:00 PM 18.73 65.714 0.024 6.6 3.85 9.09
6/10/2022 3:15:00 PM 18.8 65.84 0.025 6.56 3.07 9.03
6/10/2022 3:30:00 PM 18.89 66.002 0.024 6.62 3.22 9.05
6/10/2022 3:45:00 PM 18.78 65.804 0.025 6.65 2.92 8.99
6/10/2022 4:00:00 PM 18.77 65.786 0.024 6.62 3.69 9
6/10/2022 4:15:00 PM 18.81 65.858 0.024 6.69 2.85 9
6/10/2022 4:30:00 PM 18.77 65.786 0.024 6.66 3.17 8.98
6/10/2022 4:45:00 PM 18.76 65.768 0.024 6.67 3.04 8.98
6/10/2022 5:00:00 PM 18.71 65.67799 0.024 6.67 3.18 8.96
6/10/2022 5:15:00 PM 18.66 65.588 0.023 6.6 3.83 8.96
6/10/2022 5:30:00 PM 18.66 65.588 0.024 6.62 3.74 8.97
6/10/2022 5:45:00 PM 18.62 65.516 0.025 6.63 3.05 8.93
6/10/2022 6:00:00 PM 18.55 65.39 0.025 6.65 3.07 8.95
6/10/2022 6:15:00 PM 18.47 65.246 0.025 6.65 2.91 8.96
6/10/2022 6:30:00 PM 18.34 65.012 0.024 6.67 2.88 8.98
6/10/2022 6:45:00 PM 18.23 64.814 0.025 6.66 3.05 8.97
6/10/2022 7:00:00 PM 18.11 64.598 0.024 6.65 2.77 8.97
6/10/2022 7:15:00 PM 18.02 64.436 0.025 6.65 2.86 8.97
6/10/2022 7:30:00 PM 17.92 64.256 0.023 6.6 3.81 8.96
6/10/2022 7:45:00 PM 17.83 64.094 0.025 6.63 3.18 8.93
6/10/2022 8:00:00 PM 17.74 63.932 0.025 6.62 2.9 8.93
6/10/2022 8:15:00 PM 17.64 63.752 0.025 6.62 2.99 8.92
6/10/2022 8:30:00 PM 17.54 63.572 0.026 6.61 2.81 8.9
6/10/2022 8:45:00 PM 17.43 63.374 0.026 6.58 2.83 8.89
6/10/2022 9:00:00 PM 17.31 63.158 0.026 6.6 3.06 8.88
6/10/2022 9:15:00 PM 17.18 62.924 0.026 6.6 2.89 8.9
6/10/2022 9:30:00 PM 17.05 62.69 0.027 6.59 3.03 8.89
6/10/2022 9:45:00 PM 16.93 62.474 0.027 6.58 2.95 8.9
6/10/2022 10:00:00 PM 16.81 62.258 0.026 6.53 3.8 8.9
6/10/2022 10:15:00 PM 16.7 62.06 0.027 6.49 2.99 8.92
6/10/2022 10:30:00 PM 16.58 61.844 0.026 6.52 2.8 8.95
6/10/2022 10:45:00 PM 16.48 61.664 0.026 6.57 2.83 8.97
6/10/2022 11:00:00 PM 16.37 61.466 0.025 6.53 3.78 8.98
6/10/2022 11:15:00 PM 16.26 61.268 0.026 6.56 2.93 9.01
6/10/2022 11:30:00 PM 16.16 61.088 0.026 6.47 2.87 9.01
6/10/2022 11:45:00 PM 16.05 60.89 0.025 6.53 3.77 9.05
6/11/2022 12:00:00 AM 15.96 60.728 0.026 6.56 2.89 9.05
6/11/2022 12:15:00 AM 15.86 60.548 0.026 6.56 3.17 9.09
6/11/2022 12:30:00 AM 15.75 60.35 0.025 6.51 4.02 9.12
6/11/2022 12:45:00 AM 15.65 60.17 0.026 6.54 2.99 9.13
6/11/2022 1:00:00 AM 15.55 59.99 0.026 6.55 2.99 9.14
6/11/2022 1:15:00 AM 15.46 59.828 0.026 6.55 2.91 9.17
6/11/2022 1:30:00 AM 15.35 59.63 0.027 6.53 2.89 9.17
6/11/2022 1:45:00 AM 15.27 59.486 0.026 6.54 2.93 9.2
6/11/2022 2:00:00 AM 15.18 59.324 0.026 6.54 2.74 9.23
6/11/2022 2:15:00 AM 15.08 59.144 0.026 6.53 2.86 9.24
6/11/2022 2:30:00 AM 15 59 0.025 6.51 3.96 9.28
6/11/2022 2:45:00 AM 14.9 58.82 0.026 6.47 2.92 9.29
6/11/2022 3:00:00 AM 14.81 58.658 0.026 6.54 2.99 9.31
6/11/2022 3:15:00 AM 14.72 58.496 0.025 6.49 3.97 9.33
6/11/2022 3:30:00 AM 14.64 58.352 0.025 6.5 3.8 9.36
6/11/2022 3:45:00 AM 14.55 58.19 0.026 6.52 2.97 9.37
6/11/2022 4:00:00 AM 14.47 58.046 0.026 6.54 2.86 9.38
6/11/2022 4:15:00 AM 14.38 57.884 0.025 6.52 3.8 9.41
6/11/2022 4:30:00 AM 14.3 57.74 0.025 6.51 3.73 9.42
6/11/2022 4:45:00 AM 14.22 57.596 0.026 6.5 3.65 9.41
6/11/2022 5:00:00 AM 14.17 57.506 0.025 6.49 3.72 9.46
6/11/2022 5:15:00 AM 14.1 57.38 0.026 6.53 2.8 9.48
6/11/2022 5:30:00 AM 14.03 57.254 0.025 6.48 3.73 9.49
6/11/2022 5:45:00 AM 13.97 57.146 0.025 6.48 3.79 9.5
6/11/2022 6:00:00 AM 13.91 57.038 0.025 6.5 3.62 9.52
6/11/2022 6:15:00 AM 13.85 56.93 0.027 6.51 2.76 9.51
6/11/2022 6:30:00 AM 13.81 56.858 0.026 6.47 3.7 9.57
6/11/2022 6:45:00 AM 13.79 56.822 0.026 6.54 2.58 9.61
6/11/2022 7:00:00 AM 13.77 56.786 0.026 6.52 3.16 9.65
6/11/2022 7:15:00 AM 13.71 56.678 0.028 6.43 2.66 9.64
6/11/2022 7:30:00 AM 13.77 56.786 0.026 6.52 2.76 9.71
6/11/2022 7:45:00 AM 13.82 56.876 0.025 6.5 3.52 9.77
6/11/2022 8:00:00 AM 13.82 56.876 0.025 6.49 3.58 9.77
6/11/2022 8:15:00 AM 13.84 56.912 0.027 6.54 2.67 9.79
6/11/2022 8:30:00 AM 13.89 57.002 0.026 6.56 2.5 9.81
6/11/2022 8:45:00 AM 13.93 57.074 0.027 6.56 2.57 9.82
6/11/2022 9:00:00 AM 13.97 57.146 0.027 6.47 2.43 9.81
6/11/2022 9:15:00 AM 14.04 57.272 0.027 6.56 2.6 9.82
6/11/2022 9:30:00 AM 14.14 57.452 0.026 6.59 2.69 9.86
6/11/2022 9:45:00 AM 14.25 57.65 0.027 6.6 2.4 9.86
6/11/2022 10:00:00 AM 14.48 58.064 0.026 6.55 3.38 9.86
6/11/2022 10:15:00 AM 14.66 58.388 0.028 6.48 2.44 9.82
6/11/2022 10:30:00 AM 14.81 58.658 0.026 6.58 3.43 9.87
6/11/2022 10:45:00 AM 15 59 0.026 6.54 3.32 9.84
6/11/2022 11:00:00 AM 15.18 59.324 0.027 6.61 2.25 9.8
6/11/2022 11:15:00 AM 15.48 59.864 0.026 6.56 3.33 9.76
6/11/2022 11:30:00 AM 15.62 60.116 0.027 6.56 2.53 9.75
6/11/2022 11:45:00 AM 15.73 60.314 0.027 6.66 2.69 9.72
6/11/2022 12:00:00 PM 15.81 60.458 0.027 6.64 2.33 9.69
6/11/2022 12:15:00 PM 15.87 60.566 0.028 6.55 2.47 9.65
6/11/2022 12:30:00 PM 15.96 60.728 0.027 6.66 2.51 9.66
6/11/2022 12:45:00 PM 15.98 60.764 0.028 6.63 2.49 9.62
6/11/2022 1:00:00 PM 16.04 60.872 0.026 6.61 3.39 9.62
6/11/2022 1:15:00 PM 16.11 60.998 0.026 6.61 3.39 9.61
6/11/2022 1:30:00 PM 16.19 61.142 0.027 6.66 2.46 9.59
6/11/2022 1:45:00 PM 16.34 61.412 0.026 6.63 3.25 9.56
6/11/2022 2:00:00 PM 16.4 61.52 0.026 6.61 3.28 9.55
6/11/2022 2:15:00 PM 16.53 61.754 0.028 6.59 2.36 9.51
6/11/2022 2:30:00 PM 16.77 62.186 0.026 6.69 2.49 9.5
6/11/2022 2:45:00 PM 16.91 62.438 0.026 6.65 3.33 9.49
6/11/2022 3:00:00 PM 17.2 62.96 0.026 6.65 3.14 9.47
6/11/2022 3:15:00 PM 17.48 63.464 0.026 6.67 2.43 9.43
6/11/2022 3:30:00 PM 17.69 63.842 0.027 6.72 2.35 9.38
6/11/2022 3:45:00 PM 18.01 64.418 0.026 6.72 2.34 9.33
6/11/2022 4:00:00 PM 18.21 64.778 0.027 6.71 2.28 9.28
6/11/2022 4:15:00 PM 18.46 65.228 0.026 6.72 2.23 9.23
6/11/2022 4:30:00 PM 18.74 65.732 0.026 6.72 2.41 9.17
6/11/2022 4:45:00 PM 18.86 65.948 0.027 6.71 2.36 9.12
6/11/2022 5:00:00 PM 18.83 65.894 0.027 6.61 2.41 9.08
6/11/2022 5:15:00 PM 18.92 66.056 0.027 6.7 2.32 9.04
6/11/2022 5:30:00 PM 18.9 66.02 0.027 6.69 2.43 9.03
6/11/2022 5:45:00 PM 18.8 65.84 0.027 6.69 2.44 9
6/11/2022 6:00:00 PM 18.64 65.552 0.027 6.66 2.36 8.99
6/11/2022 6:15:00 PM 18.47 65.246 0.026 6.62 3.31 8.97
6/11/2022 6:30:00 PM 18.38 65.084 0.027 6.59 2.45 8.99
6/11/2022 6:45:00 PM 18.26 64.868 0.027 6.67 2.34 9.01
6/11/2022 7:00:00 PM 18.08 64.544 0.028 6.63 2.37 8.92
6/11/2022 7:15:00 PM 17.95 64.31 0.027 6.61 3.3 8.95
6/11/2022 7:30:00 PM 17.8 64.04 0.027 6.58 3.25 8.95
6/11/2022 7:45:00 PM 17.64 63.752 0.028 6.62 2.37 8.93
6/11/2022 8:00:00 PM 17.49 63.482 0.028 6.64 2.48 8.94
6/11/2022 8:15:00 PM 17.33 63.194 0.028 6.61 2.46 8.9
6/11/2022 8:30:00 PM 17.17 62.906 0.028 6.62 2.73 8.92
6/11/2022 8:45:00 PM 17.03 62.654 0.029 6.6 2.49 8.91
6/11/2022 9:00:00 PM 16.87 62.366 0.028 6.58 2.56 8.92
6/11/2022 9:15:00 PM 16.72 62.096 0.029 6.58 2.76 8.9
6/11/2022 9:30:00 PM 16.6 61.88 0.027 6.53 3.41 8.92
6/11/2022 9:45:00 PM 16.45 61.61 0.029 6.57 2.5 8.93
6/11/2022 10:00:00 PM 16.34 61.412 0.029 6.47 2.45 8.89
6/11/2022 10:15:00 PM 16.2 61.16 0.029 6.54 2.53 8.95
6/11/2022 10:30:00 PM 16.08 60.944 0.028 6.51 3.36 8.97
6/11/2022 10:45:00 PM 15.95 60.71 0.027 6.55 3.44 9.02
6/11/2022 11:00:00 PM 15.85 60.53 0.029 6.55 2.53 9.01
6/11/2022 11:15:00 PM 15.74 60.332 0.03 6.53 2.65 8.99
6/11/2022 11:30:00 PM 15.64 60.152 0.028 6.5 3.57 9.04
6/11/2022 11:45:00 PM 15.52 59.936 0.03 6.53 2.64 9.07
6/12/2022 12:00:00 AM 15.43 59.774 0.028 6.49 3.44 9.09
6/12/2022 12:15:00 AM 15.31 59.558 0.03 6.53 2.65 9.13
6/12/2022 12:30:00 AM 15.22 59.396 0.029 6.54 2.52 9.16
6/12/2022 12:45:00 AM 15.12 59.216 0.029 6.55 2.57 9.18
6/12/2022 1:00:00 AM 15.02 59.036 0.028 6.48 3.48 9.19
6/12/2022 1:15:00 AM 14.93 58.874 0.029 6.53 2.59 9.21
6/12/2022 1:30:00 AM 14.84 58.712 0.029 6.49 3.4 9.24
6/12/2022 1:45:00 AM 14.76 58.568 0.029 6.53 2.57 9.27
6/12/2022 2:00:00 AM 14.68 58.424 0.028 6.48 3.88 9.27
6/12/2022 2:15:00 AM 14.61 58.298 0.028 6.48 3.62 9.29
6/12/2022 2:30:00 AM 14.52 58.136 0.029 6.53 2.5 9.32
6/12/2022 2:45:00 AM 14.45 58.01 0.029 6.43 2.87 9.34
6/12/2022 3:00:00 AM 14.38 57.884 0.028 6.5 3.74 9.35
6/12/2022 3:15:00 AM 14.3 57.74 0.03 6.42 2.82 9.35
6/12/2022 3:30:00 AM 14.23 57.614 0.029 6.5 3.11 9.41
6/12/2022 3:45:00 AM 14.16 57.488 0.029 6.52 2.88 9.39
6/12/2022 4:00:00 AM 14.09 57.362 0.028 6.47 3.45 9.41
6/12/2022 4:15:00 AM 14.03 57.254 0.029 6.46 3.41 9.41
6/12/2022 4:30:00 AM 13.98 57.164 0.029 6.52 2.43 9.44
6/12/2022 4:45:00 AM 13.92 57.056 0.029 6.51 2.38 9.45
6/12/2022 5:00:00 AM 13.85 56.93 0.029 6.47 3.39 9.47
6/12/2022 5:15:00 AM 13.8 56.84 0.029 6.47 3.42 9.49
6/12/2022 5:30:00 AM 13.75 56.75 0.029 6.45 3.46 9.48
6/12/2022 5:45:00 AM 13.7 56.66 0.03 6.42 2.51 9.51
6/12/2022 6:00:00 AM 13.67 56.606 0.03 6.52 2.85 9.52
6/12/2022 6:15:00 AM 13.63 56.534 0.029 6.52 2.6 9.55
6/12/2022 6:30:00 AM 13.59 56.462 0.03 6.52 2.88 9.57
6/12/2022 6:45:00 AM 13.57 56.426 0.029 6.48 4.11 9.59
6/12/2022 7:00:00 AM 13.57 56.426 0.029 6.46 3.42 9.62
6/12/2022 7:15:00 AM 13.57 56.426 0.029 6.48 3.37 9.67
6/12/2022 7:30:00 AM 13.58 56.444 0.029 6.52 2.58 9.68
6/12/2022 7:45:00 AM 13.6 56.48 0.028 6.5 3.31 9.72
6/12/2022 8:00:00 AM 13.65 56.57 0.029 6.49 2.37 9.75
6/12/2022 8:15:00 AM 13.73 56.714 0.029 6.52 2.4 9.8
6/12/2022 8:30:00 AM 13.83 56.894 0.028 6.54 3.32 9.82
6/12/2022 8:45:00 AM 13.93 57.074 0.03 6.61 2.31 9.85
6/12/2022 9:00:00 AM 14.04 57.272 0.029 6.59 2.48 9.85
6/12/2022 9:15:00 AM 14.12 57.416 0.029 6.6 2.4 9.86
6/12/2022 9:30:00 AM 14.25 57.65 0.029 6.61 2.41 9.85
6/12/2022 9:45:00 AM 14.38 57.884 0.029 6.61 2.32 9.85
6/12/2022 10:00:00 AM 14.47 58.046 0.029 6.63 2.32 9.84
6/12/2022 10:15:00 AM 14.55 58.19 0.029 6.63 2.25 9.8
6/12/2022 10:30:00 AM 14.65 58.37 0.029 6.68 2.35 9.85
6/12/2022 10:45:00 AM 14.77 58.586 0.027 6.6 3.28 9.81
6/12/2022 11:00:00 AM 14.83 58.694 0.029 6.65 2.37 9.8
6/12/2022 11:15:00 AM 14.9 58.82 0.029 6.67 2.39 9.78
6/12/2022 11:30:00 AM 14.98 58.964 0.029 6.66 2.33 9.77
6/12/2022 11:45:00 AM 15.05 59.09 0.029 6.66 2.44 9.76
6/12/2022 12:00:00 PM 15.14 59.252 0.029 6.67 2.49 9.75
6/12/2022 12:15:00 PM 15.21 59.378 0.028 6.56 3.17 9.73
6/12/2022 12:30:00 PM 15.28 59.504 0.029 6.64 2.32 9.72
6/12/2022 12:45:00 PM 15.39 59.702 0.029 6.62 2.2 9.69
6/12/2022 1:00:00 PM 15.57 60.026 0.028 6.68 2.2 9.69
6/12/2022 1:15:00 PM 15.82 60.476 0.029 6.69 2.28 9.69
6/12/2022 1:30:00 PM 16.03 60.854 0.028 6.71 2.16 9.69
6/12/2022 1:45:00 PM 16.32 61.376 0.029 6.72 2.15 9.65
6/12/2022 2:00:00 PM 16.58 61.844 0.027 6.68 3.1 9.63
6/12/2022 2:15:00 PM 16.83 62.294 0.029 6.72 2.06 9.59
6/12/2022 2:30:00 PM 17.18 62.924 0.027 6.7 3.16 9.56
6/12/2022 2:45:00 PM 17.45 63.41 0.028 6.74 2.19 9.48
6/12/2022 3:00:00 PM 17.71 63.878 0.028 6.75 2.03 9.44
6/12/2022 3:15:00 PM 17.95 64.31 0.027 6.71 3.12 9.38
6/12/2022 3:30:00 PM 18.13 64.634 0.028 6.69 2.09 9.34
6/12/2022 3:45:00 PM 18.26 64.868 0.028 6.76 2.25 9.29
6/12/2022 4:00:00 PM 18.36 65.048 0.028 6.76 2.17 9.25
6/12/2022 4:15:00 PM 18.36 65.048 0.027 6.73 3.15 9.2
6/12/2022 4:30:00 PM 18.35 65.03 0.028 6.69 2.2 9.17
6/12/2022 4:45:00 PM 18.37 65.066 0.028 6.75 2.52 9.17
6/12/2022 5:00:00 PM 18.39 65.102 0.027 6.72 3.16 9.15
6/12/2022 5:15:00 PM 18.36 65.048 0.028 6.75 2.47 9.12
6/12/2022 5:30:00 PM 18.37 65.066 0.029 6.73 2.22 9.09
6/12/2022 5:45:00 PM 18.41 65.138 0.028 6.74 2.18 9.09
6/12/2022 6:00:00 PM 18.35 65.03 0.028 6.68 3.14 9.03
6/12/2022 6:15:00 PM 18.32 64.976 0.029 6.73 2.13 8.99
6/12/2022 6:30:00 PM 18.31 64.958 0.029 6.69 2.38 8.98
6/12/2022 6:45:00 PM 18.27 64.886 0.027 6.68 3.14 8.97
6/12/2022 7:00:00 PM 18.2 64.76 0.029 6.71 2.45 8.93
6/12/2022 7:15:00 PM 18.13 64.634 0.029 6.65 3.18 8.87
6/12/2022 7:30:00 PM 18.07 64.526 0.029 6.68 2.21 8.84
6/12/2022 7:45:00 PM 17.97 64.346 0.029 6.6 2.57 8.84
6/12/2022 8:00:00 PM 17.87 64.166 0.033 6.68 12.21 8.8
6/12/2022 8:15:00 PM 17.75 63.95 0.038 6.69 11.28 8.76
6/12/2022 8:30:00 PM 17.66 63.788 0.037 6.68 9.47 8.75
6/12/2022 8:45:00 PM 17.59 63.662 0.035 6.67 7.7 8.75
6/12/2022 9:00:00 PM 17.49 63.482 0.032 6.62 6.29 8.76
6/12/2022 9:15:00 PM 17.4 63.32 0.032 6.62 4.81 8.74
6/12/2022 9:30:00 PM 17.32 63.176 0.032 6.6 3.95 8.74
6/12/2022 9:45:00 PM 17.24 63.032 0.031 6.59 4.35 8.73
6/12/2022 10:00:00 PM 17.15 62.87 0.031 6.58 3.11 8.75
6/12/2022 10:15:00 PM 17.07 62.726 0.031 6.58 3.21 8.76
6/12/2022 10:30:00 PM 17 62.6 0.031 6.57 2.88 8.77
6/12/2022 10:45:00 PM 16.92 62.456 0.03 6.55 3.8 8.78
6/12/2022 11:00:00 PM 16.84 62.312 0.031 6.57 2.81 8.78
6/12/2022 11:15:00 PM 16.78 62.204 0.029 6.55 3.82 8.8
6/12/2022 11:30:00 PM 16.72 62.096 0.029 6.54 3.87 8.78
6/12/2022 11:45:00 PM 16.65 61.97 0.031 6.56 2.58 8.77
6/13/2022 12:00:00 AM 16.55 61.79 0.03 6.58 2.85 8.87
6/13/2022 12:15:00 AM 16.45 61.61 0.03 6.58 3.36 8.91
6/13/2022 12:30:00 AM 16.37 61.466 0.03 6.57 2.99 8.91
6/13/2022 12:45:00 AM 16.31 61.358 0.03 6.52 3.85 8.89
6/13/2022 1:00:00 AM 16.23 61.214 0.03 6.56 2.93 8.95
6/13/2022 1:15:00 AM 16.18 61.124 0.028 6.52 3.78 8.95
6/13/2022 1:30:00 AM 16.14 61.052 0.03 6.52 2.81 8.97
6/13/2022 1:45:00 AM 16.08 60.944 0.028 6.55 3.64 9.04
6/13/2022 2:00:00 AM 16.04 60.872 0.029 6.5 2.82 9.04
6/13/2022 2:15:00 AM 15.98 60.764 0.029 6.58 2.78 9.04
6/13/2022 2:30:00 AM 15.93 60.674 0.028 6.53 3.81 9.03
6/13/2022 2:45:00 AM 15.85 60.53 0.029 6.49 2.88 9.06
6/13/2022 3:00:00 AM 15.77 60.386 0.028 6.55 3.59 9.11
6/13/2022 3:15:00 AM 15.71 60.278 0.029 6.48 2.64 9.12
6/13/2022 3:30:00 AM 15.64 60.152 0.028 6.57 3.01 9.15
6/13/2022 3:45:00 AM 15.57 60.026 0.028 6.57 2.85 9.18
6/13/2022 4:00:00 AM 15.54 59.972 0.027 6.53 3.88 9.2
6/13/2022 4:15:00 AM 15.48 59.864 0.027 6.54 4.1 9.23
6/13/2022 4:30:00 AM 15.44 59.792 0.028 6.49 3.93 9.23
6/13/2022 4:45:00 AM 15.42 59.756 0.028 6.57 3.33 9.24
6/13/2022 5:00:00 AM 15.36 59.648 0.028 6.57 3.57 9.25
6/13/2022 5:15:00 AM 15.33 59.594 0.027 6.53 4.73 9.28
6/13/2022 5:30:00 AM 15.29 59.522 0.028 6.57 3.86 9.29
6/13/2022 5:45:00 AM 15.27 59.486 0.026 6.52 5.19 9.29
6/13/2022 6:00:00 AM 15.25 59.45 0.027 6.57 4.48 9.32
6/13/2022 6:15:00 AM 15.24 59.432 0.026 6.52 5.64 9.33
6/13/2022 6:30:00 AM 15.24 59.432 0.027 6.47 4.32 9.34
6/13/2022 6:45:00 AM 15.25 59.45 0.027 6.57 4.4 9.37
6/13/2022 7:00:00 AM 15.26 59.468 0.025 6.54 5.24 9.39
6/13/2022 7:15:00 AM 15.28 59.504 0.025 6.52 4.96 9.41
6/13/2022 7:30:00 AM 15.32 59.576 0.026 6.57 4.08 9.44
6/13/2022 7:45:00 AM 15.38 59.684 0.026 6.57 3.98 9.45
6/13/2022 8:00:00 AM 15.46 59.828 0.026 6.58 3.65 9.49
6/13/2022 8:15:00 AM 15.55 59.99 0.026 6.59 3.56 9.5
6/13/2022 8:30:00 AM 15.63 60.134 0.026 6.6 3.34 9.53
6/13/2022 8:45:00 AM 15.71 60.278 0.025 6.55 4.33 9.52
6/13/2022 9:00:00 AM 15.86 60.548 0.025 6.58 4.05 9.53
6/13/2022 9:15:00 AM 15.98 60.764 0.025 6.57 4.21 9.54
6/13/2022 9:30:00 AM 16.08 60.944 0.024 6.58 4.13 9.54
6/13/2022 9:45:00 AM 16.23 61.214 0.026 6.62 2.94 9.52
6/13/2022 10:00:00 AM 16.39 61.502 0.026 6.63 3.76 9.52
6/13/2022 10:15:00 AM 16.63 61.934 0.025 6.65 2.93 9.52
6/13/2022 10:30:00 AM 16.82 62.276 0.025 6.62 3.95 9.49
6/13/2022 10:45:00 AM 16.98 62.564 0.025 6.58 3.02 9.47
6/13/2022 11:00:00 AM 17.14 62.852 0.024 6.63 4.06 9.44
6/13/2022 11:15:00 AM 17.24 63.032 0.025 6.68 3.03 9.4
6/13/2022 11:30:00 AM 17.35 63.23 0.025 6.66 3.03 9.36
6/13/2022 11:45:00 AM 17.5 63.5 0.025 6.66 3.02 9.35
6/13/2022 12:00:00 PM 17.59 63.662 0.026 6.65 2.73 9.31
6/13/2022 12:15:00 PM 17.84 64.112 0.024 6.62 3.82 9.28
6/13/2022 12:30:00 PM 18.1 64.58 0.026 6.65 3.02 9.25
6/13/2022 12:45:00 PM 18.39 65.102 0.025 6.67 2.69 9.21
6/13/2022 1:00:00 PM 18.55 65.39 0.025 6.67 2.85 9.16
6/13/2022 1:15:00 PM 18.8 65.84 0.024 6.63 3.92 9.14
6/13/2022 1:30:00 PM 18.99 66.182 0.026 6.67 2.99 9.08
6/13/2022 1:45:00 PM 19.39 66.902 0.025 6.68 3.09 9.07
6/13/2022 2:00:00 PM 19.54 67.172 0.025 6.68 2.8 9
6/13/2022 2:15:00 PM 19.84 67.712 0.024 6.64 4.05 8.97
6/13/2022 2:30:00 PM 20.13 68.234 0.024 6.64 3.81 8.92
6/13/2022 2:45:00 PM 20.4 68.72 0.025 6.68 2.98 8.88
6/13/2022 3:00:00 PM 20.7 69.26 0.025 6.63 3.36 8.85
6/13/2022 3:15:00 PM 20.84 69.512 0.025 6.7 3.32 8.78
6/13/2022 3:30:00 PM 21.07 69.926 0.024 6.66 4.15 8.75
6/13/2022 3:45:00 PM 21.19 70.142 0.024 6.64 4.16 8.7
6/13/2022 4:00:00 PM 21.31 70.358 0.025 6.68 3.29 8.66
6/13/2022 4:15:00 PM 21.39 70.502 0.025 6.69 3.6 8.64
6/13/2022 4:30:00 PM 21.53 70.754 0.025 6.69 3.6 8.61
6/13/2022 4:45:00 PM 21.53 70.754 0.026 6.67 3.66 8.59
6/13/2022 5:00:00 PM 21.61 70.898 0.025 6.69 3.63 8.57
6/13/2022 5:15:00 PM 21.59 70.862 0.026 6.69 4.08 8.55
6/13/2022 5:30:00 PM 21.62 70.916 0.024 6.67 5.28 8.58
6/13/2022 5:45:00 PM 21.52 70.736 0.026 6.69 4.61 8.55
6/13/2022 6:00:00 PM 21.48 70.664 0.025 6.69 4.34 8.5
6/13/2022 6:15:00 PM 21.33 70.394 0.026 6.66 5.17 8.5
6/13/2022 6:30:00 PM 21.15 70.07 0.025 6.62 5.82 8.5
6/13/2022 6:45:00 PM 21.02 69.836 0.027 6.65 5.23 8.48
6/13/2022 7:00:00 PM 20.8 69.44 0.026 6.63 5.08 8.51
6/13/2022 7:15:00 PM 20.56 69.008 0.025 6.61 6.17 8.53
6/13/2022 7:30:00 PM 20.32 68.576 0.025 6.63 6.14 8.5
6/13/2022 7:45:00 PM 20.16 68.288 0.026 6.64 4.98 8.48
6/13/2022 8:00:00 PM 19.93 67.874 0.026 6.6 5.82 8.46
6/13/2022 8:15:00 PM 19.77 67.586 0.027 6.61 4.62 8.46
6/13/2022 8:30:00 PM 19.6 67.28 0.027 6.53 4.48 8.46
6/13/2022 8:45:00 PM 19.45 67.01 0.026 6.61 4.52 8.48
6/13/2022 9:00:00 PM 19.32 66.776 0.028 6.58 4.48 8.41
6/13/2022 9:15:00 PM 19.15 66.47 0.026 6.53 4.98 8.44
6/13/2022 9:30:00 PM 19 66.2 0.027 6.57 3.81 8.49
6/13/2022 9:45:00 PM 18.86 65.948 0.026 6.53 4.95 8.48
6/13/2022 10:00:00 PM 18.74 65.732 0.028 6.54 3.89 8.47
6/13/2022 10:15:00 PM 18.6 65.48 0.027 6.55 3.67 8.5
6/13/2022 10:30:00 PM 18.46 65.228 0.027 6.51 4.5 8.53
6/13/2022 10:45:00 PM 18.37 65.066 0.028 6.52 3.74 8.48
6/13/2022 11:00:00 PM 18.25 64.85 0.028 6.46 4.36 8.5
6/13/2022 11:15:00 PM 18.13 64.634 0.028 6.51 3.3 8.55
6/13/2022 11:30:00 PM 18 64.4 0.028 6.53 3.22 8.63
6/13/2022 11:45:00 PM 17.9 64.22 0.028 6.52 3.37 8.62
6/14/2022 12:00:00 AM 17.8 64.04 0.029 6.48 3.43 8.56
6/14/2022 12:15:00 AM 17.66 63.788 0.028 6.51 3.24 8.66
6/14/2022 12:30:00 AM 17.56 63.608 0.027 6.52 3.09 8.68
6/14/2022 12:45:00 AM 17.47 63.446 0.029 6.47 3.86 8.65
6/14/2022 1:00:00 AM 17.38 63.284 0.028 6.49 3.19 8.65
6/14/2022 1:15:00 AM 17.29 63.122 0.029 6.45 3.36 8.64
6/14/2022 1:30:00 AM 17.2 62.96 0.028 6.4 4.67 8.62
6/14/2022 1:45:00 AM 17.12 62.816 0.028 6.41 4.26 8.7
6/14/2022 2:00:00 AM 17.04 62.672 0.027 6.42 4.09 8.72
6/14/2022 2:15:00 AM 16.98 62.564 0.026 6.43 4.24 8.77
6/14/2022 2:30:00 AM 16.91 62.438 0.028 6.48 3.25 8.82
6/14/2022 2:45:00 AM 16.84 62.312 0.028 6.42 3.98 8.76
6/14/2022 3:00:00 AM 16.78 62.204 0.029 6.45 3.38 8.79
6/14/2022 3:15:00 AM 16.72 62.096 0.027 6.43 4.14 8.82
6/14/2022 3:30:00 AM 16.65 61.97 0.029 6.44 3.22 8.78
6/14/2022 3:45:00 AM 16.58 61.844 0.028 6.4 4.06 8.8
6/14/2022 4:00:00 AM 16.54 61.772 0.028 6.46 3.55 8.84
6/14/2022 4:15:00 AM 16.48 61.664 0.029 6.44 3.16 8.81
6/14/2022 4:30:00 AM 16.43 61.574 0.027 6.39 3.98 8.87
6/14/2022 4:45:00 AM 16.38 61.484 0.027 6.4 4.21 8.92
6/14/2022 5:00:00 AM 16.33 61.394 0.029 6.46 2.96 8.92
6/14/2022 5:15:00 AM 16.28 61.304 0.028 6.47 3.17 8.97
6/14/2022 5:30:00 AM 16.24 61.232 0.027 6.43 4.29 8.98
6/14/2022 5:45:00 AM 16.19 61.142 0.029 6.46 2.99 8.97
6/14/2022 6:00:00 AM 16.16 61.088 0.028 6.46 3.13 8.96
6/14/2022 6:15:00 AM 16.13 61.034 0.028 6.49 3.49 9
6/14/2022 6:30:00 AM 16.09 60.962 0.028 6.46 3.81 9
6/14/2022 6:45:00 AM 16.08 60.944 0.028 6.38 3.08 9.05
6/14/2022 7:00:00 AM 16.07 60.926 0.027 6.5 3.15 9.11
6/14/2022 7:15:00 AM 16.05 60.89 0.028 6.47 2.94 9.03
6/14/2022 7:30:00 AM 16.04 60.872 0.028 6.49 3.02 9.1
6/14/2022 7:45:00 AM 16.04 60.872 0.028 6.45 3.83 9.12
6/14/2022 8:00:00 AM 16.05 60.89 0.028 6.48 2.95 9.18
6/14/2022 8:15:00 AM 16.05 60.89 0.027 6.46 3.82 9.17
6/14/2022 8:30:00 AM 16.07 60.926 0.028 6.51 2.95 9.21
6/14/2022 8:45:00 AM 16.11 60.998 0.028 6.52 2.9 9.22
6/14/2022 9:00:00 AM 16.17 61.106 0.027 6.53 2.68 9.27
6/14/2022 9:15:00 AM 16.2 61.16 0.028 6.55 2.96 9.3
6/14/2022 9:30:00 AM 16.27 61.286 0.028 6.56 2.79 9.31
6/14/2022 9:45:00 AM 16.36 61.448 0.028 6.55 2.67 9.33
6/14/2022 10:00:00 AM 16.47 61.646 0.028 6.58 2.67 9.34
6/14/2022 10:15:00 AM 16.57 61.826 0.027 6.51 3.86 9.31
6/14/2022 10:30:00 AM 16.69 62.042 0.026 6.56 3.66 9.37
6/14/2022 10:45:00 AM 16.81 62.258 0.026 6.54 3.71 9.36
6/14/2022 11:00:00 AM 16.96 62.528 0.026 6.6 3.62 9.37
6/14/2022 11:15:00 AM 17.11 62.798 0.026 6.6 3.57 9.38
6/14/2022 11:30:00 AM 17.29 63.122 0.027 6.65 2.53 9.34
6/14/2022 11:45:00 AM 17.55 63.59 0.026 6.66 2.55 9.35
6/14/2022 12:00:00 PM 17.84 64.112 0.027 6.67 2.62 9.28
6/14/2022 12:15:00 PM 18.18 64.724 0.026 6.68 2.63 9.23
6/14/2022 12:30:00 PM 18.5 65.3 0.026 6.68 2.49 9.23
6/14/2022 12:45:00 PM 18.83 65.894 0.025 6.64 3.45 9.17
6/14/2022 1:00:00 PM 19.14 66.452 0.026 6.69 2.54 9.09
6/14/2022 1:15:00 PM 19.45 67.01 0.025 6.66 3.46 9.05
6/14/2022 1:30:00 PM 19.81 67.658 0.026 6.7 2.54 9.01
6/14/2022 1:45:00 PM 20.09 68.162 0.027 6.7 2.49 8.94
6/14/2022 2:00:00 PM 20.45 68.81 0.025 6.66 3.65 8.88
6/14/2022 2:15:00 PM 20.7 69.26 0.026 6.7 2.79 8.83
6/14/2022 2:30:00 PM 20.98 69.764 0.026 6.67 3.36 8.79
6/14/2022 2:45:00 PM 21.26 70.268 0.026 6.68 3.38 8.74
6/14/2022 3:00:00 PM 21.48 70.664 0.026 6.64 2.49 8.69
6/14/2022 3:15:00 PM 21.72 71.096 0.026 6.71 2.37 8.65
6/14/2022 3:30:00 PM 21.92 71.456 0.026 6.72 2.34 8.62
6/14/2022 3:45:00 PM 22.12 71.816 0.025 6.71 3.31 8.58
6/14/2022 4:00:00 PM 22.26 72.068 0.026 6.73 2.4 8.54
6/14/2022 4:15:00 PM 22.34 72.212 0.027 6.72 2.4 8.5
6/14/2022 4:30:00 PM 22.48 72.464 0.027 6.72 2.31 8.48
6/14/2022 4:45:00 PM 22.54 72.57201 0.026 6.68 3.46 8.45
6/14/2022 5:00:00 PM 22.65 72.77 0.026 6.72 2.32 8.44
6/14/2022 5:15:00 PM 22.66 72.788 0.026 6.7 3.32 8.42
6/14/2022 5:30:00 PM 22.66 72.788 0.026 6.69 3.25 8.4
6/14/2022 5:45:00 PM 22.64 72.752 0.027 6.72 2.43 8.37
6/14/2022 6:00:00 PM 22.6 72.68 0.027 6.71 2.65 8.38
6/14/2022 6:15:00 PM 22.51 72.518 0.027 6.64 2.58 8.36
6/14/2022 6:30:00 PM 22.39 72.302 0.027 6.71 3.04 8.36
6/14/2022 6:45:00 PM 22.25 72.05 0.027 6.71 2.53 8.36
6/14/2022 7:00:00 PM 22.05 71.69 0.027 6.68 3.49 8.36
6/14/2022 7:15:00 PM 21.83 71.294 0.028 6.69 2.66 8.35
6/14/2022 7:30:00 PM 21.58 70.844 0.027 6.64 3.44 8.32
6/14/2022 7:45:00 PM 21.37 70.466 0.027 6.67 2.47 8.3
6/14/2022 8:00:00 PM 21.1 69.98 0.028 6.66 3.01 8.28
6/14/2022 8:15:00 PM 20.85 69.53 0.027 6.59 3.68 8.26
6/14/2022 8:30:00 PM 20.65 69.17 0.028 6.55 2.76 8.24
6/14/2022 8:45:00 PM 20.45 68.81 0.028 6.62 2.73 8.25
6/14/2022 9:00:00 PM 20.26 68.468 0.027 6.57 3.45 8.26
6/14/2022 9:15:00 PM 20.09 68.162 0.027 6.55 5.27 8.21
6/14/2022 9:30:00 PM 19.9 67.82 0.029 6.5 2.57 8.24
6/14/2022 9:45:00 PM 19.72 67.496 0.028 6.54 3.46 8.26
6/14/2022 10:00:00 PM 19.55 67.19 0.028 6.58 2.52 8.31
6/14/2022 10:15:00 PM 19.38 66.884 0.029 6.56 2.5 8.31
6/14/2022 10:30:00 PM 19.22 66.596 0.028 6.57 2.52 8.35
6/14/2022 10:45:00 PM 19.06 66.308 0.029 6.48 2.86 8.37
6/14/2022 11:00:00 PM 18.92 66.056 0.027 6.53 3.46 8.38
6/14/2022 11:15:00 PM 18.78 65.804 0.029 6.49 2.58 8.38
6/14/2022 11:30:00 PM 18.64 65.552 0.029 6.55 2.63 8.42
6/14/2022 11:45:00 PM 18.48 65.264 0.028 6.52 3.43 8.46
6/15/2022 12:00:00 AM 18.34 65.012 0.028 6.49 5.48 8.46
6/15/2022 12:15:00 AM 18.23 64.814 0.028 6.48 3.5 8.49
6/15/2022 12:30:00 AM 18.1 64.58 0.029 6.52 2.77 8.5
6/15/2022 12:45:00 AM 17.96 64.328 0.029 6.52 2.53 8.55
6/15/2022 1:00:00 AM 17.84 64.112 0.029 6.52 3.88 8.57
6/15/2022 1:15:00 AM 17.72 63.896 0.029 6.54 2.76 8.64
6/15/2022 1:30:00 AM 17.59 63.662 0.029 6.52 2.76 8.63
6/15/2022 1:45:00 AM 17.47 63.446 0.029 6.51 2.62 8.66
6/15/2022 2:00:00 AM 17.35 63.23 0.029 6.53 2.71 8.67
6/15/2022 2:15:00 AM 17.21 62.978 0.029 6.51 2.5 8.71
6/15/2022 2:30:00 AM 17.09 62.762 0.029 6.51 2.89 8.74
6/15/2022 2:45:00 AM 16.97 62.546 0.03 6.5 2.72 8.76
6/15/2022 3:00:00 AM 16.84 62.312 0.031 6.44 13.25 8.65
6/15/2022 3:15:00 AM 16.73 62.114 0.029 6.51 2.74 8.81
6/15/2022 3:30:00 AM 16.61 61.898 0.029 6.51 3.37 8.86
6/15/2022 3:45:00 AM 16.49 61.682 0.029 6.51 2.57 8.89
6/15/2022 4:00:00 AM 16.38 61.484 0.028 6.45 3.5 8.89
6/15/2022 4:15:00 AM 16.26 61.268 0.029 6.51 2.69 8.94
6/15/2022 4:30:00 AM 16.15 61.07 0.03 6.43 2.9 8.95
6/15/2022 4:45:00 AM 16.03 60.854 0.029 6.52 3.03 8.98
6/15/2022 5:00:00 AM 15.92 60.656 0.029 6.51 2.87 9.03
6/15/2022 5:15:00 AM 15.81 60.458 0.03 6.49 2.88 9.04
6/15/2022 5:30:00 AM 15.7 60.26 0.029 6.51 2.9 9.06
6/15/2022 5:45:00 AM 15.61 60.098 0.028 6.47 3.66 9.09
6/15/2022 6:00:00 AM 15.5 59.9 0.03 6.43 2.66 9.12
6/15/2022 6:15:00 AM 15.4 59.72 0.03 6.5 2.75 9.14
6/15/2022 6:30:00 AM 15.32 59.576 0.029 6.5 2.67 9.22
6/15/2022 6:45:00 AM 15.27 59.486 0.029 6.45 3.54 9.22
6/15/2022 7:00:00 AM 15.23 59.414 0.03 6.51 2.62 9.31
6/15/2022 7:15:00 AM 15.23 59.414 0.03 6.51 2.45 9.36
6/15/2022 7:30:00 AM 15.22 59.396 0.03 6.51 2.51 9.39
6/15/2022 7:45:00 AM 15.25 59.45 0.029 6.46 3.46 9.42
6/15/2022 8:00:00 AM 15.32 59.576 0.029 6.55 2.38 9.49
6/15/2022 8:15:00 AM 15.4 59.72 0.029 6.47 2.44 9.52
6/15/2022 8:30:00 AM 15.51 59.918 0.03 6.56 2.31 9.52
6/15/2022 8:45:00 AM 15.69 60.242 0.029 6.57 2.42 9.55
6/15/2022 9:00:00 AM 15.86 60.548 0.029 6.51 2.48 9.57
6/15/2022 9:15:00 AM 16.05 60.89 0.029 6.61 2.33 9.55
6/15/2022 9:30:00 AM 16.26 61.268 0.029 6.62 2.21 9.56
6/15/2022 9:45:00 AM 16.47 61.646 0.029 6.64 2.95 9.51
6/15/2022 10:00:00 AM 16.72 62.096 0.028 6.6 3.2 9.52
6/15/2022 10:15:00 AM 17.01 62.618 0.028 6.66 2.3 9.48
6/15/2022 10:30:00 AM 17.27 63.086 0.028 6.67 2.95 9.46
6/15/2022 10:45:00 AM 17.49 63.482 0.027 6.63 3.2 9.42
6/15/2022 11:00:00 AM 17.74 63.932 0.028 6.59 2.22 9.38
6/15/2022 11:15:00 AM 18.03 64.454 0.027 6.64 3.2 9.35
6/15/2022 11:30:00 AM 18.31 64.958 0.027 6.65 3.1 9.32
6/15/2022 11:45:00 AM 18.61 65.498 0.028 6.69 2.18 9.27
6/15/2022 12:00:00 PM 18.96 66.128 0.027 6.66 3.16 9.23
6/15/2022 12:15:00 PM 19.27 66.686 0.028 6.71 2 9.17
6/15/2022 12:30:00 PM 19.59 67.262 0.027 6.68 3.14 9.14
6/15/2022 12:45:00 PM 19.92 67.856 0.028 6.64 2.13 9.07
6/15/2022 1:00:00 PM 20.26 68.468 0.028 6.71 2.18 9.02
6/15/2022 1:15:00 PM 20.59 69.062 0.028 6.73 2.28 8.96
6/15/2022 1:30:00 PM 20.89 69.602 0.028 6.72 2.34 8.9
6/15/2022 1:45:00 PM 21.26 70.268 0.028 6.68 2.06 8.87
6/15/2022 2:00:00 PM 21.6 70.88 0.028 6.75 2.33 8.82
6/15/2022 2:15:00 PM 21.89 71.402 0.028 6.74 2.07 8.77
6/15/2022 2:30:00 PM 22.21 71.978 0.027 6.73 2.96 8.75
6/15/2022 2:45:00 PM 22.36 72.248 0.028 6.77 2.03 8.7
6/15/2022 3:00:00 PM 22.65 72.77 0.028 6.75 2.17 8.64
6/15/2022 3:15:00 PM 22.88 73.184 0.027 6.73 2.93 8.6
6/15/2022 3:30:00 PM 23.11 73.598 0.028 6.76 2.14 8.57
6/15/2022 3:45:00 PM 23.34 74.012 0.028 6.78 2.04 8.52
6/15/2022 4:00:00 PM 23.43 74.174 0.028 6.79 2.16 8.5
6/15/2022 4:15:00 PM 23.52 74.336 0.027 6.75 3.03 8.43
6/15/2022 4:30:00 PM 23.69 74.642 0.027 6.69 3.15 8.41
6/15/2022 4:45:00 PM 23.78 74.804 0.027 6.75 3.01 8.38
6/15/2022 5:00:00 PM 23.82 74.876 0.027 6.75 2.96 8.35
6/15/2022 5:15:00 PM 23.87 74.966 0.028 6.78 2.06 8.32
6/15/2022 5:30:00 PM 23.89 75.002 0.028 6.75 2.09 8.29
6/15/2022 5:45:00 PM 23.91 75.038 0.028 6.76 2.21 8.26
6/15/2022 6:00:00 PM 23.92 75.056 0.028 6.74 3.09 8.26
6/15/2022 6:15:00 PM 23.88 74.984 0.028 6.77 2.6 8.25
6/15/2022 6:30:00 PM 23.77 74.786 0.028 6.77 2.2 8.22
6/15/2022 6:45:00 PM 23.65 74.57 0.028 6.77 2.24 8.21
6/15/2022 7:00:00 PM 23.48 74.264 0.027 6.72 3.21 8.19
6/15/2022 7:15:00 PM 23.3 73.94 0.029 6.75 2.22 8.17
6/15/2022 7:30:00 PM 23.09 73.562 0.028 6.71 3.11 8.16
6/15/2022 7:45:00 PM 22.83 73.094 0.029 6.71 2.27 8.12
6/15/2022 8:00:00 PM 22.6 72.68 0.029 6.65 3.12 8.08
6/15/2022 8:15:00 PM 22.38 72.284 0.03 6.67 2.7 8.04
6/15/2022 8:30:00 PM 22.17 71.906 0.03 6.64 2.38 8
6/15/2022 8:45:00 PM 21.98 71.564 0.029 6.62 3.78 8.01
6/15/2022 9:00:00 PM 21.82 71.276 0.03 6.65 2.33 8.02
6/15/2022 9:15:00 PM 21.66 70.988 0.029 6.6 3.36 7.97
6/15/2022 9:30:00 PM 21.52 70.736 0.03 6.63 2.3 7.97
6/15/2022 9:45:00 PM 21.38 70.484 0.03 6.61 2.54 7.98
6/15/2022 10:00:00 PM 21.27 70.286 0.03 6.61 2.63 7.98
6/15/2022 10:15:00 PM 21.14 70.052 0.029 6.55 3.07 7.99
6/15/2022 10:30:00 PM 21.03 69.854 0.03 6.59 2.16 8
6/15/2022 10:45:00 PM 20.91 69.638 0.03 6.58 2.28 7.98
6/15/2022 11:00:00 PM 20.79 69.422 0.031 6.57 2.5 7.99
6/15/2022 11:15:00 PM 20.68 69.224 0.029 6.53 3.06 8.04
6/15/2022 11:30:00 PM 20.58 69.044 0.031 6.51 2.19 8.03
6/15/2022 11:45:00 PM 20.49 68.882 0.031 6.57 2.3 8.05
6/16/2022 12:00:00 AM 20.39 68.702 0.031 6.56 2.78 8.09
6/16/2022 12:15:00 AM 20.3 68.54 0.031 6.55 3 8.03
6/16/2022 12:30:00 AM 20.21 68.378 0.032 6.53 5.09 8.05
6/16/2022 12:45:00 AM 20.13 68.234 0.031 6.55 2.82 8.08
6/16/2022 1:00:00 AM 20.05 68.09 0.031 6.55 2.68 8.12
6/16/2022 1:15:00 AM 19.96 67.92799 0.032 6.57 2.74 8.15
6/16/2022 1:30:00 AM 19.88 67.784 0.03 6.51 3.41 8.15
6/16/2022 1:45:00 AM 19.81 67.658 0.031 6.56 2.74 8.16
6/16/2022 2:00:00 AM 19.73 67.514 0.032 6.54 2.8 8.19
6/16/2022 2:15:00 AM 19.66 67.388 0.03 6.55 3.32 8.21
6/16/2022 2:30:00 AM 19.58 67.244 0.031 6.56 2.7 8.2
6/16/2022 2:45:00 AM 19.51 67.118 0.032 6.54 2.82 8.17
6/16/2022 3:00:00 AM 19.44 66.992 0.03 6.52 3.52 8.24
6/16/2022 3:15:00 AM 19.38 66.884 0.031 6.55 2.63 8.25
6/16/2022 3:30:00 AM 19.32 66.776 0.032 6.56 2.64 8.25
6/16/2022 3:45:00 AM 19.27 66.686 0.031 6.57 2.66 8.3
6/16/2022 4:00:00 AM 19.22 66.596 0.03 6.52 3.41 8.29
6/16/2022 4:15:00 AM 19.16 66.488 0.03 6.54 3.35 8.29
6/16/2022 4:30:00 AM 19.11 66.398 0.031 6.56 2.74 8.28
6/16/2022 4:45:00 AM 19.06 66.308 0.031 6.57 2.48 8.34
6/16/2022 5:00:00 AM 19.02 66.236 0.032 6.57 2.51 8.3
6/16/2022 5:15:00 AM 18.97 66.146 0.032 6.55 2.77 8.32
6/16/2022 5:30:00 AM 18.92 66.056 0.031 6.57 3.04 8.35
6/16/2022 5:45:00 AM 18.88 65.984 0.031 6.56 2.81 8.35
6/16/2022 6:00:00 AM 18.84 65.912 0.031 6.58 2.8 8.38
6/16/2022 6:15:00 AM 18.79 65.82201 0.031 6.57 2.61 8.37
6/16/2022 6:30:00 AM 18.75 65.75 0.032 6.57 2.69 8.42
6/16/2022 6:45:00 AM 18.71 65.67799 0.032 6.57 2.89 8.38
6/16/2022 7:00:00 AM 18.65 65.57 0.032 6.48 2.66 8.41
6/16/2022 7:15:00 AM 18.62 65.516 0.03 6.56 3.66 8.47
6/16/2022 7:30:00 AM 18.56 65.408 0.03 6.54 3.5 8.49
6/16/2022 7:45:00 AM 18.51 65.318 0.032 6.57 2.64 8.49
6/16/2022 8:00:00 AM 18.47 65.246 0.031 6.58 2.63 8.53
6/16/2022 8:15:00 AM 18.43 65.174 0.032 6.57 2.53 8.55
6/16/2022 8:30:00 AM 18.41 65.138 0.031 6.6 2.53 8.62
6/16/2022 8:45:00 AM 18.39 65.102 0.032 6.58 2.51 8.67
6/16/2022 9:00:00 AM 18.35 65.03 0.031 6.59 2.33 8.7
6/16/2022 9:15:00 AM 18.32 64.976 0.031 6.61 2.42 8.71
6/16/2022 9:30:00 AM 18.31 64.958 0.031 6.62 2.43 8.74
6/16/2022 9:45:00 AM 18.31 64.958 0.031 6.61 2.32 8.78
6/16/2022 10:00:00 AM 18.3 64.94 0.031 6.63 2.23 8.81
6/16/2022 10:15:00 AM 18.3 64.94 0.03 6.62 3.19 8.82
6/16/2022 10:30:00 AM 18.34 65.012 0.031 6.65 2.21 8.89
6/16/2022 10:45:00 AM 18.36 65.048 0.031 6.65 2.55 8.91
6/16/2022 11:00:00 AM 18.39 65.102 0.029 6.63 3.25 8.95
6/16/2022 11:15:00 AM 18.4 65.12 0.03 6.64 3.32 8.94
6/16/2022 11:30:00 AM 18.45 65.21 0.031 6.68 2.36 8.98
6/16/2022 11:45:00 AM 18.46 65.228 0.031 6.68 2.25 8.98
6/16/2022 12:00:00 PM 18.52 65.336 0.03 6.68 2.3 9.01
6/16/2022 12:15:00 PM 18.56 65.408 0.03 6.7 2.22 9.03
6/16/2022 12:30:00 PM 18.64 65.552 0.03 6.7 2.14 9.03
6/16/2022 12:45:00 PM 18.71 65.67799 0.03 6.72 2.44 9.05
6/16/2022 1:00:00 PM 18.79 65.82201 0.03 6.72 2.24 9.06
6/16/2022 1:15:00 PM 18.88 65.984 0.03 6.72 2.32 9.08
6/16/2022 1:30:00 PM 19 66.2 0.028 6.69 3.15 9.08
6/16/2022 1:45:00 PM 19.14 66.452 0.029 6.73 3.18 9.07
6/16/2022 2:00:00 PM 19.26 66.668 0.029 6.76 2.22 9.1
6/16/2022 2:15:00 PM 19.35 66.83 0.029 6.71 3.2 9.07
6/16/2022 2:30:00 PM 19.48 67.064 0.029 6.7 2.26 9.07
6/16/2022 2:45:00 PM 19.61 67.298 0.029 6.78 2.23 9.06
6/16/2022 3:00:00 PM 19.74 67.532 0.028 6.75 3.13 9.05
6/16/2022 3:15:00 PM 19.82 67.676 0.028 6.74 3.16 9.05
6/16/2022 3:30:00 PM 19.9 67.82 0.029 6.8 2.19 9.01
6/16/2022 3:45:00 PM 19.96 67.92799 0.028 6.76 3.21 9
6/16/2022 4:00:00 PM 20.04 68.07201 0.029 6.76 2.25 8.97
6/16/2022 4:15:00 PM 20.09 68.162 0.029 6.79 2.26 8.96
6/16/2022 4:30:00 PM 20.12 68.216 0.029 6.79 2.31 8.95
6/16/2022 4:45:00 PM 20.14 68.252 0.03 6.78 2.51 8.93
6/16/2022 5:00:00 PM 20.15 68.27 0.029 6.77 2.21 8.87
6/16/2022 5:15:00 PM 20.17 68.306 0.029 6.77 2.22 8.85
6/16/2022 5:30:00 PM 20.17 68.306 0.03 6.73 2.11 8.85
6/16/2022 5:45:00 PM 20.17 68.306 0.029 6.78 2.2 8.83
6/16/2022 6:00:00 PM 20.15 68.27 0.029 6.78 2.23 8.81
6/16/2022 6:15:00 PM 20.1 68.18 0.03 6.75 2.35 8.75
6/16/2022 6:30:00 PM 20.06 68.108 0.028 6.71 3.29 8.69
6/16/2022 6:45:00 PM 20.02 68.036 0.028 6.73 3.18 8.67
6/16/2022 7:00:00 PM 19.96 67.92799 0.03 6.72 2.43 8.61
6/16/2022 7:15:00 PM 19.89 67.802 0.029 6.68 3.16 8.55
6/16/2022 7:30:00 PM 19.83 67.694 0.031 6.7 2.35 8.51
6/16/2022 7:45:00 PM 19.76 67.568 0.031 6.69 2.54 8.47
6/16/2022 8:00:00 PM 19.69 67.442 0.031 6.68 2.52 8.42
6/16/2022 8:15:00 PM 19.62 67.316 0.03 6.62 3.47 8.39
6/16/2022 8:30:00 PM 19.55 67.19 0.03 6.61 3.31 8.38
6/16/2022 8:45:00 PM 19.5 67.1 0.03 6.62 3.33 8.37
6/16/2022 9:00:00 PM 19.44 66.992 0.031 6.64 2.4 8.35
6/16/2022 9:15:00 PM 19.39 66.902 0.032 6.63 2.47 8.21
6/16/2022 9:30:00 PM 19.34 66.812 0.031 6.59 3.59 8.32
6/16/2022 9:45:00 PM 19.3 66.74 0.03 6.58 3.53 8.29
6/16/2022 10:00:00 PM 19.27 66.686 0.031 6.58 3.3 8.3
6/16/2022 10:15:00 PM 19.24 66.632 0.032 6.61 2.52 8.3
6/16/2022 10:30:00 PM 19.21 66.578 0.032 6.6 2.67 8.32
6/16/2022 10:45:00 PM 19.19 66.542 0.03 6.57 3.38 8.33
6/16/2022 11:00:00 PM 19.16 66.488 0.032 6.58 2.53 8.32
6/16/2022 11:15:00 PM 19.14 66.452 0.031 6.57 3.24 8.3
6/16/2022 11:30:00 PM 19.12 66.416 0.032 6.6 2.52 8.33
6/16/2022 11:45:00 PM 19.08 66.344 0.032 6.61 2.37 8.34
6/17/2022 12:00:00 AM 19.04 66.272 0.033 6.59 3.03 8.31
6/17/2022 12:15:00 AM 19.01 66.218 0.032 6.6 2.38 8.34
6/17/2022 12:30:00 AM 18.96 66.128 0.033 6.6 2.39 8.36
6/17/2022 12:45:00 AM 18.91 66.038 0.032 6.61 2.57 8.38
6/17/2022 1:00:00 AM 18.86 65.948 0.032 6.6 2.39 8.37
6/17/2022 1:15:00 AM 18.81 65.858 0.031 6.56 3.21 8.38
6/17/2022 1:30:00 AM 18.74 65.732 0.031 6.54 3.34 8.37
6/17/2022 1:45:00 AM 18.67 65.606 0.033 6.54 2.77 8.33
6/17/2022 2:00:00 AM 18.61 65.498 0.033 6.57 3.02 8.37
6/17/2022 2:15:00 AM 18.54 65.372 0.034 6.56 2.58 8.35
6/17/2022 2:30:00 AM 18.46 65.228 0.034 6.56 3.37 8.36
6/17/2022 2:45:00 AM 18.38 65.084 0.033 6.5 4.4 8.36
6/17/2022 3:00:00 AM 18.31 64.958 0.033 6.54 3.15 8.37
6/17/2022 3:15:00 AM 18.23 64.814 0.033 6.51 3.88 8.4
6/17/2022 3:30:00 AM 18.15 64.67 0.034 6.54 2.93 8.41
6/17/2022 3:45:00 AM 18.07 64.526 0.033 6.55 2.82 8.46
6/17/2022 4:00:00 AM 17.99 64.382 0.034 6.55 2.68 8.46
6/17/2022 4:15:00 AM 17.92 64.256 0.032 6.51 3.47 8.48
6/17/2022 4:30:00 AM 17.84 64.112 0.033 6.55 2.53 8.53
6/17/2022 4:45:00 AM 17.77 63.986 0.033 6.49 2.54 8.53
6/17/2022 5:00:00 AM 17.7 63.86 0.032 6.52 3.48 8.52
6/17/2022 5:15:00 AM 17.64 63.752 0.034 6.48 2.66 8.54
6/17/2022 5:30:00 AM 17.58 63.644 0.033 6.52 3.46 8.56
6/17/2022 5:45:00 AM 17.54 63.572 0.033 6.55 2.43 8.57
6/17/2022 6:00:00 AM 17.5 63.5 0.034 6.54 2.62 8.58
6/17/2022 6:15:00 AM 17.47 63.446 0.033 6.5 3.36 8.55
6/17/2022 6:30:00 AM 17.44 63.392 0.034 6.55 2.55 8.63
6/17/2022 6:45:00 AM 17.43 63.374 0.034 6.49 2.46 8.64
6/17/2022 7:00:00 AM 17.43 63.374 0.034 6.55 2.57 8.66
6/17/2022 7:15:00 AM 17.46 63.428 0.032 6.53 3.32 8.72
6/17/2022 7:30:00 AM 17.51 63.518 0.032 6.53 3.27 8.75
6/17/2022 7:45:00 AM 17.58 63.644 0.033 6.59 2.4 8.8
6/17/2022 8:00:00 AM 17.67 63.806 0.033 6.61 2.25 8.82
6/17/2022 8:15:00 AM 17.82 64.076 0.031 6.58 3.17 8.86
6/17/2022 8:30:00 AM 17.95 64.31 0.033 6.55 2.43 8.92
6/17/2022 8:45:00 AM 18.13 64.634 0.032 6.66 2.34 8.95
6/17/2022 9:00:00 AM 18.33 64.994 0.032 6.67 2.18 8.94
6/17/2022 9:15:00 AM 18.47 65.246 0.032 6.69 2.23 9.01
6/17/2022 9:30:00 AM 18.59 65.462 0.032 6.71 2.21 9.01
6/17/2022 9:45:00 AM 18.81 65.858 0.032 6.7 2.35 8.98
6/17/2022 10:00:00 AM 18.97 66.146 0.032 6.69 2.28 9.01
6/17/2022 10:15:00 AM 19.12 66.416 0.032 6.74 2.18 9
6/17/2022 10:30:00 AM 19.25 66.65 0.032 6.74 2.29 8.99
6/17/2022 10:45:00 AM 19.52 67.136 0.032 6.72 2.27 8.97
6/17/2022 11:00:00 AM 19.66 67.388 0.03 6.71 3.06 8.96
6/17/2022 11:15:00 AM 19.77 67.586 0.032 6.74 2.41 8.94
6/17/2022 11:30:00 AM 19.86 67.748 0.031 6.74 2.3 8.91
6/17/2022 11:45:00 AM 20 68 0.03 6.72 3.07 8.87
6/17/2022 12:00:00 PM 20.19 68.342 0.03 6.73 3.15 8.87
6/17/2022 12:15:00 PM 20.43 68.774 0.031 6.77 2.27 8.85
6/17/2022 12:30:00 PM 20.64 69.152 0.031 6.78 2.25 8.83
6/17/2022 12:45:00 PM 20.8 69.44 0.031 6.79 2.27 0
6/17/2022 1:00:00 PM 20.99 69.782 0.031 6.78 2.21 8.75
6/17/2022 1:15:00 PM 21.27 70.286 0.029 6.76 3.04 8.73
6/17/2022 1:30:00 PM 21.6 70.88 0.03 6.79 3.13 8.7
6/17/2022 1:45:00 PM 21.79 71.222 0.03 6.8 2.25 8.66
6/17/2022 2:00:00 PM 22 71.6 0.029 6.79 3.07 8.62
6/17/2022 2:15:00 PM 22.23 72.014 0.03 6.82 2.24 8.59
6/17/2022 2:30:00 PM 22.35 72.23 0.03 6.82 2.27 8.54
6/17/2022 2:45:00 PM 22.58 72.644 0.03 6.78 2.24 8.5
6/17/2022 3:00:00 PM 22.83 73.094 0.03 6.84 2.48 8.47
6/17/2022 3:15:00 PM 23.01 73.418 0.029 6.8 3.15 8.46
6/17/2022 3:30:00 PM 23.12 73.616 0.029 6.82 3.11 8.41
6/17/2022 3:45:00 PM 23.24 73.832 0.03 6.79 2.16 8.37
6/17/2022 4:00:00 PM 23.34 74.012 0.029 6.8 3.15 8.34
6/17/2022 4:15:00 PM 23.49 74.282 0.03 6.77 2.27 8.33
6/17/2022 4:30:00 PM 23.54 74.372 0.03 6.84 2.41 8.3
6/17/2022 4:45:00 PM 23.58 74.444 0.028 6.8 3.12 8.26
6/17/2022 5:00:00 PM 23.51 74.318 0.03 6.81 2.77 8.22
6/17/2022 5:15:00 PM 23.53 74.354 0.029 6.78 3.26 8.19
6/17/2022 5:30:00 PM 23.56 74.408 0.029 6.77 3.23 8.17
6/17/2022 5:45:00 PM 23.65 74.57 0.03 6.82 2.2 8.2
6/17/2022 6:00:00 PM 23.61 74.498 0.03 6.81 2.59 8.18
6/17/2022 6:15:00 PM 23.47 74.246 0.03 6.79 2.29 8.18
6/17/2022 6:30:00 PM 23.44 74.192 0.029 6.79 3.18 8.18
6/17/2022 6:45:00 PM 23.33 73.994 0.031 6.77 2.51 8.17
6/17/2022 7:00:00 PM 23.18 73.724 0.03 6.81 2.47 8.18
6/17/2022 7:15:00 PM 22.97 73.346 0.03 6.76 3.23 8.14
6/17/2022 7:30:00 PM 22.78 73.004 0.031 6.79 2.46 8.12
6/17/2022 7:45:00 PM 22.54 72.57201 0.03 6.76 3.23 8.11
6/17/2022 8:00:00 PM 22.32 72.176 0.031 6.75 2.61 8.09
6/17/2022 8:15:00 PM 22.05 71.69 0.032 6.73 2.47 8.04
6/17/2022 8:30:00 PM 21.85 71.33 0.032 6.74 2.48 8.01
6/17/2022 8:45:00 PM 21.62 70.916 0.032 6.71 2.8 7.98
6/17/2022 9:00:00 PM 21.44 70.592 0.032 6.68 2.6 7.98
6/17/2022 9:15:00 PM 21.23 70.214 0.031 6.69 3.55 7.97
6/17/2022 9:30:00 PM 21.04 69.872 0.033 6.68 2.61 7.92
6/17/2022 9:45:00 PM 20.88 69.584 0.032 6.69 2.63 7.92
6/17/2022 10:00:00 PM 20.72 69.296 0.031 6.65 3.34 7.97
6/17/2022 10:15:00 PM 20.59 69.062 0.033 6.68 2.41 7.97
6/17/2022 10:30:00 PM 20.45 68.81 0.032 6.68 2.53 8.01
6/17/2022 10:45:00 PM 20.32 68.576 0.033 6.66 2.82 7.98
6/17/2022 11:00:00 PM 20.18 68.324 0.032 6.67 2.32 8.03
6/17/2022 11:15:00 PM 20.05 68.09 0.033 6.66 2.45 8.03
6/17/2022 11:30:00 PM 19.93 67.874 0.033 6.64 2.54 8.03
6/17/2022 11:45:00 PM 19.81 67.658 0.033 6.58 2.65 8.06
6/18/2022 12:00:00 AM 19.68 67.424 0.033 6.65 2.35 8.08
6/18/2022 12:15:00 AM 19.55 67.19 0.033 6.64 2.55 8.07
6/18/2022 12:30:00 AM 19.43 66.974 0.034 6.63 2.68 8.07
6/18/2022 12:45:00 AM 19.31 66.758 0.032 6.59 3.42 8.14
6/18/2022 1:00:00 AM 19.21 66.578 0.033 6.62 2.48 0
6/18/2022 1:15:00 AM 19.1 66.38 0.033 6.61 2.67 8.16
6/18/2022 1:30:00 AM 19 66.2 0.032 6.58 3.39 8.21
6/18/2022 1:45:00 AM 18.9 66.02 0.033 6.63 2.41 8.23
6/18/2022 2:00:00 AM 18.79 65.82201 0.033 6.54 2.53 8.26
6/18/2022 2:15:00 AM 18.69 65.642 0.031 6.59 3.29 8.26
6/18/2022 2:30:00 AM 18.53 65.354 0.034 6.57 2.58 8.16
6/18/2022 2:45:00 AM 18.34 65.012 0.034 6.58 2.72 8.23
6/18/2022 3:00:00 AM 18.29 64.922 0.034 6.6 2.46 8.28
6/18/2022 3:15:00 AM 18.22 64.796 0.033 6.53 3.27 8.26
6/18/2022 3:30:00 AM 18.13 64.634 0.032 6.52 3.48 8.25
6/18/2022 3:45:00 AM 18.04 64.472 0.033 6.53 3.39 8.3
6/18/2022 4:00:00 AM 17.96 64.328 0.034 6.54 2.43 8.36
6/18/2022 4:15:00 AM 17.9 64.22 0.032 6.57 3.42 8.4
6/18/2022 4:30:00 AM 17.81 64.058 0.034 6.56 7.13 8.35
6/18/2022 4:45:00 AM 17.74 63.932 0.032 6.55 3.77 8.4
6/18/2022 5:00:00 AM 17.59 63.662 0.033 6.6 2.45 8.46
6/18/2022 5:15:00 AM 17.5 63.5 0.033 6.61 2.71 8.48
6/18/2022 5:30:00 AM 17.39 63.302 0.032 6.57 3.85 8.51
6/18/2022 5:45:00 AM 17.31 63.158 0.033 6.62 2.84 8.55
6/18/2022 6:00:00 AM 17.22 62.996 0.033 6.52 2.78 8.56
6/18/2022 6:15:00 AM 17.13 62.834 0.033 6.64 2.76 8.6
6/18/2022 6:30:00 AM 17.05 62.69 0.033 6.62 2.79 8.63
6/18/2022 6:45:00 AM 16.95 62.51 0.033 6.63 2.56 8.65
6/18/2022 7:00:00 AM 16.93 62.474 0.033 6.62 2.78 8.64
6/18/2022 7:15:00 AM 16.83 62.294 0.033 6.61 2.49 8.66
6/18/2022 7:30:00 AM 16.78 62.204 0.032 6.56 3.43 8.68
6/18/2022 7:45:00 AM 16.7 62.06 0.033 6.61 2.45 8.72
6/18/2022 8:00:00 AM 16.68 62.024 0.034 6.6 2.7 8.73
6/18/2022 8:15:00 AM 16.56 61.808 0.033 6.62 2.82 8.86
6/18/2022 8:30:00 AM 16.51 61.718 0.032 6.62 3.62 8.9
6/18/2022 8:45:00 AM 16.48 61.664 0.031 6.61 3.4 8.98
6/18/2022 9:00:00 AM 16.37 61.466 0.033 6.59 2.52 9.04
6/18/2022 9:15:00 AM 16.36 61.448 0.033 6.68 2.4 9.11
6/18/2022 9:30:00 AM 16.36 61.448 0.032 6.69 2.31 9.16
6/18/2022 9:45:00 AM 16.33 61.394 0.033 6.68 2.25 9.2
6/18/2022 10:00:00 AM 16.28 61.304 0.032 6.71 2.33 9.25
6/18/2022 10:15:00 AM 16.3 61.34 0.032 6.7 2.27 9.27
6/18/2022 10:30:00 AM 16.32 61.376 0.032 6.71 2.28 9.31
6/18/2022 10:45:00 AM 16.34 61.412 0.03 6.67 3.21 9.35
6/18/2022 11:00:00 AM 16.35 61.43 0.032 6.64 2.16 9.36
6/18/2022 11:15:00 AM 16.38 61.484 0.033 6.67 2.39 9.37
6/18/2022 11:30:00 AM 16.39 61.502 0.032 6.73 2.2 9.39
6/18/2022 11:45:00 AM 16.35 61.43 0.032 6.74 2.48 9.41
6/18/2022 12:00:00 PM 16.33 61.394 0.032 6.73 2.46 9.41
6/18/2022 12:15:00 PM 16.31 61.358 0.031 6.67 2.21 9.41
6/18/2022 12:30:00 PM 16.33 61.394 0.031 6.75 2.28 9.41
6/18/2022 12:45:00 PM 16.42 61.556 0.031 6.78 2.02 0
6/18/2022 1:00:00 PM 16.43 61.574 0.031 6.73 2.27 0
6/18/2022 1:15:00 PM 16.56 61.808 0.031 6.74 2.4 0
6/18/2022 1:30:00 PM 16.72 62.096 0.031 6.77 2.19 0
6/18/2022 1:45:00 PM 16.71 62.078 0.031 6.78 2.13 0
6/18/2022 2:00:00 PM 16.73 62.114 0.031 6.77 2.28 9.46
6/18/2022 2:15:00 PM 16.9 62.42 0.031 6.78 2.38 9.46
6/18/2022 2:30:00 PM 17.05 62.69 0.031 6.8 2.16 9.47
6/18/2022 2:45:00 PM 17.19 62.942 0.03 6.81 2.28 9.46
6/18/2022 3:00:00 PM 17.28 63.104 0.03 6.75 3.13 9.45
6/18/2022 3:15:00 PM 17.44 63.392 0.03 6.75 2.24 9.42
6/18/2022 3:30:00 PM 17.68 63.824 0.03 6.82 2.32 9.41
6/18/2022 3:45:00 PM 17.82 64.076 0.029 6.78 3.3 9.39
6/18/2022 4:00:00 PM 18.05 64.49 0.03 6.75 2.41 9.37
6/18/2022 4:15:00 PM 18.1 64.58 0.029 6.78 3.36 9.33
6/18/2022 4:30:00 PM 18.18 64.724 0.03 6.82 2.33 9.32
6/18/2022 4:45:00 PM 18.27 64.886 0.03 6.79 2.37 9.29
6/18/2022 5:00:00 PM 18.33 64.994 0.029 6.82 3.32 9.27
6/18/2022 5:15:00 PM 18.48 65.264 0.029 6.79 3.11 9.26
6/18/2022 5:30:00 PM 18.49 65.282 0.03 6.85 2.38 9.24
6/18/2022 5:45:00 PM 18.53 65.354 0.03 6.84 2.16 9.23
6/18/2022 6:00:00 PM 18.58 65.444 0.029 6.82 3.24 9.21
6/18/2022 6:15:00 PM 18.56 65.408 0.031 6.82 2.43 9.18
6/18/2022 6:30:00 PM 18.6 65.48 0.03 6.86 2.1 9.19
6/18/2022 6:45:00 PM 18.57 65.426 0.03 6.82 2.24 9.13
6/18/2022 7:00:00 PM 18.46 65.228 0.031 6.82 2.33 9.14
6/18/2022 7:15:00 PM 18.26 64.868 0.029 6.78 3.12 9.13
6/18/2022 7:30:00 PM 18.14 64.652 0.031 6.78 2.17 9.12
6/18/2022 7:45:00 PM 17.92 64.256 0.031 6.8 2.35 9.07
6/18/2022 8:00:00 PM 17.76 63.968 0.03 6.73 3.13 9.02
6/18/2022 8:15:00 PM 17.54 63.572 0.032 6.64 2.36 8.96
6/18/2022 8:30:00 PM 17.31 63.158 0.031 6.74 2.38 8.97
6/18/2022 8:45:00 PM 17.09 62.762 0.031 6.67 3.42 8.94
6/18/2022 9:00:00 PM 16.89 62.402 0.032 6.7 2.44 8.94
6/18/2022 9:15:00 PM 16.72 62.096 0.032 6.66 2.49 8.92
6/18/2022 9:30:00 PM 16.55 61.79 0.031 6.61 3.52 8.89
6/18/2022 9:45:00 PM 16.38 61.484 0.031 6.6 3.43 8.9
6/18/2022 10:00:00 PM 16.23 61.214 0.031 6.6 3.6 8.92
6/18/2022 10:15:00 PM 16.08 60.944 0.032 6.57 2.64 8.92
6/18/2022 10:30:00 PM 15.9 60.62 0.033 6.63 2.67 8.92
6/18/2022 10:45:00 PM 15.75 60.35 0.035 6.59 2.54 8.83
6/18/2022 11:00:00 PM 15.53 59.954 0.035 6.58 2.49 8.9
6/18/2022 11:15:00 PM 15.47 59.846 0.034 6.59 2.76 8.89
6/18/2022 11:30:00 PM 15.31 59.558 0.035 6.58 2.71 8.89
6/18/2022 11:45:00 PM 15.29 59.522 0.033 6.62 2.67 9
6/19/2022 12:00:00 AM 15.17 59.306 0.034 6.62 2.67 9.04
6/19/2022 12:15:00 AM 15.04 59.072 0.032 6.57 3.43 9.1
6/19/2022 12:30:00 AM 14.94 58.892 0.033 6.5 2.5 9.1
6/19/2022 12:45:00 AM 14.86 58.748 0.034 6.57 2.64 9.1
6/19/2022 1:00:00 AM 14.73 58.514 0.034 6.57 2.49 9.15
6/19/2022 1:15:00 AM 14.67 58.406 0.034 6.57 2.43 9.15
6/19/2022 1:30:00 AM 14.55 58.19 0.034 6.56 2.5 9.2
6/19/2022 1:45:00 AM 14.46 58.028 0.034 6.54 3.49 9.19
6/19/2022 2:00:00 AM 14.37 57.866 0.034 6.56 5.19 9.21
6/19/2022 2:15:00 AM 14.28 57.704 0.033 6.54 2.45 9.27
6/19/2022 2:30:00 AM 14.2 57.56 0.033 6.56 2.64 9.27
6/19/2022 2:45:00 AM 14.13 57.434 0.033 6.56 2.46 9.31
6/19/2022 3:00:00 AM 14.03 57.254 0.034 6.53 2.83 9.28
6/19/2022 3:15:00 AM 13.94 57.092 0.033 6.46 2.52 9.35
6/19/2022 3:30:00 AM 13.88 56.984 0.034 6.53 2.78 9.35
6/19/2022 3:45:00 AM 13.78 56.804 0.033 6.54 2.41 9.36
6/19/2022 4:00:00 AM 13.71 56.678 0.033 6.54 2.51 9.4
6/19/2022 4:15:00 AM 13.63 56.534 0.033 6.54 2.5 9.4
6/19/2022 4:30:00 AM 13.56 56.408 0.032 6.5 3.31 9.42
6/19/2022 4:45:00 AM 13.49 56.282 0.033 6.46 2.48 9.46
6/19/2022 5:00:00 AM 13.42 56.156 0.033 6.5 3.37 9.44
6/19/2022 5:15:00 AM 13.35 56.03 0.034 6.55 2.3 9.49
6/19/2022 5:30:00 AM 13.27 55.886 0.033 6.55 2.37 9.52
6/19/2022 5:45:00 AM 13.21 55.778 0.035 6.53 2.41 9.49
6/19/2022 6:00:00 AM 13.13 55.634 0.034 6.55 2.4 9.55
6/19/2022 6:15:00 AM 13.06 55.508 0.032 6.49 3.36 9.57
6/19/2022 6:30:00 AM 13.02 55.436 0.033 6.49 3.45 9.57
6/19/2022 6:45:00 AM 12.96 55.328 0.036 6.52 2.39 9.53
6/19/2022 7:00:00 AM 12.93 55.274 0.035 6.53 2.46 9.59
6/19/2022 7:15:00 AM 12.89 55.202 0.035 6.56 2.57 9.68
6/19/2022 7:30:00 AM 12.98 55.364 0.034 6.52 3.46 9.69
6/19/2022 7:45:00 AM 12.99 55.382 0.034 6.53 3.58 9.81
6/19/2022 8:00:00 AM 13.03 55.454 0.033 6.58 3.66 9.88
6/19/2022 8:15:00 AM 13.08 55.544 0.034 6.58 2.51 9.94
6/19/2022 8:30:00 AM 13.14 55.652 0.032 6.63 3.4 9.97
6/19/2022 8:45:00 AM 13.31 55.958 0.032 6.63 3.28 9.98
6/19/2022 9:00:00 AM 13.38 56.084 0.034 6.6 2.42 10
6/19/2022 9:15:00 AM 13.48 56.264 0.033 6.7 2.37 10.04
6/19/2022 9:30:00 AM 13.73 56.714 0.033 6.7 2.38 10.02
6/19/2022 9:45:00 AM 13.85 56.93 0.033 6.7 2.32 10.06
6/19/2022 10:00:00 AM 13.97 57.146 0.031 6.7 3.23 10.07
6/19/2022 10:15:00 AM 14.2 57.56 0.035 6.72 2.36 10.02
6/19/2022 10:30:00 AM 14.4 57.92 0.033 6.66 2.37 10.04
6/19/2022 10:45:00 AM 14.52 58.136 0.033 6.75 2.37 10.01
6/19/2022 11:00:00 AM 14.65 58.37 0.033 6.74 2.17 10.02
6/19/2022 11:15:00 AM 14.82 58.676 0.031 6.73 3.22 10.01
6/19/2022 11:30:00 AM 15.03 59.054 0.032 6.78 2.38 9.98
6/19/2022 11:45:00 AM 15.21 59.378 0.032 6.79 2.35 9.96
6/19/2022 12:00:00 PM 15.41 59.738 0.032 6.81 2.26 9.93
6/19/2022 12:15:00 PM 15.61 60.098 0.031 6.75 3.36 9.88
6/19/2022 12:30:00 PM 15.9 60.62 0.032 6.8 2.3 9.83
6/19/2022 12:45:00 PM 16.11 60.998 0.031 6.75 3.16 9.81
6/19/2022 1:00:00 PM 16.4 61.52 0.032 6.77 2.39 9.73
6/19/2022 1:15:00 PM 16.75 62.15 0.031 6.82 2.26 9.67
6/19/2022 1:30:00 PM 17.1 62.78 0.031 6.83 2.46 9.63
6/19/2022 1:45:00 PM 17.41 63.338 0.03 6.79 3.28 9.59
6/19/2022 2:00:00 PM 17.74 63.932 0.032 6.84 2.18 9.53
6/19/2022 2:15:00 PM 18.08 64.544 0.032 6.84 2.34 9.46
6/19/2022 2:30:00 PM 18.4 65.12 0.032 6.84 2.3 9.4
6/19/2022 2:45:00 PM 18.7 65.66 0.03 6.8 3.33 9.33
6/19/2022 3:00:00 PM 18.97 66.146 0.03 6.81 3.15 9.28
6/19/2022 3:15:00 PM 19.25 66.65 0.031 6.85 2.1 9.23
6/19/2022 3:30:00 PM 19.5 67.1 0.031 6.85 2.28 9.17
6/19/2022 3:45:00 PM 19.7 67.46 0.031 6.86 2.14 9.12
6/19/2022 4:00:00 PM 19.91 67.838 0.031 6.85 2.31 9.08
6/19/2022 4:15:00 PM 20.08 68.144 0.03 6.83 3.19 9.05
6/19/2022 4:30:00 PM 20.25 68.45 0.031 6.79 2.16 9.01
6/19/2022 4:45:00 PM 20.41 68.738 0.031 6.88 2.12 8.97
6/19/2022 5:00:00 PM 20.45 68.81 0.03 6.83 3.1 8.96
6/19/2022 5:15:00 PM 20.56 69.008 0.031 6.86 2.23 8.93
6/19/2022 5:30:00 PM 20.55 68.99 0.031 6.87 2.22 8.91
6/19/2022 5:45:00 PM 20.51 68.918 0.03 6.82 3.25 8.9
6/19/2022 6:00:00 PM 20.53 68.954 0.031 6.87 2.18 8.91
6/19/2022 6:15:00 PM 20.45 68.81 0.031 6.87 2.21 8.9
6/19/2022 6:30:00 PM 20.32 68.576 0.03 6.83 3.21 8.89
6/19/2022 6:45:00 PM 20.18 68.324 0.031 6.81 2.3 8.9
6/19/2022 7:00:00 PM 19.98 67.964 0.031 6.82 2.32 8.88
6/19/2022 7:15:00 PM 19.82 67.676 0.031 6.85 2.32 8.88
6/19/2022 7:30:00 PM 19.52 67.136 0.032 6.78 2.36 8.82
6/19/2022 7:45:00 PM 19.19 66.542 0.032 6.78 2.41 8.78
6/19/2022 8:00:00 PM 18.95 66.11 0.032 6.71 3.21 8.76
6/19/2022 8:15:00 PM 18.65 65.57 0.033 6.73 2.38 8.73
6/19/2022 8:30:00 PM 18.34 65.012 0.031 6.73 3.29 8.76
6/19/2022 8:45:00 PM 18.06 64.508 0.033 6.69 2.43 8.75
6/19/2022 9:00:00 PM 17.77 63.986 0.033 6.71 2.28 8.76
6/19/2022 9:15:00 PM 17.55 63.59 0.031 6.68 3.6 8.76
6/19/2022 9:30:00 PM 17.33 63.194 0.033 6.62 2.62 8.77
6/19/2022 9:45:00 PM 17.11 62.798 0.033 6.66 3.66 8.8
6/19/2022 10:00:00 PM 16.9 62.42 0.033 6.67 2.77 8.8
6/19/2022 10:15:00 PM 16.73 62.114 0.033 6.66 2.52 8.82
6/19/2022 10:30:00 PM 16.52 61.736 0.032 6.61 3.68 8.83
6/19/2022 10:45:00 PM 16.33 61.394 0.034 6.57 2.74 8.85
6/19/2022 11:00:00 PM 16.15 61.07 0.032 6.62 3.78 8.87
6/19/2022 11:15:00 PM 15.97 60.746 0.035 6.56 2.75 8.87
6/19/2022 11:30:00 PM 15.79 60.422 0.034 6.63 2.78 8.91
6/19/2022 11:45:00 PM 15.63 60.134 0.035 6.63 3.1 8.92
6/20/2022 12:00:00 AM 15.44 59.792 0.034 6.63 3.05 8.98
6/20/2022 12:15:00 AM 15.29 59.522 0.035 6.6 2.83 8.99
6/20/2022 12:30:00 AM 15.14 59.252 0.035 6.59 2.64 9.01
6/20/2022 12:45:00 AM 14.96 58.928 0.033 6.58 3.75 9.08
6/20/2022 1:00:00 AM 14.78 58.604 0.033 6.57 3.69 9.14
6/20/2022 1:15:00 AM 14.62 58.316 0.035 6.53 2.82 9.17
6/20/2022 1:30:00 AM 14.47 58.046 0.034 6.61 2.71 9.2
6/20/2022 1:45:00 AM 14.3 57.74 0.035 6.6 3.11 9.24
6/20/2022 2:00:00 AM 14.16 57.488 0.034 6.61 2.79 9.31
6/20/2022 2:15:00 AM 14 57.2 0.034 6.64 3.03 9.36
6/20/2022 2:30:00 AM 14.06 57.308 0.034 6.63 2.68 9.33
6/20/2022 2:45:00 AM 13.93 57.074 0.035 6.62 2.58 9.32
6/20/2022 3:00:00 AM 13.77 56.786 0.034 6.61 2.72 9.36
6/20/2022 3:15:00 AM 13.64 56.552 0.033 6.56 3.54 9.4
6/20/2022 3:30:00 AM 13.5 56.3 0.034 6.54 2.52 9.45
6/20/2022 3:45:00 AM 13.38 56.084 0.035 6.6 2.57 9.47
6/20/2022 4:00:00 AM 13.23 55.814 0.034 6.6 2.61 9.47
6/20/2022 4:15:00 AM 13.11 55.598 0.033 6.55 3.56 9.54
6/20/2022 4:30:00 AM 12.97 55.346 0.034 6.61 2.67 9.59
6/20/2022 4:45:00 AM 12.83 55.094 0.034 6.61 2.66 9.62
6/20/2022 5:00:00 AM 12.71 54.878 0.035 6.6 2.51 9.63
6/20/2022 5:15:00 AM 12.6 54.68 0.034 6.6 2.6 9.68
6/20/2022 5:30:00 AM 12.47 54.446 0.034 6.61 2.6 9.72
6/20/2022 5:45:00 AM 12.35 54.23 0.035 6.58 3.01 9.71
6/20/2022 6:00:00 AM 12.25 54.05 0.033 6.54 3.58 9.78
6/20/2022 6:15:00 AM 12.15 53.87 0.034 6.59 2.73 9.8
6/20/2022 6:30:00 AM 12.08 53.744 0.033 6.53 3.55 9.8
6/20/2022 6:45:00 AM 12.03 53.654 0.034 6.54 3.56 9.86
6/20/2022 7:00:00 AM 11.99 53.582 0.035 6.48 2.66 9.92
6/20/2022 7:15:00 AM 11.96 53.528 0.034 6.55 3.44 9.98
6/20/2022 7:30:00 AM 11.94 53.492 0.036 6.49 2.46 10.03
6/20/2022 7:45:00 AM 11.95 53.51 0.036 6.54 3.36 10.07
6/20/2022 8:00:00 AM 12.01 53.618 0.035 6.54 2.43 10.08
6/20/2022 8:15:00 AM 12.09 53.762 0.035 6.54 2.49 10.09
6/20/2022 8:30:00 AM 12.15 53.87 0.036 6.55 2.26 10.09
6/20/2022 8:45:00 AM 12.34 54.212 0.035 6.56 2.34 10.18
6/20/2022 9:00:00 AM 12.51 54.518 0.034 6.61 2.25 10.28
6/20/2022 9:15:00 AM 12.62 54.716 0.033 6.62 3.09 10.29
6/20/2022 9:30:00 AM 12.84 55.112 0.033 6.65 2.28 10.3
6/20/2022 9:45:00 AM 13.06 55.508 0.034 6.65 2.18 10.24
6/20/2022 10:00:00 AM 13.27 55.886 0.033 6.64 2.99 10.27
6/20/2022 10:15:00 AM 13.61 56.498 0.035 6.67 2.09 10.26
6/20/2022 10:30:00 AM 13.79 56.822 0.032 6.66 3.06 10.26
6/20/2022 10:45:00 AM 14.09 57.362 0.034 6.63 2.15 10.24
6/20/2022 11:00:00 AM 14.24 57.632 0.033 6.73 2.06 10.22
6/20/2022 11:15:00 AM 14.58 58.244 0.033 6.68 2.21 10.2
6/20/2022 11:30:00 AM 14.85 58.73 0.033 6.77 2.14 10.17
6/20/2022 11:45:00 AM 15.13 59.234 0.032 6.73 2.99 10.12
6/20/2022 12:00:00 PM 15.47 59.846 0.033 6.79 2.15 10.06
6/20/2022 12:15:00 PM 15.79 60.422 0.033 6.79 2.25 9.98
6/20/2022 12:30:00 PM 16.1 60.98 0.032 6.74 2.97 9.91
6/20/2022 12:45:00 PM 16.46 61.628 0.033 6.82 2.12 9.87
6/20/2022 1:00:00 PM 16.86 62.348 0.033 6.8 2.15 9.79
6/20/2022 1:15:00 PM 17.21 62.978 0.032 6.84 2.09 9.74
6/20/2022 1:30:00 PM 17.54 63.572 0.032 6.84 2.08 9.68
6/20/2022 1:45:00 PM 17.94 64.292 0.032 6.85 2.12 9.6
6/20/2022 2:00:00 PM 18.29 64.922 0.031 6.81 3.06 9.54
6/20/2022 2:15:00 PM 18.7 65.66 0.032 6.78 2.1 9.44
6/20/2022 2:30:00 PM 19.04 66.272 0.033 6.85 2.11 9.37
6/20/2022 2:45:00 PM 19.37 66.866 0.031 6.83 2.9 9.32
6/20/2022 3:00:00 PM 19.65 67.37 0.032 6.86 2.02 9.25
6/20/2022 3:15:00 PM 20.01 68.018 0.032 6.79 1.97 9.19
6/20/2022 3:30:00 PM 20.26 68.468 0.032 6.86 2.09 9.15
6/20/2022 3:45:00 PM 20.5 68.9 0.032 6.86 2.03 9.1
6/20/2022 4:00:00 PM 20.76 69.368 0.032 6.85 2.05 1.29
6/20/2022 4:15:00 PM 20.89 69.602 0.032 6.84 2.05 9
6/20/2022 4:30:00 PM 21.01 69.818 0.032 6.86 2.1 8.95
6/20/2022 4:45:00 PM 21.18 70.124 0.032 6.87 2.08 8.94
6/20/2022 5:00:00 PM 21.29 70.32201 0.032 6.86 2 8.87
6/20/2022 5:15:00 PM 21.36 70.448 0.032 6.86 2.12 8.87
6/20/2022 5:30:00 PM 21.43 70.574 0.032 6.86 2.15 8.82
6/20/2022 5:45:00 PM 21.46 70.628 0.031 6.83 2.91 8.82
6/20/2022 6:00:00 PM 21.47 70.646 0.032 6.84 1.97 8.83
6/20/2022 6:15:00 PM 21.42 70.556 0.033 6.86 1.88 8.81
6/20/2022 6:30:00 PM 21.39 70.502 0.031 6.82 3.03 8.79
6/20/2022 6:45:00 PM 21.28 70.304 0.032 6.86 2.02 8.79
6/20/2022 7:00:00 PM 21.13 70.034 0.032 6.87 2.04 8.76
6/20/2022 7:15:00 PM 20.97 69.746 0.032 6.87 2.23 8.76
6/20/2022 7:30:00 PM 20.76 69.368 0.033 6.78 2.09 8.72
6/20/2022 7:45:00 PM 20.53 68.954 0.033 6.83 2.1 8.7
6/20/2022 8:00:00 PM 20.28 68.504 0.033 6.81 2.2 8.66
6/20/2022 8:15:00 PM 20.01 68.018 0.032 6.75 3.12 8.63
6/20/2022 8:30:00 PM 19.73 67.514 0.034 6.7 2.18 8.56
6/20/2022 8:45:00 PM 19.5 67.1 0.034 6.7 2.2 8.55
6/20/2022 9:00:00 PM 19.23 66.614 0.034 6.75 2.27 8.55
6/20/2022 9:15:00 PM 18.98 66.164 0.034 6.73 2.3 8.5
6/20/2022 9:30:00 PM 18.73 65.714 0.034 6.72 2.32 8.49
6/20/2022 9:45:00 PM 18.53 65.354 0.034 6.69 2.49 8.44
6/20/2022 10:00:00 PM 18.29 64.922 0.034 6.68 2.77 8.49
6/20/2022 10:15:00 PM 18.08 64.544 0.035 6.65 3.04 8.5
6/20/2022 10:30:00 PM 17.89 64.202 0.034 6.68 2.92 8.56
6/20/2022 10:45:00 PM 17.7 63.86 0.033 6.63 3.31 8.55
6/20/2022 11:00:00 PM 17.52 63.536 0.035 6.66 2.96 8.57
6/20/2022 11:15:00 PM 17.34 63.212 0.035 6.59 2.81 8.61
6/20/2022 11:30:00 PM 17.19 62.942 0.034 6.67 2.99 8.64
6/20/2022 11:45:00 PM 17.02 62.636 0.033 6.62 3.65 8.67
6/21/2022 12:00:00 AM 16.84 62.312 0.035 6.58 2.73 8.68
6/21/2022 12:15:00 AM 16.71 62.078 0.034 6.62 3.68 8.69
6/21/2022 12:30:00 AM 16.55 61.79 0.036 6.58 2.98 8.53
6/21/2022 12:45:00 AM 16.41 61.538 0.035 6.6 2.62 8.71
6/21/2022 1:00:00 AM 16.26 61.268 0.034 6.57 3.49 8.77
6/21/2022 1:15:00 AM 16.08 60.944 0.036 6.5 6.58 8.73
6/21/2022 1:30:00 AM 15.95 60.71 0.035 6.62 2.9 8.83
6/21/2022 1:45:00 AM 15.8 60.44 0.034 6.57 3.42 8.88
6/21/2022 2:00:00 AM 15.65 60.17 0.035 6.61 2.98 8.92
6/21/2022 2:15:00 AM 15.5 59.9 0.035 6.55 2.89 8.96
6/21/2022 2:30:00 AM 15.36 59.648 0.035 6.62 2.51 9.02
6/21/2022 2:45:00 AM 15.26 59.468 0.036 6.6 2.53 8.96
6/21/2022 3:00:00 AM 15.09 59.162 0.036 6.54 2.41 9.07
6/21/2022 3:15:00 AM 14.98 58.964 0.035 6.61 2.47 9.08
6/21/2022 3:30:00 AM 14.85 58.73 0.035 6.54 4.35 9.05
6/21/2022 3:45:00 AM 14.69 58.442 0.035 6.61 2.58 9.17
6/21/2022 4:00:00 AM 14.58 58.244 0.036 6.5 3.65 9.05
6/21/2022 4:15:00 AM 14.5 58.1 0.037 6.57 2.6 9.11
6/21/2022 4:30:00 AM 14.38 57.884 0.036 6.58 2.46 9.21
6/21/2022 4:45:00 AM 14.26 57.668 0.037 6.55 2.32 9.2
6/21/2022 5:00:00 AM 14.19 57.542 0.036 6.51 2.48 9.23
6/21/2022 5:15:00 AM 14.1 57.38 0.035 6.6 2.35 9.31
6/21/2022 5:30:00 AM 14.02 57.236 0.034 6.56 3.2 9.34
6/21/2022 5:45:00 AM 13.97 57.146 0.034 6.54 3.23 9.35
6/21/2022 6:00:00 AM 13.92 57.056 0.036 6.56 2.47 9.35
6/21/2022 6:15:00 AM 14.05 57.29 0.036 6.52 2.42 9.3
6/21/2022 6:30:00 AM 14 57.2 0.035 6.58 2.35 9.31
6/21/2022 6:45:00 AM 13.95 57.11 0.036 6.58 2.4 9.32
6/21/2022 7:00:00 AM 13.93 57.074 0.035 6.59 3.78 9.4
6/21/2022 7:15:00 AM 13.91 57.038 0.036 6.53 3.38 9.36
6/21/2022 7:30:00 AM 13.91 57.038 0.038 6.53 2.85 9.3
6/21/2022 7:45:00 AM 13.93 57.074 0.035 6.52 3.26 9.35
6/21/2022 8:00:00 AM 13.93 57.074 0.036 6.58 2.39 9.43
6/21/2022 8:15:00 AM 13.94 57.092 0.036 6.51 2.37 9.43
6/21/2022 8:30:00 AM 13.98 57.164 0.035 6.59 2.5 9.43
6/21/2022 8:45:00 AM 14 57.2 0.035 6.53 3.21 9.4
6/21/2022 9:00:00 AM 14.02 57.236 0.035 6.52 3.18 9.44
6/21/2022 9:15:00 AM 14.07 57.326 0.035 6.66 2.28 9.65
6/21/2022 9:30:00 AM 14.12 57.416 0.034 6.6 3.1 9.59
6/21/2022 9:45:00 AM 14.2 57.56 0.033 6.6 3.12 9.63
6/21/2022 10:00:00 AM 14.32 57.776 0.033 6.61 3.19 9.74
6/21/2022 10:15:00 AM 14.46 58.028 0.034 6.61 2.77 9.76
6/21/2022 10:30:00 AM 14.57 58.226 0.034 6.72 2.21 9.82
6/21/2022 10:45:00 AM 14.77 58.586 0.034 6.49 2.08 9.82
6/21/2022 11:00:00 AM 15.02 59.036 0.035 6.7 2.74 9.85
6/21/2022 11:15:00 AM 15.25 59.45 0.034 6.74 2.2 9.9
6/21/2022 11:30:00 AM 15.41 59.738 0.034 6.75 2.15 9.91
6/21/2022 11:45:00 AM 15.65 60.17 0.034 6.77 2.2 9.95
6/21/2022 12:00:00 PM 15.85 60.53 0.033 6.78 2.15 9.94
6/21/2022 12:15:00 PM 16 60.8 0.033 6.78 2.15 9.89
6/21/2022 12:30:00 PM 16.16 61.088 0.033 6.73 2.05 9.9
6/21/2022 12:45:00 PM 16.37 61.466 0.032 6.79 2.94 9.86
6/21/2022 1:00:00 PM 16.52 61.736 0.033 6.81 2.16 9.84
6/21/2022 1:15:00 PM 16.7 62.06 0.031 6.78 2.96 9.81
6/21/2022 1:30:00 PM 16.94 62.492 0.031 6.78 3 9.78
6/21/2022 1:45:00 PM 17.27 63.086 0.032 6.84 2.17 9.75
6/21/2022 2:00:00 PM 17.6 63.68 0.032 6.85 2.24 9.73
6/21/2022 2:15:00 PM 17.92 64.256 0.032 6.78 2.09 9.67
6/21/2022 2:30:00 PM 18.22 64.796 0.031 6.84 3.01 9.64
6/21/2022 2:45:00 PM 18.53 65.354 0.031 6.84 3.08 9.58
6/21/2022 3:00:00 PM 18.79 65.82201 0.032 6.87 2.11 9.52
6/21/2022 3:15:00 PM 19.23 66.614 0.032 6.88 2.15 9.45
6/21/2022 3:30:00 PM 19.57 67.226 0.032 6.83 2.11 9.38
6/21/2022 3:45:00 PM 19.89 67.802 0.032 6.9 2.11 9.31
6/21/2022 4:00:00 PM 20.16 68.288 0.032 6.88 2.02 9.25
6/21/2022 4:15:00 PM 20.51 68.918 0.032 6.89 2.14 9.2
6/21/2022 4:30:00 PM 20.83 69.494 0.031 6.85 3.16 9.13
6/21/2022 4:45:00 PM 21.13 70.034 0.031 6.87 3.06 9.07
6/21/2022 5:00:00 PM 21.39 70.502 0.032 6.9 2.04 9.02
6/21/2022 5:15:00 PM 21.59 70.862 0.032 6.85 2.11 8.98
6/21/2022 5:30:00 PM 21.8 71.24 0.032 6.9 2.1 8.94
6/21/2022 5:45:00 PM 22.02 71.636 0.032 6.91 1.97 8.92
6/21/2022 6:00:00 PM 22.15 71.87 0.032 6.9 1.99 8.9
6/21/2022 6:15:00 PM 22.18 71.924 0.032 6.9 2.1 8.83
6/21/2022 6:30:00 PM 22.21 71.978 0.032 6.9 1.99 8.79
6/21/2022 6:45:00 PM 22.15 71.87 0.032 6.89 2.11 8.75
6/21/2022 7:00:00 PM 22.07 71.726 0.033 6.89 2.12 8.7
6/21/2022 7:15:00 PM 21.96 71.528 0.032 6.85 2.99 8.67
6/21/2022 7:30:00 PM 21.81 71.258 0.033 6.87 2.14 8.63
6/21/2022 7:45:00 PM 21.64 70.952 0.033 6.86 2.06 8.6
6/21/2022 8:00:00 PM 21.41 70.538 0.032 6.82 2.91 8.55
6/21/2022 8:15:00 PM 21.17 70.106 0.032 6.8 3.08 8.5
6/21/2022 8:30:00 PM 20.97 69.746 0.034 6.81 2.1 8.45
6/21/2022 8:45:00 PM 20.73 69.314 0.034 6.8 2.04 8.42
6/21/2022 9:00:00 PM 20.52 68.936 0.032 6.74 3.03 8.37
6/21/2022 9:15:00 PM 20.32 68.576 0.034 6.71 2.39 8.32
6/21/2022 9:30:00 PM 20.13 68.234 0.034 6.74 2.64 8.28
6/21/2022 9:45:00 PM 19.96 67.92799 0.034 6.67 3.13 8.24
6/21/2022 10:00:00 PM 19.77 67.586 0.034 6.65 3.18 8.19
6/21/2022 10:15:00 PM 19.62 67.316 0.035 6.68 2.29 8.15
6/21/2022 10:30:00 PM 19.44 66.992 0.035 6.69 2.26 8.19
6/21/2022 10:45:00 PM 19.3 66.74 0.036 6.67 2.17 8.19
6/21/2022 11:00:00 PM 19.14 66.452 0.035 6.65 2.32 8.17
6/21/2022 11:15:00 PM 19 66.2 0.035 6.64 4.06 8.14
6/21/2022 11:30:00 PM 18.85 65.93 0.034 6.62 3.84 8.24
6/21/2022 11:45:00 PM 18.71 65.67799 0.035 6.6 2.37 8.3
6/22/2022 12:00:00 AM 18.6 65.48 0.036 6.65 2.15 8.24
6/22/2022 12:15:00 AM 18.48 65.264 0.035 6.65 2.35 8.26
6/22/2022 12:30:00 AM 18.35 65.03 0.035 6.65 2.37 8.32
6/22/2022 12:45:00 AM 18.23 64.814 0.035 6.67 2.26 8.4
6/22/2022 1:00:00 AM 18.13 64.634 0.034 6.61 3.22 8.36
6/22/2022 1:15:00 AM 18.02 64.436 0.035 6.66 2.35 8.41
6/22/2022 1:30:00 AM 17.92 64.256 0.034 6.64 3.15 8.43
6/22/2022 1:45:00 AM 17.82 64.076 0.034 6.61 3.36 8.41
6/22/2022 2:00:00 AM 17.71 63.878 0.035 6.61 3.15 8.43
6/22/2022 2:15:00 AM 17.61 63.698 0.035 6.61 2.4 8.52
6/22/2022 2:30:00 AM 17.53 63.554 0.036 6.64 2.43 8.51
6/22/2022 2:45:00 AM 17.43 63.374 0.036 6.64 2.44 8.53
6/22/2022 3:00:00 AM 17.36 63.248 0.036 6.63 2.23 8.53
6/22/2022 3:15:00 AM 17.25 63.05 0.037 6.59 4.81 8.51
6/22/2022 3:30:00 AM 17.17 62.906 0.034 6.59 3.32 8.57
6/22/2022 3:45:00 AM 17.09 62.762 0.036 6.56 2.74 8.61
6/22/2022 4:00:00 AM 17.01 62.618 0.036 6.64 2.34 8.65
6/22/2022 4:15:00 AM 16.93 62.474 0.036 6.62 2.52 8.62
6/22/2022 4:30:00 AM 16.84 62.312 0.034 6.6 3.35 8.68
6/22/2022 4:45:00 AM 16.78 62.204 0.036 6.65 2.21 8.64
6/22/2022 5:00:00 AM 16.7 62.06 0.037 6.61 2.42 8.69
6/22/2022 5:15:00 AM 16.64 61.952 0.036 6.6 2.29 8.61
6/22/2022 5:30:00 AM 16.54 61.772 0.036 6.62 2.31 8.7
6/22/2022 5:45:00 AM 16.48 61.664 0.036 6.55 3.07 8.66
6/22/2022 6:00:00 AM 16.42 61.556 0.038 6.51 2.37 8.63
6/22/2022 6:15:00 AM 16.36 61.448 0.037 6.53 2.44 8.7
6/22/2022 6:30:00 AM 16.28 61.304 0.037 6.6 2.44 8.72
6/22/2022 6:45:00 AM 16.28 61.304 0.038 6.59 2.39 8.74
6/22/2022 7:00:00 AM 16.29 61.322 0.035 6.56 3.19 8.81
6/22/2022 7:15:00 AM 16.32 61.376 0.035 6.59 3.08 8.89
6/22/2022 7:30:00 AM 16.37 61.466 0.036 6.64 2.42 8.96
6/22/2022 7:45:00 AM 16.49 61.682 0.037 6.62 2.17 8.93
6/22/2022 8:00:00 AM 16.58 61.844 0.036 6.65 2.21 9.02
6/22/2022 8:15:00 AM 16.73 62.114 0.037 6.66 2.25 9.05
6/22/2022 8:30:00 AM 16.78 62.204 0.036 6.7 2.17 9.21
6/22/2022 8:45:00 AM 16.83 62.294 0.036 6.72 2.09 9.25
6/22/2022 9:00:00 AM 16.86 62.348 0.036 6.72 2.22 9.23
6/22/2022 9:15:00 AM 16.99 62.582 0.036 6.72 2.16 9.25
6/22/2022 9:30:00 AM 17.26 63.068 0.036 6.73 2.13 9.28
6/22/2022 9:45:00 AM 17.41 63.338 0.035 6.74 2.11 9.32
6/22/2022 10:00:00 AM 17.49 63.482 0.035 6.76 2.02 9.34
6/22/2022 10:15:00 AM 17.71 63.878 0.035 6.78 2.13 9.36
6/22/2022 10:30:00 AM 17.81 64.058 0.035 6.78 2.11 9.33
6/22/2022 10:45:00 AM 17.94 64.292 0.033 6.73 2.98 9.37
6/22/2022 11:00:00 AM 18.09 64.562 0.035 6.85 2.02 0
6/22/2022 11:15:00 AM 18.24 64.832 0.035 6.81 2.05 9.39
6/22/2022 11:30:00 AM 18.49 65.282 0.035 6.82 2.06 9.36
6/22/2022 11:45:00 AM 18.82 65.876 0.034 6.82 2.02 9.35
6/22/2022 12:00:00 PM 19.07 66.326 0.033 6.8 2.91 9.35
6/22/2022 12:15:00 PM 19.27 66.686 0.033 6.81 2.9 9.33
6/22/2022 12:30:00 PM 19.61 67.298 0.034 6.86 2.04 9.3
6/22/2022 12:45:00 PM 19.88 67.784 0.034 6.86 2 9.26
6/22/2022 1:00:00 PM 20.2 68.36 0.034 6.87 2.02 9.22
6/22/2022 1:15:00 PM 20.55 68.99 0.034 6.87 2.03 9.18
6/22/2022 1:30:00 PM 20.89 69.602 0.034 6.9 2.06 9.14
6/22/2022 1:45:00 PM 21.12 70.016 0.032 6.87 2.81 9.1
6/22/2022 2:00:00 PM 21.32 70.376 0.034 6.83 1.97 9.04
6/22/2022 2:15:00 PM 21.52 70.736 0.034 6.92 2.01 8.99
6/22/2022 2:30:00 PM 21.73 71.114 0.033 6.91 2.05 8.93
6/22/2022 2:45:00 PM 21.93 71.474 0.034 6.91 1.94 8.89
6/22/2022 3:00:00 PM 22.11 71.798 0.034 6.91 1.9 8.86
6/22/2022 3:15:00 PM 22.33 72.194 0.034 6.93 1.97 0
6/22/2022 3:30:00 PM 22.55 72.59 0.032 6.89 2.84 8.79
6/22/2022 3:45:00 PM 22.71 72.878 0.032 6.9 2.9 8.77
6/22/2022 4:00:00 PM 22.8 73.04 0.033 6.93 2.99 8.75
6/22/2022 4:15:00 PM 22.89 73.202 0.033 6.92 1.95 8.7
6/22/2022 4:30:00 PM 22.9 73.22 0.034 6.96 1.93 0
6/22/2022 4:45:00 PM 22.87 73.166 0.032 6.9 3.1 8.62
6/22/2022 5:00:00 PM 22.86 73.148 0.034 6.94 1.97 8.61
6/22/2022 5:15:00 PM 22.84 73.112 0.033 6.89 2.91 8.57
6/22/2022 5:30:00 PM 22.79 73.022 0.033 6.89 2.94 8.55
6/22/2022 5:45:00 PM 22.72 72.896 0.034 6.95 2.02 8.54
6/22/2022 6:00:00 PM 22.57 72.626 0.034 6.91 1.98 8.48
6/22/2022 6:15:00 PM 22.43 72.374 0.034 6.91 1.97 8.44
6/22/2022 6:30:00 PM 22.27 72.086 0.034 6.9 2.03 8.4
6/22/2022 6:45:00 PM 22.12 71.816 0.034 6.89 2.01 8.33
6/22/2022 7:00:00 PM 21.95 71.51 0.034 6.87 2.27 8.3
6/22/2022 7:15:00 PM 21.74 71.132 0.034 6.82 3.05 8.23
6/22/2022 7:30:00 PM 21.58 70.844 0.034 6.8 3.09 8.2
6/22/2022 7:45:00 PM 21.4 70.52 0.035 6.82 2.04 8.15
6/22/2022 8:00:00 PM 21.24 70.232 0.034 6.76 2.99 8.12
6/22/2022 8:15:00 PM 21.04 69.872 0.035 6.78 2.01 0
6/22/2022 8:30:00 PM 20.88 69.584 0.036 6.77 2.03 0
6/22/2022 8:45:00 PM 20.69 69.242 0.036 6.77 2.4 8.05
6/22/2022 9:00:00 PM 20.55 68.99 0.034 6.73 3.04 8.05
6/22/2022 9:15:00 PM 20.4 68.72 0.036 6.73 2.23 8.02
6/22/2022 9:30:00 PM 20.25 68.45 0.036 6.65 2.11 7.97
6/22/2022 9:45:00 PM 20.08 68.144 0.036 6.7 2.26 7.98
6/22/2022 10:00:00 PM 19.97 67.946 0.035 6.68 3.14 8
6/22/2022 10:15:00 PM 19.8 67.64 0.037 6.67 2.27 8.03
6/22/2022 10:30:00 PM 19.58 67.244 0.036 6.72 2.5 8.18
6/22/2022 10:45:00 PM 19.46 67.028 0.04 6.66 14.91 8.2
6/22/2022 11:00:00 PM 19.18 66.524 0.052 6.77 21.44 8.2
6/22/2022 11:15:00 PM 19.06 66.308 0.048 6.75 16.88 8.18
6/22/2022 11:30:00 PM 18.97 66.146 0.047 6.77 13.84 8.22
6/22/2022 11:45:00 PM 18.88 65.984 0.045 6.75 11.05 8.21
6/23/2022 12:00:00 AM 18.77 65.786 0.04 6.71 9.38 8.27
6/23/2022 12:15:00 AM 18.7 65.66 0.04 6.74 6.71 8.3
6/23/2022 12:30:00 AM 18.62 65.516 0.037 6.68 6.2 8.31
6/23/2022 12:45:00 AM 18.55 65.39 0.038 6.68 4.48 8.29
6/23/2022 1:00:00 AM 18.46 65.228 0.035 6.68 4.95 8.35
6/23/2022 1:15:00 AM 18.37 65.066 0.035 6.67 4.93 8.36
6/23/2022 1:30:00 AM 18.29 64.922 0.036 6.69 4.19 8.34
6/23/2022 1:45:00 AM 18.2 64.76 0.036 6.68 3.43 8.37
6/23/2022 2:00:00 AM 18.13 64.634 0.036 6.69 3.74 8.4
6/23/2022 2:15:00 AM 18.07 64.526 0.036 6.69 3.18 8.43
6/23/2022 2:30:00 AM 18 64.4 0.035 6.66 4.18 8.44
6/23/2022 2:45:00 AM 17.92 64.256 0.037 6.64 4.92 8.42
6/23/2022 3:00:00 AM 17.84 64.112 0.037 6.71 3.29 8.52
6/23/2022 3:15:00 AM 17.78 64.004 0.036 6.67 9.3 8.51
6/23/2022 3:30:00 AM 17.71 63.878 0.037 6.67 3.42 8.56
6/23/2022 3:45:00 AM 17.65 63.77 0.035 6.67 4.33 8.58
6/23/2022 4:00:00 AM 17.6 63.68 0.036 6.71 3.76 8.61
6/23/2022 4:15:00 AM 17.53 63.554 0.036 6.7 3.96 8.6
6/23/2022 4:30:00 AM 17.47 63.446 0.035 6.67 4.88 8.65
6/23/2022 4:45:00 AM 17.42 63.356 0.035 6.7 4.26 8.66
6/23/2022 5:00:00 AM 17.38 63.284 0.033 6.68 4.57 8.69
6/23/2022 5:15:00 AM 17.35 63.23 0.035 6.7 3.69 8.67
6/23/2022 5:30:00 AM 17.31 63.158 0.033 6.65 4.36 8.68
6/23/2022 5:45:00 AM 17.29 63.122 0.034 6.69 3.58 8.69
6/23/2022 6:00:00 AM 17.26 63.068 0.034 6.69 3.39 8.71
6/23/2022 6:15:00 AM 17.23 63.014 0.034 6.69 3.5 8.71
6/23/2022 6:30:00 AM 17.21 62.978 0.034 6.69 3.39 8.73
6/23/2022 6:45:00 AM 17.19 62.942 0.034 6.69 3.53 8.74
6/23/2022 7:00:00 AM 17.16 62.888 0.033 6.66 3.95 8.77
6/23/2022 7:15:00 AM 17.14 62.852 0.033 6.7 3.39 8.79
6/23/2022 7:30:00 AM 17.12 62.816 0.033 6.65 3.35 8.82
6/23/2022 7:45:00 AM 17.1 62.78 0.031 6.67 4.45 8.84
6/23/2022 8:00:00 AM 17.09 62.762 0.033 6.71 3.37 8.86
6/23/2022 8:15:00 AM 17.09 62.762 0.033 6.68 3.46 8.89
6/23/2022 8:30:00 AM 17.08 62.744 0.032 6.69 4.36 8.93
6/23/2022 8:45:00 AM 17.07 62.726 0.032 6.7 4.36 8.94
6/23/2022 9:00:00 AM 17.07 62.726 0.031 6.7 4.5 8.97
6/23/2022 9:15:00 AM 17.07 62.726 0.033 6.75 4 9.01
6/23/2022 9:30:00 AM 17.06 62.708 0.033 6.69 3.74 9.03
6/23/2022 9:45:00 AM 17.06 62.708 0.031 6.73 4.7 9.05
6/23/2022 10:00:00 AM 17.06 62.708 0.033 6.72 3.92 9.08
6/23/2022 10:15:00 AM 17.08 62.744 0.033 6.74 3.85 9.09
6/23/2022 10:30:00 AM 17.13 62.834 0.033 6.72 3.78 9.14
6/23/2022 10:45:00 AM 17.23 63.014 0.033 6.77 3.46 0
6/23/2022 11:00:00 AM 17.37 63.266 0.032 6.77 3.39 0
6/23/2022 11:15:00 AM 17.48 63.464 0.032 6.78 3.65 0
6/23/2022 11:30:00 AM 17.64 63.752 0.032 6.79 3.53 9.27
6/23/2022 11:45:00 AM 17.79 64.022 0.03 6.72 4.21 9.27
6/23/2022 12:00:00 PM 17.98 64.364 0.03 6.77 4.16 9.28
6/23/2022 12:15:00 PM 18.11 64.598 0.031 6.77 3.38 9.27
6/23/2022 12:30:00 PM 18.21 64.778 0.031 6.82 3.59 9.25
6/23/2022 12:45:00 PM 18.34 65.012 0.031 6.83 3.4 9.24
6/23/2022 1:00:00 PM 18.48 65.264 0.031 6.82 3.4 9.22
6/23/2022 1:15:00 PM 18.55 65.39 0.031 6.83 3.41 9.21
6/23/2022 1:30:00 PM 18.63 65.534 0.031 6.82 3.31 0
6/23/2022 1:45:00 PM 18.7 65.66 0.031 6.83 3.25 0
6/23/2022 2:00:00 PM 18.73 65.714 0.031 6.82 3.32 9.15
6/23/2022 2:15:00 PM 18.76 65.768 0.03 6.81 4.17 9.15
6/23/2022 2:30:00 PM 18.84 65.912 0.031 6.82 3.53 9.17
6/23/2022 2:45:00 PM 18.86 65.948 0.031 6.83 3.21 9.14
6/23/2022 3:00:00 PM 18.86 65.948 0.031 6.83 3.14 9.13
6/23/2022 3:15:00 PM 18.9 66.02 0.031 6.84 3.19 9.13
6/23/2022 3:30:00 PM 18.98 66.164 0.031 6.83 3.18 9.13
6/23/2022 3:45:00 PM 19 66.2 0.031 6.83 3.33 9.13
6/23/2022 4:00:00 PM 19.06 66.308 0.029 6.8 4.1 9.13
6/23/2022 4:15:00 PM 19.11 66.398 0.029 6.81 4.34 9.13
6/23/2022 4:30:00 PM 19.22 66.596 0.03 6.78 3.15 9.12
6/23/2022 4:45:00 PM 19.28 66.704 0.03 6.86 3.15 9.09
6/23/2022 5:00:00 PM 19.3 66.74 0.031 6.84 3.08 9.06
6/23/2022 5:15:00 PM 19.3 66.74 0.031 6.85 3.11 9.05
6/23/2022 5:30:00 PM 19.28 66.704 0.03 6.81 3.93 9.03
6/23/2022 5:45:00 PM 19.25 66.65 0.031 6.83 3.24 9.01
6/23/2022 6:00:00 PM 19.23 66.614 0.031 6.81 3.02 8.98
6/23/2022 6:15:00 PM 19.18 66.524 0.031 6.82 3.16 8.96
6/23/2022 6:30:00 PM 19.15 66.47 0.031 6.8 3.03 8.94
6/23/2022 6:45:00 PM 19.09 66.362 0.03 6.71 3.93 8.9
6/23/2022 7:00:00 PM 19.05 66.29 0.031 6.77 3.04 8.87
6/23/2022 7:15:00 PM 19 66.2 0.031 6.78 3.01 8.85
6/23/2022 7:30:00 PM 18.94 66.092 0.031 6.79 2.9 8.86
6/23/2022 7:45:00 PM 18.86 65.948 0.03 6.73 3.76 8.81
6/23/2022 8:00:00 PM 18.79 65.82201 0.031 6.77 3.06 8.8
6/23/2022 8:15:00 PM 18.69 65.642 0.031 6.7 3.72 8.75
6/23/2022 8:30:00 PM 18.62 65.516 0.032 6.71 2.8 8.73
6/23/2022 8:45:00 PM 18.55 65.39 0.032 6.74 2.95 8.74
6/23/2022 9:00:00 PM 18.45 65.21 0.032 6.72 3.05 8.68
6/23/2022 9:15:00 PM 18.37 65.066 0.031 6.65 3.78 8.65
6/23/2022 9:30:00 PM 18.28 64.904 0.032 6.69 2.98 8.65
6/23/2022 9:45:00 PM 18.19 64.742 0.031 6.65 3.85 8.64
6/23/2022 10:00:00 PM 18.1 64.58 0.032 6.67 2.92 8.62
6/23/2022 10:15:00 PM 18 64.4 0.032 6.68 2.92 8.65
6/23/2022 10:30:00 PM 17.9 64.22 0.033 6.67 3.11 8.66
6/23/2022 10:45:00 PM 17.8 64.04 0.031 6.62 3.86 8.65
6/23/2022 11:00:00 PM 17.71 63.878 0.033 6.65 2.88 8.66
6/23/2022 11:15:00 PM 17.61 63.698 0.033 6.64 3.01 8.66
6/23/2022 11:30:00 PM 17.51 63.518 0.033 6.65 2.93 8.69
6/23/2022 11:45:00 PM 17.44 63.392 0.033 6.65 3.05 8.71
6/24/2022 12:00:00 AM 17.36 63.248 0.031 6.61 3.92 8.71
6/24/2022 12:15:00 AM 17.28 63.104 0.033 6.61 3 8.72
6/24/2022 12:30:00 AM 17.2 62.96 0.033 6.64 2.98 8.75
6/24/2022 12:45:00 AM 17.11 62.798 0.032 6.65 3.1 8.78
6/24/2022 1:00:00 AM 17.04 62.672 0.032 6.65 3.62 8.78
6/24/2022 1:15:00 AM 16.96 62.528 0.033 6.63 3.19 8.79
6/24/2022 1:30:00 AM 16.89 62.402 0.033 6.63 3.47 8.81
6/24/2022 1:45:00 AM 16.81 62.258 0.033 6.62 3.26 8.83
6/24/2022 2:00:00 AM 16.74 62.132 0.033 6.62 3.37 8.85
6/24/2022 2:15:00 AM 16.66 61.988 0.033 6.63 3.42 8.87
6/24/2022 2:30:00 AM 16.62 61.916 0.033 6.62 3.57 8.86
6/24/2022 2:45:00 AM 16.55 61.79 0.033 6.61 3.42 8.87
6/24/2022 3:00:00 AM 16.49 61.682 0.034 6.61 3.6 8.83
6/24/2022 3:15:00 AM 16.43 61.574 0.033 6.61 3.48 8.9
6/24/2022 3:30:00 AM 16.38 61.484 0.032 6.58 4.36 8.91
6/24/2022 3:45:00 AM 16.34 61.412 0.033 6.6 3.9 8.92
6/24/2022 4:00:00 AM 16.3 61.34 0.033 6.62 3.76 8.93
6/24/2022 4:15:00 AM 16.27 61.286 0.033 6.59 3.72 8.93
6/24/2022 4:30:00 AM 16.23 61.214 0.034 6.59 3.99 8.94
6/24/2022 4:45:00 AM 16.21 61.178 0.032 6.58 4.54 8.96
6/24/2022 5:00:00 AM 16.17 61.106 0.033 6.61 3.59 8.96
6/24/2022 5:15:00 AM 16.15 61.07 0.032 6.55 4.72 8.94
6/24/2022 5:30:00 AM 16.13 61.034 0.033 6.52 3.71 8.95
6/24/2022 5:45:00 AM 16.1 60.98 0.034 6.58 3.58 8.96
6/24/2022 6:00:00 AM 16.08 60.944 0.032 6.56 4.48 8.96
6/24/2022 6:15:00 AM 16.06 60.908 0.032 6.56 4.47 8.97
6/24/2022 6:30:00 AM 16.04 60.872 0.033 6.54 4.5 8.97
6/24/2022 6:45:00 AM 16.04 60.872 0.032 6.54 4.92 8.99
6/24/2022 7:00:00 AM 16.03 60.854 0.033 6.54 4.92 8.97
6/24/2022 7:15:00 AM 16.02 60.836 0.035 6.56 3.97 8.97
6/24/2022 7:30:00 AM 16.03 60.854 0.033 6.61 3.95 9.07
6/24/2022 7:45:00 AM 16.05 60.89 0.033 6.57 5.02 9.1
6/24/2022 8:00:00 AM 16.06 60.908 0.034 6.63 3.51 9.12
6/24/2022 8:15:00 AM 16.1 60.98 0.033 6.64 3.44 9.19
6/24/2022 8:30:00 AM 16.13 61.034 0.033 6.66 3.54 9.23
6/24/2022 8:45:00 AM 16.19 61.142 0.033 6.69 3.38 0
6/24/2022 9:00:00 AM 16.26 61.268 0.032 6.7 3.22 0
6/24/2022 9:15:00 AM 16.35 61.43 0.033 6.7 3.24 0
6/24/2022 9:30:00 AM 16.52 61.736 0.032 6.71 3.01 9.36
6/24/2022 9:45:00 AM 16.73 62.114 0.031 6.74 2.96 9.41
6/24/2022 10:00:00 AM 16.94 62.492 0.031 6.72 4.02 9.41
6/24/2022 10:15:00 AM 17.14 62.852 0.031 6.77 2.97 0
6/24/2022 10:30:00 AM 17.41 63.338 0.031 6.73 2.9 9.4
6/24/2022 10:45:00 AM 17.69 63.842 0.03 6.76 3.95 9.43
6/24/2022 11:00:00 AM 18.05 64.49 0.031 6.77 3.02 9.38
6/24/2022 11:15:00 AM 18.29 64.922 0.031 6.81 3.09 9.36
6/24/2022 11:30:00 AM 18.58 65.444 0.029 6.78 3.91 9.32
6/24/2022 11:45:00 AM 18.91 66.038 0.031 6.81 2.92 9.28
6/24/2022 12:00:00 PM 19.16 66.488 0.031 6.75 3.09 9.23
6/24/2022 12:15:00 PM 19.42 66.956 0.031 6.8 2.84 9.19
6/24/2022 12:30:00 PM 19.74 67.532 0.03 6.83 2.77 9.15
6/24/2022 12:45:00 PM 20.06 68.108 0.03 6.83 2.89 9.1
6/24/2022 1:00:00 PM 20.24 68.432 0.031 6.84 2.82 9.06
6/24/2022 1:15:00 PM 20.37 68.666 0.029 6.8 3.78 9.03
6/24/2022 1:30:00 PM 20.63 69.134 0.03 6.85 2.88 8.98
6/24/2022 1:45:00 PM 20.83 69.494 0.029 6.8 3.65 8.95
6/24/2022 2:00:00 PM 21.02 69.836 0.03 6.86 2.91 8.9
6/24/2022 2:15:00 PM 21.24 70.232 0.03 6.87 2.99 8.85
6/24/2022 2:30:00 PM 21.44 70.592 0.031 6.87 3.03 8.83
6/24/2022 2:45:00 PM 21.52 70.736 0.03 6.87 2.77 8.79
6/24/2022 3:00:00 PM 21.59 70.862 0.03 6.79 2.97 8.75
6/24/2022 3:15:00 PM 21.78 71.204 0.03 6.87 2.83 8.73
6/24/2022 3:30:00 PM 21.88 71.384 0.03 6.87 2.78 8.71
6/24/2022 3:45:00 PM 21.89 71.402 0.031 6.86 2.7 8.7
6/24/2022 4:00:00 PM 22 71.6 0.029 6.84 3.66 8.67
6/24/2022 4:15:00 PM 22.09 71.762 0.03 6.81 2.69 8.62
6/24/2022 4:30:00 PM 22.18 71.924 0.03 6.87 2.85 8.63
6/24/2022 4:45:00 PM 22.19 71.942 0.029 6.84 3.72 8.62
6/24/2022 5:00:00 PM 22.25 72.05 0.03 6.87 2.8 8.61
6/24/2022 5:15:00 PM 22.38 72.284 0.03 6.79 2.93 8.57
6/24/2022 5:30:00 PM 22.4 72.32 0.03 6.87 2.77 8.59
6/24/2022 5:45:00 PM 22.44 72.392 0.03 6.82 2.89 8.59
6/24/2022 6:00:00 PM 22.45 72.41 0.03 6.87 2.86 8.58
6/24/2022 6:15:00 PM 22.45 72.41 0.03 6.85 2.96 8.57
6/24/2022 6:30:00 PM 22.45 72.41 0.03 6.88 2.95 8.56
6/24/2022 6:45:00 PM 22.4 72.32 0.031 6.81 2.94 8.54
6/24/2022 7:00:00 PM 22.31 72.158 0.031 6.87 2.92 8.54
6/24/2022 7:15:00 PM 22.16 71.888 0.03 6.82 3.82 8.51
6/24/2022 7:30:00 PM 21.96 71.528 0.031 6.82 3.66 8.47
6/24/2022 7:45:00 PM 21.75 71.15 0.03 6.78 3.91 8.41
6/24/2022 8:00:00 PM 21.55 70.79 0.032 6.78 2.96 8.35
6/24/2022 8:15:00 PM 21.36 70.448 0.031 6.75 3.72 8.31
6/24/2022 8:30:00 PM 21.19 70.142 0.032 6.77 2.83 8.31
6/24/2022 8:45:00 PM 20.98 69.764 0.032 6.76 2.93 8.28
6/24/2022 9:00:00 PM 20.82 69.476 0.032 6.73 2.8 8.2
6/24/2022 9:15:00 PM 20.64 69.152 0.033 6.72 2.78 8.19
6/24/2022 9:30:00 PM 20.5 68.9 0.032 6.71 2.83 8.21
6/24/2022 9:45:00 PM 20.33 68.594 0.032 6.7 2.89 8.2
6/24/2022 10:00:00 PM 20.18 68.324 0.031 6.65 3.63 8.2
6/24/2022 10:15:00 PM 20.03 68.054 0.032 6.65 3.79 8.2
6/24/2022 10:30:00 PM 19.89 67.802 0.033 6.68 2.83 8.2
6/24/2022 10:45:00 PM 19.76 67.568 0.033 6.67 2.73 8.22
6/24/2022 11:00:00 PM 19.62 67.316 0.033 6.63 2.93 8.22
6/24/2022 11:15:00 PM 19.49 67.082 0.033 6.65 2.86 8.25
6/24/2022 11:30:00 PM 19.36 66.848 0.033 6.63 3.05 8.24
6/24/2022 11:45:00 PM 19.23 66.614 0.033 6.61 3.01 8.25
6/25/2022 12:00:00 AM 19.1 66.38 0.033 6.65 2.83 8.31
6/25/2022 12:15:00 AM 18.97 66.146 0.033 6.64 2.95 8.33
6/25/2022 12:30:00 AM 18.86 65.948 0.033 6.55 3 8.35
6/25/2022 12:45:00 AM 18.74 65.732 0.032 6.6 3.82 8.38
6/25/2022 1:00:00 AM 18.63 65.534 0.033 6.62 2.98 8.38
6/25/2022 1:15:00 AM 18.53 65.354 0.034 6.61 2.8 8.39
6/25/2022 1:30:00 AM 18.41 65.138 0.033 6.62 2.67 8.42
6/25/2022 1:45:00 AM 18.3 64.94 0.033 6.6 2.9 8.43
6/25/2022 2:00:00 AM 18.19 64.742 0.032 6.57 3.66 8.45
6/25/2022 2:15:00 AM 18.09 64.562 0.032 6.58 3.76 8.48
6/25/2022 2:30:00 AM 17.98 64.364 0.033 6.61 2.64 8.52
6/25/2022 2:45:00 AM 17.88 64.184 0.034 6.6 2.84 8.5
6/25/2022 3:00:00 AM 17.78 64.004 0.034 6.59 2.72 8.53
6/25/2022 3:15:00 AM 17.67 63.806 0.034 6.59 2.68 8.56
6/25/2022 3:30:00 AM 17.58 63.644 0.032 6.54 3.53 8.57
6/25/2022 3:45:00 AM 17.48 63.464 0.033 6.51 2.77 8.62
6/25/2022 4:00:00 AM 17.38 63.284 0.034 6.58 2.64 8.63
6/25/2022 4:15:00 AM 17.28 63.104 0.032 6.54 3.57 8.65
6/25/2022 4:30:00 AM 17.19 62.942 0.032 6.54 3.51 8.68
6/25/2022 4:45:00 AM 17.1 62.78 0.034 6.58 2.75 8.69
6/25/2022 5:00:00 AM 17 62.6 0.032 6.55 3.89 8.7
6/25/2022 5:15:00 AM 16.92 62.456 0.034 6.56 2.75 8.72
6/25/2022 5:30:00 AM 16.81 62.258 0.033 6.52 3.69 8.73
6/25/2022 5:45:00 AM 16.74 62.132 0.034 6.56 2.92 8.76
6/25/2022 6:00:00 AM 16.65 61.97 0.034 6.54 2.87 8.78
6/25/2022 6:15:00 AM 16.57 61.826 0.034 6.5 3.72 8.77
6/25/2022 6:30:00 AM 16.5 61.7 0.034 6.53 3.67 8.81
6/25/2022 6:45:00 AM 16.44 61.592 0.034 6.57 2.87 8.89
6/25/2022 7:00:00 AM 16.41 61.538 0.033 6.5 3.63 8.9
6/25/2022 7:15:00 AM 16.38 61.484 0.034 6.59 2.68 9
6/25/2022 7:30:00 AM 16.38 61.484 0.034 6.6 2.56 9.07
6/25/2022 7:45:00 AM 16.42 61.556 0.034 6.6 2.59 9.1
6/25/2022 8:00:00 AM 16.49 61.682 0.034 6.62 2.46 9.14
6/25/2022 8:15:00 AM 16.59 61.862 0.033 6.64 2.34 9.15
6/25/2022 8:30:00 AM 16.71 62.078 0.033 6.66 2.34 9.2
6/25/2022 8:45:00 AM 16.84 62.312 0.034 6.63 2.31 9.18
6/25/2022 9:00:00 AM 17.05 62.69 0.033 6.58 2.51 9.22
6/25/2022 9:15:00 AM 17.23 63.014 0.033 6.66 2.31 9.25
6/25/2022 9:30:00 AM 17.43 63.374 0.033 6.68 2.31 9.28
6/25/2022 9:45:00 AM 17.63 63.734 0.031 6.66 3.32 9.33
6/25/2022 10:00:00 AM 17.93 64.274 0.032 6.62 3.24 9.32
6/25/2022 10:15:00 AM 18.13 64.634 0.032 6.72 2.31 9.34
6/25/2022 10:30:00 AM 18.43 65.174 0.032 6.73 2.5 9.31
6/25/2022 10:45:00 AM 18.64 65.552 0.031 6.72 3.26 9.33
6/25/2022 11:00:00 AM 18.95 66.11 0.032 6.7 2.27 9.3
6/25/2022 11:15:00 AM 19.21 66.578 0.033 6.76 2.37 9.27
6/25/2022 11:30:00 AM 19.5 67.1 0.032 6.77 2.22 9.25
6/25/2022 11:45:00 AM 19.84 67.712 0.032 6.81 2.42 9.2
6/25/2022 12:00:00 PM 20.15 68.27 0.032 6.79 2.24 9.16
6/25/2022 12:15:00 PM 20.43 68.774 0.032 6.73 2.31 9.11
6/25/2022 12:30:00 PM 20.82 69.476 0.032 6.78 2.38 9.07
6/25/2022 12:45:00 PM 21.16 70.088 0.032 6.8 2.35 9.02
6/25/2022 1:00:00 PM 21.55 70.79 0.031 6.84 2.21 8.98
6/25/2022 1:15:00 PM 21.95 71.51 0.031 6.84 2.24 8.93
6/25/2022 1:30:00 PM 22.32 72.176 0.031 6.87 2.18 8.88
6/25/2022 1:45:00 PM 22.65 72.77 0.031 6.87 2.22 8.84
6/25/2022 2:00:00 PM 22.83 73.094 0.03 6.84 3.15 8.79
6/25/2022 2:15:00 PM 22.94 73.292 0.031 6.85 2.14 8.72
6/25/2022 2:30:00 PM 23.05 73.49 0.031 6.86 2.15 8.64
6/25/2022 2:45:00 PM 23.23 73.814 0.031 6.87 2.11 8.59
6/25/2022 3:00:00 PM 23.38 74.084 0.03 6.83 3.05 8.58
6/25/2022 3:15:00 PM 23.58 74.444 0.031 6.88 2.12 8.58
6/25/2022 3:30:00 PM 23.77 74.786 0.031 6.89 2.15 8.56
6/25/2022 3:45:00 PM 23.95 75.11 0.031 6.89 2.31 8.53
6/25/2022 4:00:00 PM 24.02 75.236 0.031 6.89 2.12 8.51
6/25/2022 4:15:00 PM 24 75.2 0.031 6.89 2.42 8.51
6/25/2022 4:30:00 PM 24.01 75.218 0.031 6.89 2.14 8.46
6/25/2022 4:45:00 PM 24.1 75.38 0.03 6.85 2.93 8.41
6/25/2022 5:00:00 PM 24.16 75.488 0.031 6.89 2.14 8.39
6/25/2022 5:15:00 PM 24.2 75.56 0.03 6.86 3.09 8.4
6/25/2022 5:30:00 PM 24.18 75.524 0.031 6.89 2.39 8.39
6/25/2022 5:45:00 PM 24.17 75.506 0.031 6.9 2.27 8.39
6/25/2022 6:00:00 PM 24.2 75.56 0.03 6.86 3.12 8.38
6/25/2022 6:15:00 PM 24.18 75.524 0.03 6.87 3.14 8.38
6/25/2022 6:30:00 PM 24.09 75.362 0.03 6.86 3.09 8.35
6/25/2022 6:45:00 PM 23.94 75.092 0.03 6.86 3.15 8.3
6/25/2022 7:00:00 PM 23.83 74.894 0.03 6.86 3.17 8.28
6/25/2022 7:15:00 PM 23.68 74.624 0.03 6.84 3.18 8.26
6/25/2022 7:30:00 PM 23.5 74.3 0.03 6.86 3.29 8.24
6/25/2022 7:45:00 PM 23.3 73.94 0.031 6.8 2.23 8.21
6/25/2022 8:00:00 PM 23.06 73.508 0.032 6.84 2.47 8.16
6/25/2022 8:15:00 PM 22.85 73.13 0.032 6.75 2.47 8.11
6/25/2022 8:30:00 PM 22.62 72.716 0.03 6.76 3.26 8.07
6/25/2022 8:45:00 PM 22.39 72.302 0.033 6.74 2.49 8.02
6/25/2022 9:00:00 PM 22.17 71.906 0.032 6.7 2.41 8
6/25/2022 9:15:00 PM 21.96 71.528 0.031 6.7 3.34 7.96
6/25/2022 9:30:00 PM 21.78 71.204 0.033 6.68 2.37 7.94
6/25/2022 9:45:00 PM 21.61 70.898 0.034 6.69 3.2 7.84
6/25/2022 10:00:00 PM 21.45 70.61 0.032 6.65 3.48 7.92
6/25/2022 10:15:00 PM 21.26 70.268 0.034 6.68 3.59 7.91
6/25/2022 10:30:00 PM 21.08 69.944 0.033 6.63 3.5 7.86
6/25/2022 10:45:00 PM 20.94 69.692 0.034 6.65 2.56 7.92
6/25/2022 11:00:00 PM 20.79 69.422 0.034 6.67 10.75 7.92
6/25/2022 11:15:00 PM 20.61 69.098 0.034 6.62 2.68 7.93
6/25/2022 11:30:00 PM 20.46 68.828 0.035 6.64 2.41 7.92
6/25/2022 11:45:00 PM 20.31 68.558 0.034 6.65 2.35 8.02
6/26/2022 12:00:00 AM 20.18 68.324 0.034 6.64 2.47 8.04
6/26/2022 12:15:00 AM 20.03 68.054 0.034 6.64 2.33 8.05
6/26/2022 12:30:00 AM 19.9 67.82 0.034 6.64 2.51 8.06
6/26/2022 12:45:00 AM 19.75 67.55 0.034 6.64 2.35 8.12
6/26/2022 1:00:00 AM 19.63 67.334 0.033 6.58 3.56 8.08
6/26/2022 1:15:00 AM 19.49 67.082 0.033 6.59 3.22 8.17
6/26/2022 1:30:00 AM 19.38 66.884 0.033 6.59 3.2 8.18
6/26/2022 1:45:00 AM 19.29 66.722 0.034 6.55 3.34 8.15
6/26/2022 2:00:00 AM 19.15 66.47 0.034 6.63 2.55 8.21
6/26/2022 2:15:00 AM 19.05 66.29 0.033 6.57 3.5 8.23
6/26/2022 2:30:00 AM 18.93 66.074 0.035 6.61 2.45 8.23
6/26/2022 2:45:00 AM 18.83 65.894 0.034 6.61 2.41 8.26
6/26/2022 3:00:00 AM 18.72 65.696 0.035 6.61 2.27 8.26
6/26/2022 3:15:00 AM 18.62 65.516 0.035 6.64 2.28 8.27
6/26/2022 3:30:00 AM 18.52 65.336 0.034 6.54 3.59 8.27
6/26/2022 3:45:00 AM 18.41 65.138 0.035 6.6 2.38 8.34
6/26/2022 4:00:00 AM 18.32 64.976 0.033 6.57 3.22 8.37
6/26/2022 4:15:00 AM 18.22 64.796 0.035 6.55 2.39 8.36
6/26/2022 4:30:00 AM 18.13 64.634 0.035 6.54 2.79 8.36
6/26/2022 4:45:00 AM 18.02 64.436 0.034 6.54 3.53 8.38
6/26/2022 5:00:00 AM 17.93 64.274 0.035 6.51 2.78 8.41
6/26/2022 5:15:00 AM 17.84 64.112 0.035 6.52 2.67 8.43
6/26/2022 5:30:00 AM 17.75 63.95 0.036 6.57 2.7 8.43
6/26/2022 5:45:00 AM 17.67 63.806 0.035 6.6 2.35 8.44
6/26/2022 6:00:00 AM 17.56 63.608 0.035 6.57 2.46 8.5
6/26/2022 6:15:00 AM 17.48 63.464 0.036 6.56 2.78 8.5
6/26/2022 6:30:00 AM 17.4 63.32 0.036 6.57 2.8 8.57
6/26/2022 6:45:00 AM 17.37 63.266 0.036 6.56 2.76 8.58
6/26/2022 7:00:00 AM 17.35 63.23 0.036 6.56 2.98 8.6
6/26/2022 7:15:00 AM 17.32 63.176 0.035 6.53 3.69 8.68
6/26/2022 7:30:00 AM 17.35 63.23 0.034 6.55 3.55 8.77
6/26/2022 7:45:00 AM 17.39 63.302 0.035 6.6 2.45 8.79
6/26/2022 8:00:00 AM 17.46 63.428 0.035 6.61 2.46 0
6/26/2022 8:15:00 AM 17.54 63.572 0.033 6.59 3.28 8.9
6/26/2022 8:30:00 AM 17.62 63.716 0.035 6.66 2.53 8.97
6/26/2022 8:45:00 AM 17.75 63.95 0.036 6.62 2.35 8.91
6/26/2022 9:00:00 AM 17.94 64.292 0.033 6.62 3.35 9.09
6/26/2022 9:15:00 AM 18.03 64.454 0.033 6.67 3.3 9.16
6/26/2022 9:30:00 AM 18.16 64.688 0.033 6.66 3.14 9.17
6/26/2022 9:45:00 AM 18.38 65.084 0.033 6.68 3.13 9.16
6/26/2022 10:00:00 AM 18.61 65.498 0.034 6.74 2.18 9.2
6/26/2022 10:15:00 AM 18.88 65.984 0.034 6.71 3.25 9.18
6/26/2022 10:30:00 AM 19.2 66.56 0.034 6.75 2.3 9.23
6/26/2022 10:45:00 AM 19.41 66.938 0.032 6.75 3.24 9.22
6/26/2022 11:00:00 AM 19.68 67.424 0.032 6.75 3.31 9.22
6/26/2022 11:15:00 AM 19.99 67.982 0.033 6.75 3.54 9.18
6/26/2022 11:30:00 AM 20.3 68.54 0.032 6.8 3.09 9.14
6/26/2022 11:45:00 AM 20.61 69.098 0.033 6.84 2.16 9.11
6/26/2022 12:00:00 PM 20.98 69.764 0.033 6.86 2.15 9.07
6/26/2022 12:15:00 PM 21.28 70.304 0.033 6.86 2.28 9.02
6/26/2022 12:30:00 PM 21.66 70.988 0.033 6.86 2.21 8.97
6/26/2022 12:45:00 PM 22.05 71.69 0.033 6.88 2.26 8.91
6/26/2022 1:00:00 PM 22.47 72.446 0.033 6.87 2.31 8.84
6/26/2022 1:15:00 PM 22.82 73.076 0.032 6.86 3.21 8.8
6/26/2022 1:30:00 PM 23.28 73.904 0.032 6.91 2.21 8.72
6/26/2022 1:45:00 PM 23.62 74.516 0.032 6.91 2.2 0
6/26/2022 2:00:00 PM 23.88 74.984 0.031 6.89 3.01 8.62
6/26/2022 2:15:00 PM 24.23 75.614 0.032 6.86 2.16 8.55
6/26/2022 2:30:00 PM 24.53 76.154 0.032 6.92 2.19 8.51
6/26/2022 2:45:00 PM 24.78 76.604 0.032 6.92 2.06 8.46
6/26/2022 3:00:00 PM 25.01 77.018 0.032 6.93 2.02 8.41
6/26/2022 3:15:00 PM 25.17 77.306 0.031 6.91 3.07 8.37
6/26/2022 3:30:00 PM 25.37 77.666 0.032 6.92 2.14 8.33
6/26/2022 3:45:00 PM 25.5 77.9 0.032 6.93 2.08 8.31
6/26/2022 4:00:00 PM 25.54 77.972 0.032 6.9 2.12 8.28
6/26/2022 4:15:00 PM 25.56 78.008 0.031 6.91 2.9 8.27
6/26/2022 4:30:00 PM 25.59 78.062 0.032 6.94 1.95 8.24
6/26/2022 4:45:00 PM 25.66 78.188 0.032 6.94 1.92 8.22
6/26/2022 5:00:00 PM 25.6 78.08 0.031 6.91 2.99 8.21
6/26/2022 5:15:00 PM 25.47 77.846 0.032 6.91 2.99 8.17
6/26/2022 5:30:00 PM 25.31 77.558 0.032 6.89 2.99 8.11
6/26/2022 5:45:00 PM 25.16 77.288 0.032 6.89 2.91 8.04
6/26/2022 6:00:00 PM 25.03 77.054 0.033 6.9 2.13 8
6/26/2022 6:15:00 PM 24.98 76.964 0.033 6.89 1.95 8
6/26/2022 6:30:00 PM 24.86 76.748 0.031 6.85 2.99 8.02
6/26/2022 6:45:00 PM 24.66 76.388 0.033 6.88 2.03 8.02
6/26/2022 7:00:00 PM 24.45 76.01 0.033 6.87 1.94 7.99
6/26/2022 7:15:00 PM 24.26 75.668 0.032 6.82 2.94 7.92
6/26/2022 7:30:00 PM 24.09 75.362 0.032 6.81 3.02 7.85
6/26/2022 7:45:00 PM 23.94 75.092 0.033 6.82 2.67 7.84
6/26/2022 8:00:00 PM 23.8 74.84 0.033 6.78 2.22 7.83
6/26/2022 8:15:00 PM 23.63 74.534 0.033 6.78 2.95 7.8
6/26/2022 8:30:00 PM 23.51 74.318 0.034 6.79 2.06 7.77
6/26/2022 8:45:00 PM 23.37 74.066 0.034 6.82 2.09 7.76
6/26/2022 9:00:00 PM 23.19 73.742 0.032 6.73 2.97 7.71
6/26/2022 9:15:00 PM 23.07 73.526 0.034 6.75 2.19 7.67
6/26/2022 9:30:00 PM 22.93 73.274 0.033 6.72 3.08 7.65
6/26/2022 9:45:00 PM 22.82 73.076 0.034 6.7 3.08 7.64
6/26/2022 10:00:00 PM 22.7 72.86 0.033 6.71 3.16 7.66
6/26/2022 10:15:00 PM 22.57 72.626 0.034 6.66 3.27 7.57
6/26/2022 10:30:00 PM 22.45 72.41 0.035 6.72 2.43 7.62
6/26/2022 10:45:00 PM 22.36 72.248 0.036 6.71 2.24 7.64
6/26/2022 11:00:00 PM 22.24 72.032 0.036 6.71 2.34 7.63
6/26/2022 11:15:00 PM 22.16 71.888 0.035 6.66 3.24 7.61
6/26/2022 11:30:00 PM 22.06 71.708 0.036 6.7 2.34 7.65
6/26/2022 11:45:00 PM 21.97 71.546 0.035 6.68 2.21 7.65
6/27/2022 12:00:00 AM 21.88 71.384 0.036 6.65 2.43 7.59
6/27/2022 12:15:00 AM 21.81 71.258 0.034 6.64 4.49 7.63
6/27/2022 12:30:00 AM 21.74 71.132 0.036 6.67 2.31 7.6
6/27/2022 12:45:00 AM 21.67 71.006 0.036 6.65 2.61 7.6
6/27/2022 1:00:00 AM 21.59 70.862 0.036 6.63 2.26 7.57
6/27/2022 1:15:00 AM 21.53 70.754 0.036 6.65 2.26 7.63
6/27/2022 1:30:00 AM 21.45 70.61 0.036 6.66 2.3 7.68
6/27/2022 1:45:00 AM 21.38 70.484 0.036 6.64 3.14 7.62
6/27/2022 2:00:00 AM 21.32 70.376 0.036 6.66 2.33 7.69
6/27/2022 2:15:00 AM 21.26 70.268 0.036 6.65 2.31 7.69
6/27/2022 2:30:00 AM 21.19 70.142 0.036 6.67 2.18 7.75
6/27/2022 2:45:00 AM 21.14 70.052 0.036 6.6 3.01 7.75
6/27/2022 3:00:00 AM 21.07 69.926 0.036 6.64 2.25 7.69
6/27/2022 3:15:00 AM 21.02 69.836 0.036 6.63 2.33 7.78
6/27/2022 3:30:00 AM 20.97 69.746 0.036 6.67 2.34 7.8
6/27/2022 3:45:00 AM 20.9 69.62 0.036 6.61 2.37 7.82
6/27/2022 4:00:00 AM 20.86 69.548 0.036 6.66 2.34 7.81
6/27/2022 4:15:00 AM 20.8 69.44 0.035 6.65 3.12 7.82
6/27/2022 4:30:00 AM 20.76 69.368 0.035 6.61 3.27 7.8
6/27/2022 4:45:00 AM 20.71 69.278 0.036 6.59 2.26 7.86
6/27/2022 5:00:00 AM 20.65 69.17 0.037 6.64 2.36 7.79
6/27/2022 5:15:00 AM 20.61 69.098 0.035 6.61 3.26 7.85
6/27/2022 5:30:00 AM 20.57 69.026 0.037 6.63 2.32 7.85
6/27/2022 5:45:00 AM 20.53 68.954 0.036 6.66 2.26 7.89
6/27/2022 6:00:00 AM 20.49 68.882 0.035 6.62 3.18 7.89
6/27/2022 6:15:00 AM 20.45 68.81 0.037 6.64 2.21 7.89
6/27/2022 6:30:00 AM 20.4 68.72 0.037 6.62 2.21 7.92
6/27/2022 6:45:00 AM 20.36 68.648 0.037 6.64 2.37 7.88
6/27/2022 7:00:00 AM 20.33 68.594 0.037 6.64 2.28 7.94
6/27/2022 7:15:00 AM 20.32 68.576 0.037 6.62 2.39 7.92
6/27/2022 7:30:00 AM 20.29 68.522 0.035 6.6 3.13 7.97
6/27/2022 7:45:00 AM 20.26 68.468 0.037 6.65 2.46 8.01
6/27/2022 8:00:00 AM 20.24 68.432 0.034 6.64 3.13 8.08
6/27/2022 8:15:00 AM 20.22 68.396 0.036 6.67 2.24 8.1
6/27/2022 8:30:00 AM 20.22 68.396 0.037 6.67 2.31 8.13
6/27/2022 8:45:00 AM 20.17 68.306 0.037 6.65 2.14 8.16
6/27/2022 9:00:00 AM 20.13 68.234 0.036 6.69 2.17 8.21
6/27/2022 9:15:00 AM 20.12 68.216 0.036 6.69 2.12 8.28
6/27/2022 9:30:00 AM 20.15 68.27 0.035 6.7 2.98 8.33
6/27/2022 9:45:00 AM 20.19 68.342 0.036 6.72 2.13 8.39
6/27/2022 10:00:00 AM 20.26 68.468 0.036 6.74 2.24 8.43
6/27/2022 10:15:00 AM 20.41 68.738 0.035 6.69 3.02 8.53
6/27/2022 10:30:00 AM 20.45 68.81 0.036 6.77 2.05 8.58
6/27/2022 10:45:00 AM 20.49 68.882 0.034 6.74 3.02